<?xml version="1.0" encoding="UTF-8" standalone="no" ?>
<gpx xmlns="http://www.topografix.com/GPX/1/1" xmlns:xsi="http://www.w3.org/2001/XMLSchema-instance" xsi:schemaLocation="http://www.topografix.com/GPX/1/1 http://www.topografix.com/GPX/1/1/gpx.xsd" version="1.1" creator="VisuGPX - https://www.visugpx.com">
  <metadata>
    <name>2025.08.23 Lacs de Consaterre et pic de Thou</name>
  </metadata>
  <trk>
    <name><![CDATA[Lacs de Consaterre Pic de Thou]]></name>
    <trkseg>
      <trkpt lat="42.78402" lon="0.30729">
        <ele>1110</ele>
        <time>2025-08-23T05:41:54Z</time>
      </trkpt>
      <trkpt lat="42.78403" lon="0.30731">
        <ele>1110</ele>
        <time>2025-08-23T05:41:56Z</time>
      </trkpt>
      <trkpt lat="42.78395" lon="0.30729">
        <ele>1110</ele>
        <time>2025-08-23T05:44:59Z</time>
      </trkpt>
      <trkpt lat="42.78386" lon="0.30726">
        <ele>1112</ele>
        <time>2025-08-23T05:45:08Z</time>
      </trkpt>
      <trkpt lat="42.78377" lon="0.30722">
        <ele>1113</ele>
        <time>2025-08-23T05:45:17Z</time>
      </trkpt>
      <trkpt lat="42.78368" lon="0.30724">
        <ele>1113</ele>
        <time>2025-08-23T05:45:29Z</time>
      </trkpt>
      <trkpt lat="42.78359" lon="0.30723">
        <ele>1114</ele>
        <time>2025-08-23T05:45:41Z</time>
      </trkpt>
      <trkpt lat="42.7835" lon="0.30719">
        <ele>1114</ele>
        <time>2025-08-23T05:45:49Z</time>
      </trkpt>
      <trkpt lat="42.7834" lon="0.30719">
        <ele>1114</ele>
        <time>2025-08-23T05:45:57Z</time>
      </trkpt>
      <trkpt lat="42.78331" lon="0.30721">
        <ele>1115</ele>
        <time>2025-08-23T05:46:05Z</time>
      </trkpt>
      <trkpt lat="42.78321" lon="0.30722">
        <ele>1115</ele>
        <time>2025-08-23T05:46:14Z</time>
      </trkpt>
      <trkpt lat="42.78311" lon="0.30725">
        <ele>1112</ele>
        <time>2025-08-23T05:46:23Z</time>
      </trkpt>
      <trkpt lat="42.78301" lon="0.30728">
        <ele>1113</ele>
        <time>2025-08-23T05:46:31Z</time>
      </trkpt>
      <trkpt lat="42.78292" lon="0.3073">
        <ele>1116</ele>
        <time>2025-08-23T05:46:39Z</time>
      </trkpt>
      <trkpt lat="42.78282" lon="0.30732">
        <ele>1116</ele>
        <time>2025-08-23T05:46:47Z</time>
      </trkpt>
      <trkpt lat="42.78273" lon="0.30733">
        <ele>1118</ele>
        <time>2025-08-23T05:47:01Z</time>
      </trkpt>
      <trkpt lat="42.78264" lon="0.30736">
        <ele>1122</ele>
        <time>2025-08-23T05:47:11Z</time>
      </trkpt>
      <trkpt lat="42.78254" lon="0.30736">
        <ele>1123</ele>
        <time>2025-08-23T05:47:23Z</time>
      </trkpt>
      <trkpt lat="42.78245" lon="0.30739">
        <ele>1122</ele>
        <time>2025-08-23T05:47:31Z</time>
      </trkpt>
      <trkpt lat="42.78237" lon="0.30746">
        <ele>1122</ele>
        <time>2025-08-23T05:47:53Z</time>
      </trkpt>
      <trkpt lat="42.78228" lon="0.30748">
        <ele>1121</ele>
        <time>2025-08-23T05:47:57Z</time>
      </trkpt>
      <trkpt lat="42.78221" lon="0.30755">
        <ele>1124</ele>
        <time>2025-08-23T05:48:07Z</time>
      </trkpt>
      <trkpt lat="42.78214" lon="0.30762">
        <ele>1127</ele>
        <time>2025-08-23T05:48:17Z</time>
      </trkpt>
      <trkpt lat="42.78205" lon="0.30769">
        <ele>1129</ele>
        <time>2025-08-23T05:48:25Z</time>
      </trkpt>
      <trkpt lat="42.78196" lon="0.30773">
        <ele>1130</ele>
        <time>2025-08-23T05:48:41Z</time>
      </trkpt>
      <trkpt lat="42.78188" lon="0.3078">
        <ele>1135</ele>
        <time>2025-08-23T05:48:55Z</time>
      </trkpt>
      <trkpt lat="42.7818" lon="0.30787">
        <ele>1141</ele>
        <time>2025-08-23T05:49:11Z</time>
      </trkpt>
      <trkpt lat="42.78173" lon="0.30791">
        <ele>1143</ele>
        <time>2025-08-23T05:49:32Z</time>
      </trkpt>
      <trkpt lat="42.78181" lon="0.30789">
        <ele>1143</ele>
        <time>2025-08-23T05:49:54Z</time>
      </trkpt>
      <trkpt lat="42.78191" lon="0.30792">
        <ele>1144</ele>
        <time>2025-08-23T05:50:02Z</time>
      </trkpt>
      <trkpt lat="42.782" lon="0.30794">
        <ele>1145</ele>
        <time>2025-08-23T05:50:09Z</time>
      </trkpt>
      <trkpt lat="42.78208" lon="0.30793">
        <ele>1147</ele>
        <time>2025-08-23T05:50:20Z</time>
      </trkpt>
      <trkpt lat="42.78217" lon="0.30793">
        <ele>1148</ele>
        <time>2025-08-23T05:50:33Z</time>
      </trkpt>
      <trkpt lat="42.78226" lon="0.30791">
        <ele>1149</ele>
        <time>2025-08-23T05:50:43Z</time>
      </trkpt>
      <trkpt lat="42.78236" lon="0.30793">
        <ele>1152</ele>
        <time>2025-08-23T05:50:54Z</time>
      </trkpt>
      <trkpt lat="42.78245" lon="0.30796">
        <ele>1154</ele>
        <time>2025-08-23T05:51:02Z</time>
      </trkpt>
      <trkpt lat="42.78253" lon="0.30801">
        <ele>1155</ele>
        <time>2025-08-23T05:51:11Z</time>
      </trkpt>
      <trkpt lat="42.78263" lon="0.30804">
        <ele>1156</ele>
        <time>2025-08-23T05:51:49Z</time>
      </trkpt>
      <trkpt lat="42.78273" lon="0.30809">
        <ele>1156</ele>
        <time>2025-08-23T05:51:59Z</time>
      </trkpt>
      <trkpt lat="42.78281" lon="0.30816">
        <ele>1156</ele>
        <time>2025-08-23T05:52:11Z</time>
      </trkpt>
      <trkpt lat="42.78287" lon="0.30824">
        <ele>1157</ele>
        <time>2025-08-23T05:52:20Z</time>
      </trkpt>
      <trkpt lat="42.78295" lon="0.3083">
        <ele>1157</ele>
        <time>2025-08-23T05:52:31Z</time>
      </trkpt>
      <trkpt lat="42.78304" lon="0.3083">
        <ele>1157</ele>
        <time>2025-08-23T05:52:41Z</time>
      </trkpt>
      <trkpt lat="42.78314" lon="0.3083">
        <ele>1158</ele>
        <time>2025-08-23T05:52:49Z</time>
      </trkpt>
      <trkpt lat="42.78325" lon="0.30829">
        <ele>1158</ele>
        <time>2025-08-23T05:53:01Z</time>
      </trkpt>
      <trkpt lat="42.78336" lon="0.30831">
        <ele>1159</ele>
        <time>2025-08-23T05:53:12Z</time>
      </trkpt>
      <trkpt lat="42.78346" lon="0.30833">
        <ele>1158</ele>
        <time>2025-08-23T05:53:19Z</time>
      </trkpt>
      <trkpt lat="42.78356" lon="0.30837">
        <ele>1159</ele>
        <time>2025-08-23T05:53:30Z</time>
      </trkpt>
      <trkpt lat="42.78363" lon="0.30844">
        <ele>1161</ele>
        <time>2025-08-23T05:53:39Z</time>
      </trkpt>
      <trkpt lat="42.78371" lon="0.30851">
        <ele>1163</ele>
        <time>2025-08-23T05:53:50Z</time>
      </trkpt>
      <trkpt lat="42.78375" lon="0.3086">
        <ele>1167</ele>
        <time>2025-08-23T05:54:01Z</time>
      </trkpt>
      <trkpt lat="42.78371" lon="0.30869">
        <ele>1173</ele>
        <time>2025-08-23T05:54:28Z</time>
      </trkpt>
      <trkpt lat="42.78366" lon="0.3088">
        <ele>1178</ele>
        <time>2025-08-23T05:54:49Z</time>
      </trkpt>
      <trkpt lat="42.78365" lon="0.30891">
        <ele>1181</ele>
        <time>2025-08-23T05:55:13Z</time>
      </trkpt>
      <trkpt lat="42.78357" lon="0.30895">
        <ele>1186</ele>
        <time>2025-08-23T05:55:31Z</time>
      </trkpt>
      <trkpt lat="42.78351" lon="0.30903">
        <ele>1192</ele>
        <time>2025-08-23T05:56:00Z</time>
      </trkpt>
      <trkpt lat="42.78345" lon="0.30911">
        <ele>1198</ele>
        <time>2025-08-23T05:56:22Z</time>
      </trkpt>
      <trkpt lat="42.78336" lon="0.30913">
        <ele>1199</ele>
        <time>2025-08-23T05:56:44Z</time>
      </trkpt>
      <trkpt lat="42.78329" lon="0.30919">
        <ele>1202</ele>
        <time>2025-08-23T05:57:09Z</time>
      </trkpt>
      <trkpt lat="42.78323" lon="0.30928">
        <ele>1207</ele>
        <time>2025-08-23T05:57:34Z</time>
      </trkpt>
      <trkpt lat="42.78316" lon="0.30937">
        <ele>1214</ele>
        <time>2025-08-23T05:57:53Z</time>
      </trkpt>
      <trkpt lat="42.78308" lon="0.30941">
        <ele>1220</ele>
        <time>2025-08-23T05:58:11Z</time>
      </trkpt>
      <trkpt lat="42.78299" lon="0.30944">
        <ele>1221</ele>
        <time>2025-08-23T05:58:40Z</time>
      </trkpt>
      <trkpt lat="42.7829" lon="0.30947">
        <ele>1224</ele>
        <time>2025-08-23T05:59:01Z</time>
      </trkpt>
      <trkpt lat="42.78282" lon="0.30952">
        <ele>1229</ele>
        <time>2025-08-23T05:59:24Z</time>
      </trkpt>
      <trkpt lat="42.78273" lon="0.30953">
        <ele>1231</ele>
        <time>2025-08-23T05:59:38Z</time>
      </trkpt>
      <trkpt lat="42.78263" lon="0.30954">
        <ele>1232</ele>
        <time>2025-08-23T05:59:49Z</time>
      </trkpt>
      <trkpt lat="42.78256" lon="0.30958">
        <ele>1236</ele>
        <time>2025-08-23T06:00:05Z</time>
      </trkpt>
      <trkpt lat="42.7825" lon="0.30963">
        <ele>1240</ele>
        <time>2025-08-23T06:00:19Z</time>
      </trkpt>
      <trkpt lat="42.78257" lon="0.30966">
        <ele>1239</ele>
        <time>2025-08-23T06:00:38Z</time>
      </trkpt>
      <trkpt lat="42.78263" lon="0.30972">
        <ele>1242</ele>
        <time>2025-08-23T06:00:58Z</time>
      </trkpt>
      <trkpt lat="42.78257" lon="0.30977">
        <ele>1244</ele>
        <time>2025-08-23T06:01:10Z</time>
      </trkpt>
      <trkpt lat="42.7825" lon="0.30977">
        <ele>1247</ele>
        <time>2025-08-23T06:01:24Z</time>
      </trkpt>
      <trkpt lat="42.78254" lon="0.30981">
        <ele>1247</ele>
        <time>2025-08-23T06:01:41Z</time>
      </trkpt>
      <trkpt lat="42.7825" lon="0.3099">
        <ele>1253</ele>
        <time>2025-08-23T06:02:08Z</time>
      </trkpt>
      <trkpt lat="42.78242" lon="0.30993">
        <ele>1260</ele>
        <time>2025-08-23T06:02:22Z</time>
      </trkpt>
      <trkpt lat="42.78235" lon="0.30993">
        <ele>1263</ele>
        <time>2025-08-23T06:02:38Z</time>
      </trkpt>
      <trkpt lat="42.78239" lon="0.31">
        <ele>1264</ele>
        <time>2025-08-23T06:03:13Z</time>
      </trkpt>
      <trkpt lat="42.78238" lon="0.3101">
        <ele>1271</ele>
        <time>2025-08-23T06:03:40Z</time>
      </trkpt>
      <trkpt lat="42.7823" lon="0.31011">
        <ele>1274</ele>
        <time>2025-08-23T06:03:51Z</time>
      </trkpt>
      <trkpt lat="42.78221" lon="0.31012">
        <ele>1275</ele>
        <time>2025-08-23T06:04:28Z</time>
      </trkpt>
      <trkpt lat="42.78211" lon="0.31012">
        <ele>1281</ele>
        <time>2025-08-23T06:04:48Z</time>
      </trkpt>
      <trkpt lat="42.78203" lon="0.31012">
        <ele>1283</ele>
        <time>2025-08-23T06:05:00Z</time>
      </trkpt>
      <trkpt lat="42.78194" lon="0.31014">
        <ele>1286</ele>
        <time>2025-08-23T06:05:20Z</time>
      </trkpt>
      <trkpt lat="42.78187" lon="0.3102">
        <ele>1290</ele>
        <time>2025-08-23T06:05:47Z</time>
      </trkpt>
      <trkpt lat="42.78181" lon="0.31029">
        <ele>1294</ele>
        <time>2025-08-23T06:06:07Z</time>
      </trkpt>
      <trkpt lat="42.78173" lon="0.31036">
        <ele>1299</ele>
        <time>2025-08-23T06:06:33Z</time>
      </trkpt>
      <trkpt lat="42.78169" lon="0.31048">
        <ele>1306</ele>
        <time>2025-08-23T06:06:51Z</time>
      </trkpt>
      <trkpt lat="42.78166" lon="0.31059">
        <ele>1309</ele>
        <time>2025-08-23T06:07:08Z</time>
      </trkpt>
      <trkpt lat="42.7816" lon="0.31068">
        <ele>1312</ele>
        <time>2025-08-23T06:07:31Z</time>
      </trkpt>
      <trkpt lat="42.78152" lon="0.31074">
        <ele>1312</ele>
        <time>2025-08-23T06:07:42Z</time>
      </trkpt>
      <trkpt lat="42.78146" lon="0.31084">
        <ele>1316</ele>
        <time>2025-08-23T06:08:07Z</time>
      </trkpt>
      <trkpt lat="42.7814" lon="0.31094">
        <ele>1318</ele>
        <time>2025-08-23T06:08:27Z</time>
      </trkpt>
      <trkpt lat="42.78133" lon="0.311">
        <ele>1321</ele>
        <time>2025-08-23T06:08:45Z</time>
      </trkpt>
      <trkpt lat="42.78125" lon="0.31105">
        <ele>1324</ele>
        <time>2025-08-23T06:09:03Z</time>
      </trkpt>
      <trkpt lat="42.78116" lon="0.31112">
        <ele>1328</ele>
        <time>2025-08-23T06:09:29Z</time>
      </trkpt>
      <trkpt lat="42.78108" lon="0.31116">
        <ele>1329</ele>
        <time>2025-08-23T06:09:42Z</time>
      </trkpt>
      <trkpt lat="42.781" lon="0.31124">
        <ele>1332</ele>
        <time>2025-08-23T06:09:58Z</time>
      </trkpt>
      <trkpt lat="42.78093" lon="0.31133">
        <ele>1337</ele>
        <time>2025-08-23T06:10:09Z</time>
      </trkpt>
      <trkpt lat="42.78085" lon="0.31139">
        <ele>1339</ele>
        <time>2025-08-23T06:10:20Z</time>
      </trkpt>
      <trkpt lat="42.78078" lon="0.31148">
        <ele>1342</ele>
        <time>2025-08-23T06:10:42Z</time>
      </trkpt>
      <trkpt lat="42.78071" lon="0.31155">
        <ele>1344</ele>
        <time>2025-08-23T06:10:54Z</time>
      </trkpt>
      <trkpt lat="42.78063" lon="0.3116">
        <ele>1346</ele>
        <time>2025-08-23T06:11:14Z</time>
      </trkpt>
      <trkpt lat="42.78054" lon="0.31162">
        <ele>1348</ele>
        <time>2025-08-23T06:11:34Z</time>
      </trkpt>
      <trkpt lat="42.78046" lon="0.31163">
        <ele>1351</ele>
        <time>2025-08-23T06:11:55Z</time>
      </trkpt>
      <trkpt lat="42.78037" lon="0.31167">
        <ele>1354</ele>
        <time>2025-08-23T06:12:13Z</time>
      </trkpt>
      <trkpt lat="42.78029" lon="0.31174">
        <ele>1358</ele>
        <time>2025-08-23T06:12:35Z</time>
      </trkpt>
      <trkpt lat="42.7802" lon="0.31179">
        <ele>1362</ele>
        <time>2025-08-23T06:13:07Z</time>
      </trkpt>
      <trkpt lat="42.78011" lon="0.31179">
        <ele>1364</ele>
        <time>2025-08-23T06:13:18Z</time>
      </trkpt>
      <trkpt lat="42.78003" lon="0.31175">
        <ele>1363</ele>
        <time>2025-08-23T06:13:52Z</time>
      </trkpt>
      <trkpt lat="42.78001" lon="0.31164">
        <ele>1365</ele>
        <time>2025-08-23T06:14:08Z</time>
      </trkpt>
      <trkpt lat="42.77998" lon="0.31153">
        <ele>1367</ele>
        <time>2025-08-23T06:14:26Z</time>
      </trkpt>
      <trkpt lat="42.77996" lon="0.31141">
        <ele>1370</ele>
        <time>2025-08-23T06:17:29Z</time>
      </trkpt>
      <trkpt lat="42.77996" lon="0.31129">
        <ele>1373</ele>
        <time>2025-08-23T06:17:53Z</time>
      </trkpt>
      <trkpt lat="42.77995" lon="0.31116">
        <ele>1376</ele>
        <time>2025-08-23T06:18:11Z</time>
      </trkpt>
      <trkpt lat="42.77995" lon="0.31098">
        <ele>1381</ele>
        <time>2025-08-23T06:18:29Z</time>
      </trkpt>
      <trkpt lat="42.77996" lon="0.31085">
        <ele>1383</ele>
        <time>2025-08-23T06:18:53Z</time>
      </trkpt>
      <trkpt lat="42.7799" lon="0.31094">
        <ele>1386</ele>
        <time>2025-08-23T06:19:17Z</time>
      </trkpt>
      <trkpt lat="42.77983" lon="0.31102">
        <ele>1389</ele>
        <time>2025-08-23T06:19:35Z</time>
      </trkpt>
      <trkpt lat="42.77975" lon="0.31098">
        <ele>1394</ele>
        <time>2025-08-23T06:19:47Z</time>
      </trkpt>
      <trkpt lat="42.77967" lon="0.31094">
        <ele>1400</ele>
        <time>2025-08-23T06:20:11Z</time>
      </trkpt>
      <trkpt lat="42.77961" lon="0.31102">
        <ele>1401</ele>
        <time>2025-08-23T06:20:29Z</time>
      </trkpt>
      <trkpt lat="42.77954" lon="0.31111">
        <ele>1403</ele>
        <time>2025-08-23T06:20:53Z</time>
      </trkpt>
      <trkpt lat="42.7795" lon="0.31121">
        <ele>1405</ele>
        <time>2025-08-23T06:21:08Z</time>
      </trkpt>
      <trkpt lat="42.77944" lon="0.31131">
        <ele>1409</ele>
        <time>2025-08-23T06:21:22Z</time>
      </trkpt>
      <trkpt lat="42.77936" lon="0.3113">
        <ele>1413</ele>
        <time>2025-08-23T06:21:43Z</time>
      </trkpt>
      <trkpt lat="42.77929" lon="0.31123">
        <ele>1416</ele>
        <time>2025-08-23T06:22:01Z</time>
      </trkpt>
      <trkpt lat="42.77922" lon="0.3112">
        <ele>1419</ele>
        <time>2025-08-23T06:22:29Z</time>
      </trkpt>
      <trkpt lat="42.77919" lon="0.31129">
        <ele>1421</ele>
        <time>2025-08-23T06:22:46Z</time>
      </trkpt>
      <trkpt lat="42.77913" lon="0.31137">
        <ele>1425</ele>
        <time>2025-08-23T06:23:12Z</time>
      </trkpt>
      <trkpt lat="42.77906" lon="0.31145">
        <ele>1430</ele>
        <time>2025-08-23T06:23:29Z</time>
      </trkpt>
      <trkpt lat="42.77899" lon="0.31152">
        <ele>1433</ele>
        <time>2025-08-23T06:24:07Z</time>
      </trkpt>
      <trkpt lat="42.77891" lon="0.31158">
        <ele>1435</ele>
        <time>2025-08-23T06:24:26Z</time>
      </trkpt>
      <trkpt lat="42.77883" lon="0.31163">
        <ele>1443</ele>
        <time>2025-08-23T06:24:47Z</time>
      </trkpt>
      <trkpt lat="42.77878" lon="0.31172">
        <ele>1444</ele>
        <time>2025-08-23T06:24:59Z</time>
      </trkpt>
      <trkpt lat="42.7787" lon="0.3117">
        <ele>1447</ele>
        <time>2025-08-23T06:25:16Z</time>
      </trkpt>
      <trkpt lat="42.77865" lon="0.3116">
        <ele>1450</ele>
        <time>2025-08-23T06:25:37Z</time>
      </trkpt>
      <trkpt lat="42.77863" lon="0.31149">
        <ele>1452</ele>
        <time>2025-08-23T06:26:06Z</time>
      </trkpt>
      <trkpt lat="42.77861" lon="0.31135">
        <ele>1456</ele>
        <time>2025-08-23T06:26:22Z</time>
      </trkpt>
      <trkpt lat="42.77861" lon="0.31121">
        <ele>1460</ele>
        <time>2025-08-23T06:26:36Z</time>
      </trkpt>
      <trkpt lat="42.7786" lon="0.31109">
        <ele>1464</ele>
        <time>2025-08-23T06:27:06Z</time>
      </trkpt>
      <trkpt lat="42.77855" lon="0.31099">
        <ele>1465</ele>
        <time>2025-08-23T06:27:20Z</time>
      </trkpt>
      <trkpt lat="42.77847" lon="0.31095">
        <ele>1467</ele>
        <time>2025-08-23T06:27:33Z</time>
      </trkpt>
      <trkpt lat="42.77843" lon="0.31087">
        <ele>1468</ele>
        <time>2025-08-23T06:27:42Z</time>
      </trkpt>
      <trkpt lat="42.77837" lon="0.31094">
        <ele>1471</ele>
        <time>2025-08-23T06:28:00Z</time>
      </trkpt>
      <trkpt lat="42.77829" lon="0.31101">
        <ele>1473</ele>
        <time>2025-08-23T06:28:15Z</time>
      </trkpt>
      <trkpt lat="42.77821" lon="0.31109">
        <ele>1474</ele>
        <time>2025-08-23T06:28:24Z</time>
      </trkpt>
      <trkpt lat="42.77812" lon="0.31109">
        <ele>1478</ele>
        <time>2025-08-23T06:28:33Z</time>
      </trkpt>
      <trkpt lat="42.77803" lon="0.31111">
        <ele>1480</ele>
        <time>2025-08-23T06:28:53Z</time>
      </trkpt>
      <trkpt lat="42.77795" lon="0.31117">
        <ele>1482</ele>
        <time>2025-08-23T06:29:08Z</time>
      </trkpt>
      <trkpt lat="42.77786" lon="0.31122">
        <ele>1483</ele>
        <time>2025-08-23T06:29:17Z</time>
      </trkpt>
      <trkpt lat="42.77779" lon="0.3113">
        <ele>1485</ele>
        <time>2025-08-23T06:32:10Z</time>
      </trkpt>
      <trkpt lat="42.77772" lon="0.31138">
        <ele>1486</ele>
        <time>2025-08-23T06:32:21Z</time>
      </trkpt>
      <trkpt lat="42.77765" lon="0.31147">
        <ele>1488</ele>
        <time>2025-08-23T06:32:35Z</time>
      </trkpt>
      <trkpt lat="42.7776" lon="0.31157">
        <ele>1489</ele>
        <time>2025-08-23T06:32:50Z</time>
      </trkpt>
      <trkpt lat="42.77756" lon="0.31167">
        <ele>1490</ele>
        <time>2025-08-23T06:33:01Z</time>
      </trkpt>
      <trkpt lat="42.77751" lon="0.31179">
        <ele>1492</ele>
        <time>2025-08-23T06:33:14Z</time>
      </trkpt>
      <trkpt lat="42.77745" lon="0.31189">
        <ele>1493</ele>
        <time>2025-08-23T06:33:26Z</time>
      </trkpt>
      <trkpt lat="42.77739" lon="0.31199">
        <ele>1495</ele>
        <time>2025-08-23T06:33:41Z</time>
      </trkpt>
      <trkpt lat="42.77733" lon="0.31209">
        <ele>1498</ele>
        <time>2025-08-23T06:33:52Z</time>
      </trkpt>
      <trkpt lat="42.77726" lon="0.31217">
        <ele>1500</ele>
        <time>2025-08-23T06:34:05Z</time>
      </trkpt>
      <trkpt lat="42.77718" lon="0.31224">
        <ele>1501</ele>
        <time>2025-08-23T06:34:13Z</time>
      </trkpt>
      <trkpt lat="42.77713" lon="0.31233">
        <ele>1503</ele>
        <time>2025-08-23T06:34:25Z</time>
      </trkpt>
      <trkpt lat="42.77704" lon="0.31238">
        <ele>1506</ele>
        <time>2025-08-23T06:34:46Z</time>
      </trkpt>
      <trkpt lat="42.77696" lon="0.31241">
        <ele>1509</ele>
        <time>2025-08-23T06:34:58Z</time>
      </trkpt>
      <trkpt lat="42.77693" lon="0.31252">
        <ele>1510</ele>
        <time>2025-08-23T06:35:23Z</time>
      </trkpt>
      <trkpt lat="42.77691" lon="0.31264">
        <ele>1512</ele>
        <time>2025-08-23T06:35:39Z</time>
      </trkpt>
      <trkpt lat="42.7769" lon="0.31276">
        <ele>1514</ele>
        <time>2025-08-23T06:36:06Z</time>
      </trkpt>
      <trkpt lat="42.77691" lon="0.31288">
        <ele>1516</ele>
        <time>2025-08-23T06:36:19Z</time>
      </trkpt>
      <trkpt lat="42.77685" lon="0.31297">
        <ele>1520</ele>
        <time>2025-08-23T06:36:29Z</time>
      </trkpt>
      <trkpt lat="42.77678" lon="0.31306">
        <ele>1524</ele>
        <time>2025-08-23T06:36:40Z</time>
      </trkpt>
      <trkpt lat="42.7767" lon="0.31312">
        <ele>1526</ele>
        <time>2025-08-23T06:36:56Z</time>
      </trkpt>
      <trkpt lat="42.77665" lon="0.31322">
        <ele>1528</ele>
        <time>2025-08-23T06:37:11Z</time>
      </trkpt>
      <trkpt lat="42.7766" lon="0.31333">
        <ele>1530</ele>
        <time>2025-08-23T06:37:24Z</time>
      </trkpt>
      <trkpt lat="42.77655" lon="0.31344">
        <ele>1533</ele>
        <time>2025-08-23T06:37:38Z</time>
      </trkpt>
      <trkpt lat="42.77651" lon="0.31356">
        <ele>1534</ele>
        <time>2025-08-23T06:37:52Z</time>
      </trkpt>
      <trkpt lat="42.77647" lon="0.31368">
        <ele>1536</ele>
        <time>2025-08-23T06:38:08Z</time>
      </trkpt>
      <trkpt lat="42.77647" lon="0.3138">
        <ele>1535</ele>
        <time>2025-08-23T06:38:23Z</time>
      </trkpt>
      <trkpt lat="42.77647" lon="0.31392">
        <ele>1535</ele>
        <time>2025-08-23T06:38:40Z</time>
      </trkpt>
      <trkpt lat="42.77645" lon="0.31404">
        <ele>1537</ele>
        <time>2025-08-23T06:38:52Z</time>
      </trkpt>
      <trkpt lat="42.77649" lon="0.31414">
        <ele>1535</ele>
        <time>2025-08-23T06:39:02Z</time>
      </trkpt>
      <trkpt lat="42.77653" lon="0.31425">
        <ele>1533</ele>
        <time>2025-08-23T06:39:24Z</time>
      </trkpt>
      <trkpt lat="42.77653" lon="0.31437">
        <ele>1535</ele>
        <time>2025-08-23T06:39:36Z</time>
      </trkpt>
      <trkpt lat="42.77651" lon="0.31448">
        <ele>1537</ele>
        <time>2025-08-23T06:39:49Z</time>
      </trkpt>
      <trkpt lat="42.77644" lon="0.31455">
        <ele>1542</ele>
        <time>2025-08-23T06:39:59Z</time>
      </trkpt>
      <trkpt lat="42.77639" lon="0.31466">
        <ele>1544</ele>
        <time>2025-08-23T06:40:14Z</time>
      </trkpt>
      <trkpt lat="42.77636" lon="0.31478">
        <ele>1546</ele>
        <time>2025-08-23T06:40:29Z</time>
      </trkpt>
      <trkpt lat="42.77633" lon="0.3149">
        <ele>1548</ele>
        <time>2025-08-23T06:40:41Z</time>
      </trkpt>
      <trkpt lat="42.7763" lon="0.31501">
        <ele>1552</ele>
        <time>2025-08-23T06:40:59Z</time>
      </trkpt>
      <trkpt lat="42.77629" lon="0.31513">
        <ele>1554</ele>
        <time>2025-08-23T06:41:19Z</time>
      </trkpt>
      <trkpt lat="42.7763" lon="0.31525">
        <ele>1556</ele>
        <time>2025-08-23T06:41:34Z</time>
      </trkpt>
      <trkpt lat="42.77632" lon="0.31537">
        <ele>1557</ele>
        <time>2025-08-23T06:41:48Z</time>
      </trkpt>
      <trkpt lat="42.77631" lon="0.3155">
        <ele>1561</ele>
        <time>2025-08-23T06:42:05Z</time>
      </trkpt>
      <trkpt lat="42.77634" lon="0.31561">
        <ele>1563</ele>
        <time>2025-08-23T06:42:21Z</time>
      </trkpt>
      <trkpt lat="42.77634" lon="0.31574">
        <ele>1565</ele>
        <time>2025-08-23T06:42:36Z</time>
      </trkpt>
      <trkpt lat="42.77631" lon="0.31585">
        <ele>1568</ele>
        <time>2025-08-23T06:42:51Z</time>
      </trkpt>
      <trkpt lat="42.77628" lon="0.31597">
        <ele>1572</ele>
        <time>2025-08-23T06:43:10Z</time>
      </trkpt>
      <trkpt lat="42.77627" lon="0.31609">
        <ele>1573</ele>
        <time>2025-08-23T06:43:27Z</time>
      </trkpt>
      <trkpt lat="42.77621" lon="0.31619">
        <ele>1576</ele>
        <time>2025-08-23T06:43:38Z</time>
      </trkpt>
      <trkpt lat="42.77615" lon="0.31627">
        <ele>1579</ele>
        <time>2025-08-23T06:43:54Z</time>
      </trkpt>
      <trkpt lat="42.77609" lon="0.31638">
        <ele>1580</ele>
        <time>2025-08-23T06:44:05Z</time>
      </trkpt>
      <trkpt lat="42.77606" lon="0.31649">
        <ele>1584</ele>
        <time>2025-08-23T06:44:16Z</time>
      </trkpt>
      <trkpt lat="42.77601" lon="0.3166">
        <ele>1587</ele>
        <time>2025-08-23T06:44:32Z</time>
      </trkpt>
      <trkpt lat="42.77598" lon="0.31672">
        <ele>1589</ele>
        <time>2025-08-23T06:44:47Z</time>
      </trkpt>
      <trkpt lat="42.77591" lon="0.3168">
        <ele>1592</ele>
        <time>2025-08-23T06:45:02Z</time>
      </trkpt>
      <trkpt lat="42.77582" lon="0.31686">
        <ele>1595</ele>
        <time>2025-08-23T06:45:13Z</time>
      </trkpt>
      <trkpt lat="42.77576" lon="0.31695">
        <ele>1598</ele>
        <time>2025-08-23T06:45:24Z</time>
      </trkpt>
      <trkpt lat="42.77569" lon="0.31693">
        <ele>1600</ele>
        <time>2025-08-23T06:45:35Z</time>
      </trkpt>
      <trkpt lat="42.77565" lon="0.31682">
        <ele>1601</ele>
        <time>2025-08-23T06:45:45Z</time>
      </trkpt>
      <trkpt lat="42.7756" lon="0.31671">
        <ele>1601</ele>
        <time>2025-08-23T06:45:57Z</time>
      </trkpt>
      <trkpt lat="42.77554" lon="0.31662">
        <ele>1602</ele>
        <time>2025-08-23T06:46:10Z</time>
      </trkpt>
      <trkpt lat="42.77548" lon="0.31651">
        <ele>1604</ele>
        <time>2025-08-23T06:46:26Z</time>
      </trkpt>
      <trkpt lat="42.77543" lon="0.31642">
        <ele>1606</ele>
        <time>2025-08-23T06:46:41Z</time>
      </trkpt>
      <trkpt lat="42.7754" lon="0.31632">
        <ele>1607</ele>
        <time>2025-08-23T06:46:58Z</time>
      </trkpt>
      <trkpt lat="42.7753" lon="0.31636">
        <ele>1610</ele>
        <time>2025-08-23T06:53:51Z</time>
      </trkpt>
      <trkpt lat="42.77524" lon="0.31646">
        <ele>1613</ele>
        <time>2025-08-23T06:54:02Z</time>
      </trkpt>
      <trkpt lat="42.77524" lon="0.31659">
        <ele>1615</ele>
        <time>2025-08-23T06:54:18Z</time>
      </trkpt>
      <trkpt lat="42.77526" lon="0.31671">
        <ele>1617</ele>
        <time>2025-08-23T06:54:29Z</time>
      </trkpt>
      <trkpt lat="42.77528" lon="0.31683">
        <ele>1617</ele>
        <time>2025-08-23T06:54:42Z</time>
      </trkpt>
      <trkpt lat="42.77532" lon="0.31694">
        <ele>1618</ele>
        <time>2025-08-23T06:54:55Z</time>
      </trkpt>
      <trkpt lat="42.77534" lon="0.31706">
        <ele>1619</ele>
        <time>2025-08-23T06:55:06Z</time>
      </trkpt>
      <trkpt lat="42.77532" lon="0.31718">
        <ele>1624</ele>
        <time>2025-08-23T06:55:25Z</time>
      </trkpt>
      <trkpt lat="42.77529" lon="0.3173">
        <ele>1626</ele>
        <time>2025-08-23T06:55:44Z</time>
      </trkpt>
      <trkpt lat="42.77525" lon="0.31739">
        <ele>1630</ele>
        <time>2025-08-23T06:55:58Z</time>
      </trkpt>
      <trkpt lat="42.77528" lon="0.3175">
        <ele>1630</ele>
        <time>2025-08-23T06:56:13Z</time>
      </trkpt>
      <trkpt lat="42.77526" lon="0.31763">
        <ele>1632</ele>
        <time>2025-08-23T06:56:27Z</time>
      </trkpt>
      <trkpt lat="42.77521" lon="0.31773">
        <ele>1635</ele>
        <time>2025-08-23T06:56:45Z</time>
      </trkpt>
      <trkpt lat="42.77514" lon="0.31782">
        <ele>1639</ele>
        <time>2025-08-23T06:57:01Z</time>
      </trkpt>
      <trkpt lat="42.7751" lon="0.31793">
        <ele>1640</ele>
        <time>2025-08-23T06:57:21Z</time>
      </trkpt>
      <trkpt lat="42.77506" lon="0.31805">
        <ele>1641</ele>
        <time>2025-08-23T06:57:33Z</time>
      </trkpt>
      <trkpt lat="42.77501" lon="0.31815">
        <ele>1643</ele>
        <time>2025-08-23T06:57:44Z</time>
      </trkpt>
      <trkpt lat="42.77496" lon="0.31825">
        <ele>1646</ele>
        <time>2025-08-23T06:57:59Z</time>
      </trkpt>
      <trkpt lat="42.77491" lon="0.31835">
        <ele>1650</ele>
        <time>2025-08-23T06:58:10Z</time>
      </trkpt>
      <trkpt lat="42.77488" lon="0.31846">
        <ele>1652</ele>
        <time>2025-08-23T06:58:26Z</time>
      </trkpt>
      <trkpt lat="42.77487" lon="0.31859">
        <ele>1653</ele>
        <time>2025-08-23T06:59:37Z</time>
      </trkpt>
      <trkpt lat="42.77485" lon="0.31871">
        <ele>1655</ele>
        <time>2025-08-23T06:59:49Z</time>
      </trkpt>
      <trkpt lat="42.77484" lon="0.31883">
        <ele>1659</ele>
        <time>2025-08-23T07:00:05Z</time>
      </trkpt>
      <trkpt lat="42.77486" lon="0.31895">
        <ele>1660</ele>
        <time>2025-08-23T07:00:18Z</time>
      </trkpt>
      <trkpt lat="42.77486" lon="0.31908">
        <ele>1663</ele>
        <time>2025-08-23T07:00:40Z</time>
      </trkpt>
      <trkpt lat="42.77484" lon="0.3192">
        <ele>1667</ele>
        <time>2025-08-23T07:01:02Z</time>
      </trkpt>
      <trkpt lat="42.77483" lon="0.31933">
        <ele>1670</ele>
        <time>2025-08-23T07:01:19Z</time>
      </trkpt>
      <trkpt lat="42.77481" lon="0.31945">
        <ele>1673</ele>
        <time>2025-08-23T07:01:38Z</time>
      </trkpt>
      <trkpt lat="42.7748" lon="0.31957">
        <ele>1677</ele>
        <time>2025-08-23T07:01:52Z</time>
      </trkpt>
      <trkpt lat="42.77479" lon="0.31969">
        <ele>1680</ele>
        <time>2025-08-23T07:02:11Z</time>
      </trkpt>
      <trkpt lat="42.77476" lon="0.31981">
        <ele>1685</ele>
        <time>2025-08-23T07:02:28Z</time>
      </trkpt>
      <trkpt lat="42.77474" lon="0.31993">
        <ele>1690</ele>
        <time>2025-08-23T07:02:59Z</time>
      </trkpt>
      <trkpt lat="42.77476" lon="0.32006">
        <ele>1691</ele>
        <time>2025-08-23T07:03:15Z</time>
      </trkpt>
      <trkpt lat="42.77474" lon="0.32019">
        <ele>1695</ele>
        <time>2025-08-23T07:03:33Z</time>
      </trkpt>
      <trkpt lat="42.77472" lon="0.32031">
        <ele>1697</ele>
        <time>2025-08-23T07:03:47Z</time>
      </trkpt>
      <trkpt lat="42.77472" lon="0.32046">
        <ele>1700</ele>
        <time>2025-08-23T07:04:18Z</time>
      </trkpt>
      <trkpt lat="42.77472" lon="0.32058">
        <ele>1704</ele>
        <time>2025-08-23T07:04:27Z</time>
      </trkpt>
      <trkpt lat="42.77476" lon="0.32069">
        <ele>1703</ele>
        <time>2025-08-23T07:04:44Z</time>
      </trkpt>
      <trkpt lat="42.77474" lon="0.3208">
        <ele>1707</ele>
        <time>2025-08-23T07:05:03Z</time>
      </trkpt>
      <trkpt lat="42.77469" lon="0.3209">
        <ele>1711</ele>
        <time>2025-08-23T07:05:28Z</time>
      </trkpt>
      <trkpt lat="42.77467" lon="0.32103">
        <ele>1715</ele>
        <time>2025-08-23T07:05:55Z</time>
      </trkpt>
      <trkpt lat="42.77465" lon="0.32116">
        <ele>1718</ele>
        <time>2025-08-23T07:06:13Z</time>
      </trkpt>
      <trkpt lat="42.77463" lon="0.32127">
        <ele>1721</ele>
        <time>2025-08-23T07:06:26Z</time>
      </trkpt>
      <trkpt lat="42.77457" lon="0.32135">
        <ele>1723</ele>
        <time>2025-08-23T07:06:46Z</time>
      </trkpt>
      <trkpt lat="42.77457" lon="0.32146">
        <ele>1727</ele>
        <time>2025-08-23T07:07:01Z</time>
      </trkpt>
      <trkpt lat="42.77462" lon="0.32155">
        <ele>1729</ele>
        <time>2025-08-23T07:07:20Z</time>
      </trkpt>
      <trkpt lat="42.77461" lon="0.32166">
        <ele>1736</ele>
        <time>2025-08-23T07:07:51Z</time>
      </trkpt>
      <trkpt lat="42.77454" lon="0.32174">
        <ele>1737</ele>
        <time>2025-08-23T07:08:08Z</time>
      </trkpt>
      <trkpt lat="42.77447" lon="0.32181">
        <ele>1740</ele>
        <time>2025-08-23T07:08:38Z</time>
      </trkpt>
      <trkpt lat="42.77439" lon="0.32186">
        <ele>1743</ele>
        <time>2025-08-23T07:09:03Z</time>
      </trkpt>
      <trkpt lat="42.77434" lon="0.32196">
        <ele>1746</ele>
        <time>2025-08-23T07:09:24Z</time>
      </trkpt>
      <trkpt lat="42.77431" lon="0.32207">
        <ele>1748</ele>
        <time>2025-08-23T07:09:53Z</time>
      </trkpt>
      <trkpt lat="42.77429" lon="0.32219">
        <ele>1753</ele>
        <time>2025-08-23T07:10:19Z</time>
      </trkpt>
      <trkpt lat="42.77429" lon="0.32232">
        <ele>1761</ele>
        <time>2025-08-23T07:10:42Z</time>
      </trkpt>
      <trkpt lat="42.77427" lon="0.32244">
        <ele>1763</ele>
        <time>2025-08-23T07:11:39Z</time>
      </trkpt>
      <trkpt lat="42.77425" lon="0.32256">
        <ele>1768</ele>
        <time>2025-08-23T07:12:30Z</time>
      </trkpt>
      <trkpt lat="42.77423" lon="0.32268">
        <ele>1772</ele>
        <time>2025-08-23T07:12:51Z</time>
      </trkpt>
      <trkpt lat="42.77419" lon="0.32279">
        <ele>1774</ele>
        <time>2025-08-23T07:13:14Z</time>
      </trkpt>
      <trkpt lat="42.77417" lon="0.32291">
        <ele>1777</ele>
        <time>2025-08-23T07:13:48Z</time>
      </trkpt>
      <trkpt lat="42.77413" lon="0.32301">
        <ele>1781</ele>
        <time>2025-08-23T07:14:37Z</time>
      </trkpt>
      <trkpt lat="42.77405" lon="0.32309">
        <ele>1784</ele>
        <time>2025-08-23T07:14:51Z</time>
      </trkpt>
      <trkpt lat="42.77399" lon="0.3232">
        <ele>1786</ele>
        <time>2025-08-23T07:15:08Z</time>
      </trkpt>
      <trkpt lat="42.77395" lon="0.32331">
        <ele>1791</ele>
        <time>2025-08-23T07:15:25Z</time>
      </trkpt>
      <trkpt lat="42.7739" lon="0.32341">
        <ele>1794</ele>
        <time>2025-08-23T07:15:45Z</time>
      </trkpt>
      <trkpt lat="42.77385" lon="0.32351">
        <ele>1797</ele>
        <time>2025-08-23T07:16:06Z</time>
      </trkpt>
      <trkpt lat="42.7738" lon="0.32362">
        <ele>1800</ele>
        <time>2025-08-23T07:16:22Z</time>
      </trkpt>
      <trkpt lat="42.77376" lon="0.32374">
        <ele>1802</ele>
        <time>2025-08-23T07:16:41Z</time>
      </trkpt>
      <trkpt lat="42.77374" lon="0.32387">
        <ele>1805</ele>
        <time>2025-08-23T07:17:01Z</time>
      </trkpt>
      <trkpt lat="42.77375" lon="0.324">
        <ele>1810</ele>
        <time>2025-08-23T07:17:27Z</time>
      </trkpt>
      <trkpt lat="42.77375" lon="0.32412">
        <ele>1813</ele>
        <time>2025-08-23T07:17:46Z</time>
      </trkpt>
      <trkpt lat="42.77373" lon="0.32424">
        <ele>1817</ele>
        <time>2025-08-23T07:18:06Z</time>
      </trkpt>
      <trkpt lat="42.7737" lon="0.32435">
        <ele>1820</ele>
        <time>2025-08-23T07:18:24Z</time>
      </trkpt>
      <trkpt lat="42.77368" lon="0.32447">
        <ele>1822</ele>
        <time>2025-08-23T07:18:49Z</time>
      </trkpt>
      <trkpt lat="42.77366" lon="0.32459">
        <ele>1827</ele>
        <time>2025-08-23T07:19:09Z</time>
      </trkpt>
      <trkpt lat="42.77369" lon="0.3247">
        <ele>1831</ele>
        <time>2025-08-23T07:19:31Z</time>
      </trkpt>
      <trkpt lat="42.77371" lon="0.32482">
        <ele>1836</ele>
        <time>2025-08-23T07:19:57Z</time>
      </trkpt>
      <trkpt lat="42.77369" lon="0.32493">
        <ele>1840</ele>
        <time>2025-08-23T07:20:50Z</time>
      </trkpt>
      <trkpt lat="42.77373" lon="0.32504">
        <ele>1845</ele>
        <time>2025-08-23T07:21:24Z</time>
      </trkpt>
      <trkpt lat="42.77379" lon="0.3251">
        <ele>1848</ele>
        <time>2025-08-23T07:21:47Z</time>
      </trkpt>
      <trkpt lat="42.77383" lon="0.3252">
        <ele>1851</ele>
        <time>2025-08-23T07:22:21Z</time>
      </trkpt>
      <trkpt lat="42.7739" lon="0.3253">
        <ele>1855</ele>
        <time>2025-08-23T07:22:52Z</time>
      </trkpt>
      <trkpt lat="42.77398" lon="0.32536">
        <ele>1860</ele>
        <time>2025-08-23T07:23:40Z</time>
      </trkpt>
      <trkpt lat="42.77398" lon="0.32546">
        <ele>1865</ele>
        <time>2025-08-23T07:25:09Z</time>
      </trkpt>
      <trkpt lat="42.77398" lon="0.32558">
        <ele>1870</ele>
        <time>2025-08-23T07:25:27Z</time>
      </trkpt>
      <trkpt lat="42.77396" lon="0.3257">
        <ele>1874</ele>
        <time>2025-08-23T07:25:49Z</time>
      </trkpt>
      <trkpt lat="42.77391" lon="0.3258">
        <ele>1876</ele>
        <time>2025-08-23T07:26:08Z</time>
      </trkpt>
      <trkpt lat="42.77387" lon="0.32591">
        <ele>1880</ele>
        <time>2025-08-23T07:26:29Z</time>
      </trkpt>
      <trkpt lat="42.77384" lon="0.32602">
        <ele>1881</ele>
        <time>2025-08-23T07:26:42Z</time>
      </trkpt>
      <trkpt lat="42.77381" lon="0.32614">
        <ele>1886</ele>
        <time>2025-08-23T07:27:02Z</time>
      </trkpt>
      <trkpt lat="42.77377" lon="0.32625">
        <ele>1889</ele>
        <time>2025-08-23T07:27:28Z</time>
      </trkpt>
      <trkpt lat="42.77373" lon="0.32636">
        <ele>1891</ele>
        <time>2025-08-23T07:27:47Z</time>
      </trkpt>
      <trkpt lat="42.77373" lon="0.32648">
        <ele>1896</ele>
        <time>2025-08-23T07:28:27Z</time>
      </trkpt>
      <trkpt lat="42.77378" lon="0.32657">
        <ele>1902</ele>
        <time>2025-08-23T07:28:56Z</time>
      </trkpt>
      <trkpt lat="42.7738" lon="0.32667">
        <ele>1905</ele>
        <time>2025-08-23T07:29:25Z</time>
      </trkpt>
      <trkpt lat="42.77375" lon="0.32676">
        <ele>1907</ele>
        <time>2025-08-23T07:29:46Z</time>
      </trkpt>
      <trkpt lat="42.77369" lon="0.32685">
        <ele>1910</ele>
        <time>2025-08-23T07:30:08Z</time>
      </trkpt>
      <trkpt lat="42.77363" lon="0.32693">
        <ele>1913</ele>
        <time>2025-08-23T07:30:23Z</time>
      </trkpt>
      <trkpt lat="42.77356" lon="0.32701">
        <ele>1913</ele>
        <time>2025-08-23T07:30:38Z</time>
      </trkpt>
      <trkpt lat="42.7735" lon="0.32712">
        <ele>1919</ele>
        <time>2025-08-23T07:31:09Z</time>
      </trkpt>
      <trkpt lat="42.77343" lon="0.32721">
        <ele>1924</ele>
        <time>2025-08-23T07:31:27Z</time>
      </trkpt>
      <trkpt lat="42.77336" lon="0.32728">
        <ele>1926</ele>
        <time>2025-08-23T07:31:56Z</time>
      </trkpt>
      <trkpt lat="42.77328" lon="0.32733">
        <ele>1929</ele>
        <time>2025-08-23T07:32:27Z</time>
      </trkpt>
      <trkpt lat="42.7732" lon="0.32737">
        <ele>1932</ele>
        <time>2025-08-23T07:32:56Z</time>
      </trkpt>
      <trkpt lat="42.77311" lon="0.32741">
        <ele>1936</ele>
        <time>2025-08-23T07:35:08Z</time>
      </trkpt>
      <trkpt lat="42.77303" lon="0.32747">
        <ele>1938</ele>
        <time>2025-08-23T07:35:22Z</time>
      </trkpt>
      <trkpt lat="42.77295" lon="0.32753">
        <ele>1938</ele>
        <time>2025-08-23T07:35:35Z</time>
      </trkpt>
      <trkpt lat="42.77286" lon="0.32755">
        <ele>1938</ele>
        <time>2025-08-23T07:35:48Z</time>
      </trkpt>
      <trkpt lat="42.77279" lon="0.32763">
        <ele>1941</ele>
        <time>2025-08-23T07:36:15Z</time>
      </trkpt>
      <trkpt lat="42.77273" lon="0.32773">
        <ele>1943</ele>
        <time>2025-08-23T07:36:31Z</time>
      </trkpt>
      <trkpt lat="42.77267" lon="0.32782">
        <ele>1944</ele>
        <time>2025-08-23T07:36:41Z</time>
      </trkpt>
      <trkpt lat="42.77259" lon="0.32788">
        <ele>1945</ele>
        <time>2025-08-23T07:36:50Z</time>
      </trkpt>
      <trkpt lat="42.77251" lon="0.32797">
        <ele>1947</ele>
        <time>2025-08-23T07:37:00Z</time>
      </trkpt>
      <trkpt lat="42.77246" lon="0.32808">
        <ele>1949</ele>
        <time>2025-08-23T07:37:23Z</time>
      </trkpt>
      <trkpt lat="42.77242" lon="0.32819">
        <ele>1951</ele>
        <time>2025-08-23T07:37:32Z</time>
      </trkpt>
      <trkpt lat="42.77237" lon="0.32829">
        <ele>1953</ele>
        <time>2025-08-23T07:37:43Z</time>
      </trkpt>
      <trkpt lat="42.7723" lon="0.32839">
        <ele>1955</ele>
        <time>2025-08-23T07:37:56Z</time>
      </trkpt>
      <trkpt lat="42.77226" lon="0.32849">
        <ele>1956</ele>
        <time>2025-08-23T07:38:08Z</time>
      </trkpt>
      <trkpt lat="42.77219" lon="0.32858">
        <ele>1956</ele>
        <time>2025-08-23T07:38:20Z</time>
      </trkpt>
      <trkpt lat="42.77213" lon="0.32868">
        <ele>1959</ele>
        <time>2025-08-23T07:38:36Z</time>
      </trkpt>
      <trkpt lat="42.77204" lon="0.32873">
        <ele>1961</ele>
        <time>2025-08-23T07:38:49Z</time>
      </trkpt>
      <trkpt lat="42.77195" lon="0.32876">
        <ele>1963</ele>
        <time>2025-08-23T07:39:03Z</time>
      </trkpt>
      <trkpt lat="42.77186" lon="0.32878">
        <ele>1965</ele>
        <time>2025-08-23T07:39:19Z</time>
      </trkpt>
      <trkpt lat="42.77176" lon="0.32879">
        <ele>1966</ele>
        <time>2025-08-23T07:39:31Z</time>
      </trkpt>
      <trkpt lat="42.77167" lon="0.32882">
        <ele>1969</ele>
        <time>2025-08-23T07:39:49Z</time>
      </trkpt>
      <trkpt lat="42.77158" lon="0.32885">
        <ele>1972</ele>
        <time>2025-08-23T07:40:03Z</time>
      </trkpt>
      <trkpt lat="42.77149" lon="0.32886">
        <ele>1973</ele>
        <time>2025-08-23T07:40:18Z</time>
      </trkpt>
      <trkpt lat="42.77141" lon="0.3289">
        <ele>1977</ele>
        <time>2025-08-23T07:40:36Z</time>
      </trkpt>
      <trkpt lat="42.77133" lon="0.32896">
        <ele>1978</ele>
        <time>2025-08-23T07:40:53Z</time>
      </trkpt>
      <trkpt lat="42.77124" lon="0.32897">
        <ele>1980</ele>
        <time>2025-08-23T07:41:09Z</time>
      </trkpt>
      <trkpt lat="42.77116" lon="0.329">
        <ele>1982</ele>
        <time>2025-08-23T07:41:24Z</time>
      </trkpt>
      <trkpt lat="42.77112" lon="0.3291">
        <ele>1988</ele>
        <time>2025-08-23T07:41:45Z</time>
      </trkpt>
      <trkpt lat="42.77105" lon="0.32918">
        <ele>1991</ele>
        <time>2025-08-23T07:42:05Z</time>
      </trkpt>
      <trkpt lat="42.77099" lon="0.32927">
        <ele>1996</ele>
        <time>2025-08-23T07:42:26Z</time>
      </trkpt>
      <trkpt lat="42.77095" lon="0.32938">
        <ele>1999</ele>
        <time>2025-08-23T07:42:50Z</time>
      </trkpt>
      <trkpt lat="42.7709" lon="0.32948">
        <ele>2001</ele>
        <time>2025-08-23T07:43:05Z</time>
      </trkpt>
      <trkpt lat="42.77085" lon="0.32958">
        <ele>2004</ele>
        <time>2025-08-23T07:43:26Z</time>
      </trkpt>
      <trkpt lat="42.77079" lon="0.32967">
        <ele>2008</ele>
        <time>2025-08-23T07:43:51Z</time>
      </trkpt>
      <trkpt lat="42.77073" lon="0.32975">
        <ele>2011</ele>
        <time>2025-08-23T07:44:11Z</time>
      </trkpt>
      <trkpt lat="42.77069" lon="0.32985">
        <ele>2010</ele>
        <time>2025-08-23T07:44:28Z</time>
      </trkpt>
      <trkpt lat="42.77064" lon="0.32995">
        <ele>2011</ele>
        <time>2025-08-23T07:44:44Z</time>
      </trkpt>
      <trkpt lat="42.77059" lon="0.33005">
        <ele>2014</ele>
        <time>2025-08-23T07:45:00Z</time>
      </trkpt>
      <trkpt lat="42.77056" lon="0.33017">
        <ele>2015</ele>
        <time>2025-08-23T07:45:15Z</time>
      </trkpt>
      <trkpt lat="42.77052" lon="0.33028">
        <ele>2017</ele>
        <time>2025-08-23T07:45:34Z</time>
      </trkpt>
      <trkpt lat="42.77048" lon="0.33039">
        <ele>2018</ele>
        <time>2025-08-23T07:45:50Z</time>
      </trkpt>
      <trkpt lat="42.77043" lon="0.3305">
        <ele>2020</ele>
        <time>2025-08-23T07:46:01Z</time>
      </trkpt>
      <trkpt lat="42.77037" lon="0.33057">
        <ele>2023</ele>
        <time>2025-08-23T07:46:15Z</time>
      </trkpt>
      <trkpt lat="42.77033" lon="0.33067">
        <ele>2027</ele>
        <time>2025-08-23T07:46:29Z</time>
      </trkpt>
      <trkpt lat="42.77025" lon="0.33069">
        <ele>2028</ele>
        <time>2025-08-23T07:46:44Z</time>
      </trkpt>
      <trkpt lat="42.77016" lon="0.33074">
        <ele>2031</ele>
        <time>2025-08-23T07:46:58Z</time>
      </trkpt>
      <trkpt lat="42.7701" lon="0.33084">
        <ele>2035</ele>
        <time>2025-08-23T07:47:13Z</time>
      </trkpt>
      <trkpt lat="42.77005" lon="0.33094">
        <ele>2039</ele>
        <time>2025-08-23T07:47:28Z</time>
      </trkpt>
      <trkpt lat="42.76999" lon="0.33103">
        <ele>2042</ele>
        <time>2025-08-23T07:47:45Z</time>
      </trkpt>
      <trkpt lat="42.76991" lon="0.33108">
        <ele>2044</ele>
        <time>2025-08-23T07:48:00Z</time>
      </trkpt>
      <trkpt lat="42.76983" lon="0.33115">
        <ele>2047</ele>
        <time>2025-08-23T07:48:20Z</time>
      </trkpt>
      <trkpt lat="42.76975" lon="0.3312">
        <ele>2050</ele>
        <time>2025-08-23T07:49:05Z</time>
      </trkpt>
      <trkpt lat="42.76968" lon="0.33127">
        <ele>2052</ele>
        <time>2025-08-23T08:05:09Z</time>
      </trkpt>
      <trkpt lat="42.76959" lon="0.33129">
        <ele>2053</ele>
        <time>2025-08-23T08:05:19Z</time>
      </trkpt>
      <trkpt lat="42.76951" lon="0.33131">
        <ele>2056</ele>
        <time>2025-08-23T08:05:38Z</time>
      </trkpt>
      <trkpt lat="42.76943" lon="0.33138">
        <ele>2058</ele>
        <time>2025-08-23T08:06:06Z</time>
      </trkpt>
      <trkpt lat="42.76935" lon="0.33146">
        <ele>2058</ele>
        <time>2025-08-23T08:06:23Z</time>
      </trkpt>
      <trkpt lat="42.76926" lon="0.33154">
        <ele>2061</ele>
        <time>2025-08-23T08:06:48Z</time>
      </trkpt>
      <trkpt lat="42.76919" lon="0.33161">
        <ele>2064</ele>
        <time>2025-08-23T08:07:02Z</time>
      </trkpt>
      <trkpt lat="42.76912" lon="0.33168">
        <ele>2068</ele>
        <time>2025-08-23T08:07:21Z</time>
      </trkpt>
      <trkpt lat="42.76911" lon="0.33178">
        <ele>2070</ele>
        <time>2025-08-23T08:07:47Z</time>
      </trkpt>
      <trkpt lat="42.76919" lon="0.33183">
        <ele>2069</ele>
        <time>2025-08-23T08:07:57Z</time>
      </trkpt>
      <trkpt lat="42.76928" lon="0.33186">
        <ele>2068</ele>
        <time>2025-08-23T08:08:12Z</time>
      </trkpt>
      <trkpt lat="42.76938" lon="0.33185">
        <ele>2069</ele>
        <time>2025-08-23T08:08:25Z</time>
      </trkpt>
      <trkpt lat="42.76948" lon="0.33182">
        <ele>2069</ele>
        <time>2025-08-23T08:08:36Z</time>
      </trkpt>
      <trkpt lat="42.76956" lon="0.33178">
        <ele>2068</ele>
        <time>2025-08-23T08:08:51Z</time>
      </trkpt>
      <trkpt lat="42.76963" lon="0.33171">
        <ele>2065</ele>
        <time>2025-08-23T08:09:04Z</time>
      </trkpt>
      <trkpt lat="42.76972" lon="0.33172">
        <ele>2071</ele>
        <time>2025-08-23T08:09:10Z</time>
      </trkpt>
      <trkpt lat="42.76981" lon="0.33171">
        <ele>2072</ele>
        <time>2025-08-23T08:09:17Z</time>
      </trkpt>
      <trkpt lat="42.7699" lon="0.33171">
        <ele>2073</ele>
        <time>2025-08-23T08:09:25Z</time>
      </trkpt>
      <trkpt lat="42.76999" lon="0.33172">
        <ele>2072</ele>
        <time>2025-08-23T08:09:35Z</time>
      </trkpt>
      <trkpt lat="42.77009" lon="0.33175">
        <ele>2074</ele>
        <time>2025-08-23T08:09:47Z</time>
      </trkpt>
      <trkpt lat="42.77018" lon="0.33178">
        <ele>2077</ele>
        <time>2025-08-23T08:09:56Z</time>
      </trkpt>
      <trkpt lat="42.77027" lon="0.3318">
        <ele>2079</ele>
        <time>2025-08-23T08:10:08Z</time>
      </trkpt>
      <trkpt lat="42.77036" lon="0.33179">
        <ele>2081</ele>
        <time>2025-08-23T08:10:19Z</time>
      </trkpt>
      <trkpt lat="42.77045" lon="0.33178">
        <ele>2082</ele>
        <time>2025-08-23T08:10:29Z</time>
      </trkpt>
      <trkpt lat="42.77054" lon="0.33174">
        <ele>2082</ele>
        <time>2025-08-23T08:10:48Z</time>
      </trkpt>
      <trkpt lat="42.77063" lon="0.33171">
        <ele>2083</ele>
        <time>2025-08-23T08:11:00Z</time>
      </trkpt>
      <trkpt lat="42.77072" lon="0.33169">
        <ele>2083</ele>
        <time>2025-08-23T08:11:10Z</time>
      </trkpt>
      <trkpt lat="42.77082" lon="0.33167">
        <ele>2084</ele>
        <time>2025-08-23T08:11:22Z</time>
      </trkpt>
      <trkpt lat="42.77091" lon="0.33165">
        <ele>2087</ele>
        <time>2025-08-23T08:11:33Z</time>
      </trkpt>
      <trkpt lat="42.771" lon="0.33165">
        <ele>2088</ele>
        <time>2025-08-23T08:11:43Z</time>
      </trkpt>
      <trkpt lat="42.7711" lon="0.33165">
        <ele>2088</ele>
        <time>2025-08-23T08:11:59Z</time>
      </trkpt>
      <trkpt lat="42.77119" lon="0.33166">
        <ele>2089</ele>
        <time>2025-08-23T08:12:10Z</time>
      </trkpt>
      <trkpt lat="42.77128" lon="0.33167">
        <ele>2090</ele>
        <time>2025-08-23T08:12:20Z</time>
      </trkpt>
      <trkpt lat="42.77138" lon="0.3317">
        <ele>2092</ele>
        <time>2025-08-23T08:12:32Z</time>
      </trkpt>
      <trkpt lat="42.77146" lon="0.33175">
        <ele>2094</ele>
        <time>2025-08-23T08:12:51Z</time>
      </trkpt>
      <trkpt lat="42.77149" lon="0.33185">
        <ele>2098</ele>
        <time>2025-08-23T08:14:19Z</time>
      </trkpt>
      <trkpt lat="42.77142" lon="0.33191">
        <ele>2099</ele>
        <time>2025-08-23T08:14:31Z</time>
      </trkpt>
      <trkpt lat="42.77132" lon="0.33192">
        <ele>2100</ele>
        <time>2025-08-23T08:14:43Z</time>
      </trkpt>
      <trkpt lat="42.77124" lon="0.33197">
        <ele>2101</ele>
        <time>2025-08-23T08:14:52Z</time>
      </trkpt>
      <trkpt lat="42.77116" lon="0.33204">
        <ele>2104</ele>
        <time>2025-08-23T08:15:30Z</time>
      </trkpt>
      <trkpt lat="42.77106" lon="0.33209">
        <ele>2106</ele>
        <time>2025-08-23T08:15:41Z</time>
      </trkpt>
      <trkpt lat="42.77097" lon="0.33213">
        <ele>2103</ele>
        <time>2025-08-23T08:15:59Z</time>
      </trkpt>
      <trkpt lat="42.77089" lon="0.33216">
        <ele>2104</ele>
        <time>2025-08-23T08:16:08Z</time>
      </trkpt>
      <trkpt lat="42.77081" lon="0.33221">
        <ele>2105</ele>
        <time>2025-08-23T08:16:17Z</time>
      </trkpt>
      <trkpt lat="42.77072" lon="0.33227">
        <ele>2107</ele>
        <time>2025-08-23T08:16:27Z</time>
      </trkpt>
      <trkpt lat="42.77063" lon="0.33231">
        <ele>2108</ele>
        <time>2025-08-23T08:16:37Z</time>
      </trkpt>
      <trkpt lat="42.77054" lon="0.33233">
        <ele>2106</ele>
        <time>2025-08-23T08:16:47Z</time>
      </trkpt>
      <trkpt lat="42.77045" lon="0.33236">
        <ele>2106</ele>
        <time>2025-08-23T08:16:55Z</time>
      </trkpt>
      <trkpt lat="42.77037" lon="0.33242">
        <ele>2106</ele>
        <time>2025-08-23T08:17:04Z</time>
      </trkpt>
      <trkpt lat="42.77028" lon="0.33249">
        <ele>2113</ele>
        <time>2025-08-23T08:17:14Z</time>
      </trkpt>
      <trkpt lat="42.77019" lon="0.33254">
        <ele>2116</ele>
        <time>2025-08-23T08:17:24Z</time>
      </trkpt>
      <trkpt lat="42.7701" lon="0.33258">
        <ele>2116</ele>
        <time>2025-08-23T08:17:34Z</time>
      </trkpt>
      <trkpt lat="42.77001" lon="0.33263">
        <ele>2118</ele>
        <time>2025-08-23T08:17:46Z</time>
      </trkpt>
      <trkpt lat="42.76993" lon="0.33267">
        <ele>2121</ele>
        <time>2025-08-23T08:17:59Z</time>
      </trkpt>
      <trkpt lat="42.76984" lon="0.33272">
        <ele>2123</ele>
        <time>2025-08-23T08:18:14Z</time>
      </trkpt>
      <trkpt lat="42.76976" lon="0.33275">
        <ele>2125</ele>
        <time>2025-08-23T08:18:27Z</time>
      </trkpt>
      <trkpt lat="42.76968" lon="0.3328">
        <ele>2127</ele>
        <time>2025-08-23T08:18:45Z</time>
      </trkpt>
      <trkpt lat="42.76958" lon="0.33284">
        <ele>2127</ele>
        <time>2025-08-23T08:18:59Z</time>
      </trkpt>
      <trkpt lat="42.7695" lon="0.3329">
        <ele>2130</ele>
        <time>2025-08-23T08:19:14Z</time>
      </trkpt>
      <trkpt lat="42.76941" lon="0.33296">
        <ele>2133</ele>
        <time>2025-08-23T08:19:24Z</time>
      </trkpt>
      <trkpt lat="42.76932" lon="0.333">
        <ele>2135</ele>
        <time>2025-08-23T08:19:36Z</time>
      </trkpt>
      <trkpt lat="42.76922" lon="0.33302">
        <ele>2136</ele>
        <time>2025-08-23T08:19:47Z</time>
      </trkpt>
      <trkpt lat="42.76913" lon="0.33306">
        <ele>2137</ele>
        <time>2025-08-23T08:19:58Z</time>
      </trkpt>
      <trkpt lat="42.76904" lon="0.3331">
        <ele>2136</ele>
        <time>2025-08-23T08:20:08Z</time>
      </trkpt>
      <trkpt lat="42.76895" lon="0.33313">
        <ele>2138</ele>
        <time>2025-08-23T08:20:18Z</time>
      </trkpt>
      <trkpt lat="42.76886" lon="0.33314">
        <ele>2138</ele>
        <time>2025-08-23T08:20:28Z</time>
      </trkpt>
      <trkpt lat="42.76878" lon="0.33319">
        <ele>2140</ele>
        <time>2025-08-23T08:20:39Z</time>
      </trkpt>
      <trkpt lat="42.7687" lon="0.33328">
        <ele>2144</ele>
        <time>2025-08-23T08:20:52Z</time>
      </trkpt>
      <trkpt lat="42.76862" lon="0.33335">
        <ele>2147</ele>
        <time>2025-08-23T08:21:04Z</time>
      </trkpt>
      <trkpt lat="42.76854" lon="0.3334">
        <ele>2148</ele>
        <time>2025-08-23T08:21:15Z</time>
      </trkpt>
      <trkpt lat="42.76846" lon="0.33345">
        <ele>2150</ele>
        <time>2025-08-23T08:21:26Z</time>
      </trkpt>
      <trkpt lat="42.76839" lon="0.33353">
        <ele>2152</ele>
        <time>2025-08-23T08:21:37Z</time>
      </trkpt>
      <trkpt lat="42.76832" lon="0.33362">
        <ele>2151</ele>
        <time>2025-08-23T08:21:50Z</time>
      </trkpt>
      <trkpt lat="42.76825" lon="0.3337">
        <ele>2154</ele>
        <time>2025-08-23T08:22:04Z</time>
      </trkpt>
      <trkpt lat="42.76818" lon="0.33378">
        <ele>2157</ele>
        <time>2025-08-23T08:22:22Z</time>
      </trkpt>
      <trkpt lat="42.7681" lon="0.33386">
        <ele>2158</ele>
        <time>2025-08-23T08:22:37Z</time>
      </trkpt>
      <trkpt lat="42.76801" lon="0.3339">
        <ele>2161</ele>
        <time>2025-08-23T08:22:51Z</time>
      </trkpt>
      <trkpt lat="42.76793" lon="0.33392">
        <ele>2164</ele>
        <time>2025-08-23T08:23:04Z</time>
      </trkpt>
      <trkpt lat="42.76786" lon="0.33399">
        <ele>2168</ele>
        <time>2025-08-23T08:23:24Z</time>
      </trkpt>
      <trkpt lat="42.76778" lon="0.33406">
        <ele>2172</ele>
        <time>2025-08-23T08:23:48Z</time>
      </trkpt>
      <trkpt lat="42.7677" lon="0.33412">
        <ele>2175</ele>
        <time>2025-08-23T08:24:08Z</time>
      </trkpt>
      <trkpt lat="42.76763" lon="0.33417">
        <ele>2177</ele>
        <time>2025-08-23T08:24:29Z</time>
      </trkpt>
      <trkpt lat="42.76755" lon="0.33423">
        <ele>2181</ele>
        <time>2025-08-23T08:24:50Z</time>
      </trkpt>
      <trkpt lat="42.7675" lon="0.33433">
        <ele>2186</ele>
        <time>2025-08-23T08:25:35Z</time>
      </trkpt>
      <trkpt lat="42.76746" lon="0.33443">
        <ele>2188</ele>
        <time>2025-08-23T08:25:57Z</time>
      </trkpt>
      <trkpt lat="42.76739" lon="0.3345">
        <ele>2191</ele>
        <time>2025-08-23T08:26:37Z</time>
      </trkpt>
      <trkpt lat="42.7673" lon="0.33451">
        <ele>2193</ele>
        <time>2025-08-23T08:26:57Z</time>
      </trkpt>
      <trkpt lat="42.76722" lon="0.33455">
        <ele>2196</ele>
        <time>2025-08-23T08:27:12Z</time>
      </trkpt>
      <trkpt lat="42.76714" lon="0.33461">
        <ele>2199</ele>
        <time>2025-08-23T08:27:26Z</time>
      </trkpt>
      <trkpt lat="42.76706" lon="0.33466">
        <ele>2203</ele>
        <time>2025-08-23T08:27:41Z</time>
      </trkpt>
      <trkpt lat="42.76705" lon="0.33476">
        <ele>2205</ele>
        <time>2025-08-23T08:27:58Z</time>
      </trkpt>
      <trkpt lat="42.76712" lon="0.33483">
        <ele>2206</ele>
        <time>2025-08-23T08:28:21Z</time>
      </trkpt>
      <trkpt lat="42.76713" lon="0.33493">
        <ele>2210</ele>
        <time>2025-08-23T08:28:41Z</time>
      </trkpt>
      <trkpt lat="42.76705" lon="0.33498">
        <ele>2215</ele>
        <time>2025-08-23T08:28:54Z</time>
      </trkpt>
      <trkpt lat="42.76696" lon="0.335">
        <ele>2220</ele>
        <time>2025-08-23T08:29:37Z</time>
      </trkpt>
      <trkpt lat="42.76686" lon="0.335">
        <ele>2220</ele>
        <time>2025-08-23T08:29:52Z</time>
      </trkpt>
      <trkpt lat="42.76677" lon="0.335">
        <ele>2222</ele>
        <time>2025-08-23T08:30:09Z</time>
      </trkpt>
      <trkpt lat="42.7667" lon="0.33495">
        <ele>2223</ele>
        <time>2025-08-23T08:30:22Z</time>
      </trkpt>
      <trkpt lat="42.76663" lon="0.33486">
        <ele>2223</ele>
        <time>2025-08-23T08:30:34Z</time>
      </trkpt>
      <trkpt lat="42.76656" lon="0.3349">
        <ele>2226</ele>
        <time>2025-08-23T08:30:50Z</time>
      </trkpt>
      <trkpt lat="42.76652" lon="0.335">
        <ele>2229</ele>
        <time>2025-08-23T08:31:12Z</time>
      </trkpt>
      <trkpt lat="42.76645" lon="0.33507">
        <ele>2234</ele>
        <time>2025-08-23T08:32:16Z</time>
      </trkpt>
      <trkpt lat="42.7664" lon="0.33516">
        <ele>2239</ele>
        <time>2025-08-23T08:32:38Z</time>
      </trkpt>
      <trkpt lat="42.76632" lon="0.33516">
        <ele>2242</ele>
        <time>2025-08-23T08:32:59Z</time>
      </trkpt>
      <trkpt lat="42.76625" lon="0.33522">
        <ele>2246</ele>
        <time>2025-08-23T08:33:21Z</time>
      </trkpt>
      <trkpt lat="42.76616" lon="0.33521">
        <ele>2249</ele>
        <time>2025-08-23T08:33:46Z</time>
      </trkpt>
      <trkpt lat="42.76608" lon="0.33515">
        <ele>2252</ele>
        <time>2025-08-23T08:34:04Z</time>
      </trkpt>
      <trkpt lat="42.766" lon="0.33512">
        <ele>2255</ele>
        <time>2025-08-23T08:34:30Z</time>
      </trkpt>
      <trkpt lat="42.76591" lon="0.3351">
        <ele>2257</ele>
        <time>2025-08-23T08:34:46Z</time>
      </trkpt>
      <trkpt lat="42.76582" lon="0.33508">
        <ele>2259</ele>
        <time>2025-08-23T08:35:02Z</time>
      </trkpt>
      <trkpt lat="42.76574" lon="0.33511">
        <ele>2262</ele>
        <time>2025-08-23T08:35:37Z</time>
      </trkpt>
      <trkpt lat="42.76565" lon="0.3351">
        <ele>2264</ele>
        <time>2025-08-23T08:35:50Z</time>
      </trkpt>
      <trkpt lat="42.76555" lon="0.33512">
        <ele>2266</ele>
        <time>2025-08-23T08:36:01Z</time>
      </trkpt>
      <trkpt lat="42.76546" lon="0.33509">
        <ele>2267</ele>
        <time>2025-08-23T08:36:14Z</time>
      </trkpt>
      <trkpt lat="42.76538" lon="0.33505">
        <ele>2270</ele>
        <time>2025-08-23T08:36:24Z</time>
      </trkpt>
      <trkpt lat="42.7653" lon="0.33503">
        <ele>2272</ele>
        <time>2025-08-23T08:36:35Z</time>
      </trkpt>
      <trkpt lat="42.76521" lon="0.33502">
        <ele>2274</ele>
        <time>2025-08-23T08:36:48Z</time>
      </trkpt>
      <trkpt lat="42.76512" lon="0.33498">
        <ele>2276</ele>
        <time>2025-08-23T08:37:03Z</time>
      </trkpt>
      <trkpt lat="42.76503" lon="0.33493">
        <ele>2279</ele>
        <time>2025-08-23T08:37:18Z</time>
      </trkpt>
      <trkpt lat="42.76496" lon="0.33486">
        <ele>2280</ele>
        <time>2025-08-23T08:37:31Z</time>
      </trkpt>
      <trkpt lat="42.76486" lon="0.33483">
        <ele>2280</ele>
        <time>2025-08-23T08:37:46Z</time>
      </trkpt>
      <trkpt lat="42.76478" lon="0.33479">
        <ele>2282</ele>
        <time>2025-08-23T08:38:03Z</time>
      </trkpt>
      <trkpt lat="42.76469" lon="0.33476">
        <ele>2283</ele>
        <time>2025-08-23T08:38:18Z</time>
      </trkpt>
      <trkpt lat="42.76461" lon="0.33472">
        <ele>2285</ele>
        <time>2025-08-23T08:38:45Z</time>
      </trkpt>
      <trkpt lat="42.76452" lon="0.33473">
        <ele>2284</ele>
        <time>2025-08-23T08:39:05Z</time>
      </trkpt>
      <trkpt lat="42.76443" lon="0.33473">
        <ele>2284</ele>
        <time>2025-08-23T08:39:12Z</time>
      </trkpt>
      <trkpt lat="42.76434" lon="0.33471">
        <ele>2285</ele>
        <time>2025-08-23T08:39:29Z</time>
      </trkpt>
      <trkpt lat="42.76425" lon="0.33471">
        <ele>2285</ele>
        <time>2025-08-23T08:39:53Z</time>
      </trkpt>
      <trkpt lat="42.76414" lon="0.33468">
        <ele>2285</ele>
        <time>2025-08-23T08:40:05Z</time>
      </trkpt>
      <trkpt lat="42.76404" lon="0.33465">
        <ele>2285</ele>
        <time>2025-08-23T08:40:18Z</time>
      </trkpt>
      <trkpt lat="42.76396" lon="0.3346">
        <ele>2285</ele>
        <time>2025-08-23T08:40:26Z</time>
      </trkpt>
      <trkpt lat="42.76388" lon="0.33455">
        <ele>2284</ele>
        <time>2025-08-23T08:40:32Z</time>
      </trkpt>
      <trkpt lat="42.7638" lon="0.33449">
        <ele>2286</ele>
        <time>2025-08-23T08:40:41Z</time>
      </trkpt>
      <trkpt lat="42.76372" lon="0.33444">
        <ele>2284</ele>
        <time>2025-08-23T08:40:52Z</time>
      </trkpt>
      <trkpt lat="42.76363" lon="0.33446">
        <ele>2284</ele>
        <time>2025-08-23T08:41:00Z</time>
      </trkpt>
      <trkpt lat="42.76354" lon="0.33446">
        <ele>2285</ele>
        <time>2025-08-23T08:41:08Z</time>
      </trkpt>
      <trkpt lat="42.76345" lon="0.33446">
        <ele>2285</ele>
        <time>2025-08-23T08:41:16Z</time>
      </trkpt>
      <trkpt lat="42.76335" lon="0.33448">
        <ele>2286</ele>
        <time>2025-08-23T08:41:26Z</time>
      </trkpt>
      <trkpt lat="42.76326" lon="0.33449">
        <ele>2287</ele>
        <time>2025-08-23T08:41:34Z</time>
      </trkpt>
      <trkpt lat="42.76317" lon="0.33447">
        <ele>2289</ele>
        <time>2025-08-23T08:41:42Z</time>
      </trkpt>
      <trkpt lat="42.76308" lon="0.33445">
        <ele>2289</ele>
        <time>2025-08-23T08:41:50Z</time>
      </trkpt>
      <trkpt lat="42.76299" lon="0.33451">
        <ele>2291</ele>
        <time>2025-08-23T08:42:00Z</time>
      </trkpt>
      <trkpt lat="42.76289" lon="0.33456">
        <ele>2292</ele>
        <time>2025-08-23T08:42:09Z</time>
      </trkpt>
      <trkpt lat="42.76279" lon="0.3346">
        <ele>2295</ele>
        <time>2025-08-23T08:42:19Z</time>
      </trkpt>
      <trkpt lat="42.7627" lon="0.33465">
        <ele>2296</ele>
        <time>2025-08-23T08:42:30Z</time>
      </trkpt>
      <trkpt lat="42.76261" lon="0.33469">
        <ele>2298</ele>
        <time>2025-08-23T08:42:40Z</time>
      </trkpt>
      <trkpt lat="42.76252" lon="0.33473">
        <ele>2300</ele>
        <time>2025-08-23T08:42:51Z</time>
      </trkpt>
      <trkpt lat="42.76243" lon="0.33475">
        <ele>2302</ele>
        <time>2025-08-23T08:43:01Z</time>
      </trkpt>
      <trkpt lat="42.76234" lon="0.33476">
        <ele>2304</ele>
        <time>2025-08-23T08:43:11Z</time>
      </trkpt>
      <trkpt lat="42.76224" lon="0.33477">
        <ele>2305</ele>
        <time>2025-08-23T08:43:22Z</time>
      </trkpt>
      <trkpt lat="42.76216" lon="0.33481">
        <ele>2306</ele>
        <time>2025-08-23T08:43:33Z</time>
      </trkpt>
      <trkpt lat="42.76208" lon="0.33484">
        <ele>2309</ele>
        <time>2025-08-23T08:43:43Z</time>
      </trkpt>
      <trkpt lat="42.76199" lon="0.33486">
        <ele>2310</ele>
        <time>2025-08-23T08:43:56Z</time>
      </trkpt>
      <trkpt lat="42.76189" lon="0.33487">
        <ele>2313</ele>
        <time>2025-08-23T08:44:10Z</time>
      </trkpt>
      <trkpt lat="42.7618" lon="0.33489">
        <ele>2315</ele>
        <time>2025-08-23T08:44:24Z</time>
      </trkpt>
      <trkpt lat="42.76171" lon="0.33489">
        <ele>2317</ele>
        <time>2025-08-23T08:44:37Z</time>
      </trkpt>
      <trkpt lat="42.76162" lon="0.3349">
        <ele>2318</ele>
        <time>2025-08-23T08:44:50Z</time>
      </trkpt>
      <trkpt lat="42.76156" lon="0.33497">
        <ele>2319</ele>
        <time>2025-08-23T08:45:05Z</time>
      </trkpt>
      <trkpt lat="42.76147" lon="0.33497">
        <ele>2321</ele>
        <time>2025-08-23T08:45:18Z</time>
      </trkpt>
      <trkpt lat="42.76138" lon="0.33494">
        <ele>2323</ele>
        <time>2025-08-23T08:45:34Z</time>
      </trkpt>
      <trkpt lat="42.76129" lon="0.33496">
        <ele>2326</ele>
        <time>2025-08-23T08:45:49Z</time>
      </trkpt>
      <trkpt lat="42.7612" lon="0.33499">
        <ele>2326</ele>
        <time>2025-08-23T08:46:02Z</time>
      </trkpt>
      <trkpt lat="42.76112" lon="0.33501">
        <ele>2327</ele>
        <time>2025-08-23T08:46:14Z</time>
      </trkpt>
      <trkpt lat="42.76103" lon="0.33506">
        <ele>2330</ele>
        <time>2025-08-23T08:46:26Z</time>
      </trkpt>
      <trkpt lat="42.76095" lon="0.33512">
        <ele>2334</ele>
        <time>2025-08-23T08:46:38Z</time>
      </trkpt>
      <trkpt lat="42.76087" lon="0.33516">
        <ele>2336</ele>
        <time>2025-08-23T08:46:50Z</time>
      </trkpt>
      <trkpt lat="42.76077" lon="0.33515">
        <ele>2339</ele>
        <time>2025-08-23T08:47:08Z</time>
      </trkpt>
      <trkpt lat="42.76069" lon="0.33514">
        <ele>2341</ele>
        <time>2025-08-23T08:47:26Z</time>
      </trkpt>
      <trkpt lat="42.76061" lon="0.33509">
        <ele>2342</ele>
        <time>2025-08-23T08:47:44Z</time>
      </trkpt>
      <trkpt lat="42.76053" lon="0.33503">
        <ele>2343</ele>
        <time>2025-08-23T08:48:02Z</time>
      </trkpt>
      <trkpt lat="42.76045" lon="0.33498">
        <ele>2344</ele>
        <time>2025-08-23T08:48:21Z</time>
      </trkpt>
      <trkpt lat="42.76036" lon="0.33503">
        <ele>2344</ele>
        <time>2025-08-23T08:48:36Z</time>
      </trkpt>
      <trkpt lat="42.76031" lon="0.33512">
        <ele>2344</ele>
        <time>2025-08-23T08:48:46Z</time>
      </trkpt>
      <trkpt lat="42.76024" lon="0.3352">
        <ele>2345</ele>
        <time>2025-08-23T08:48:56Z</time>
      </trkpt>
      <trkpt lat="42.76016" lon="0.33529">
        <ele>2345</ele>
        <time>2025-08-23T08:49:11Z</time>
      </trkpt>
      <trkpt lat="42.76008" lon="0.33537">
        <ele>2346</ele>
        <time>2025-08-23T08:49:19Z</time>
      </trkpt>
      <trkpt lat="42.76001" lon="0.33543">
        <ele>2347</ele>
        <time>2025-08-23T08:49:30Z</time>
      </trkpt>
      <trkpt lat="42.75993" lon="0.33549">
        <ele>2349</ele>
        <time>2025-08-23T08:49:38Z</time>
      </trkpt>
      <trkpt lat="42.75983" lon="0.33552">
        <ele>2350</ele>
        <time>2025-08-23T08:50:14Z</time>
      </trkpt>
      <trkpt lat="42.75974" lon="0.33551">
        <ele>2350</ele>
        <time>2025-08-23T08:50:28Z</time>
      </trkpt>
      <trkpt lat="42.75965" lon="0.33552">
        <ele>2350</ele>
        <time>2025-08-23T08:50:44Z</time>
      </trkpt>
      <trkpt lat="42.75955" lon="0.33554">
        <ele>2350</ele>
        <time>2025-08-23T08:56:50Z</time>
      </trkpt>
      <trkpt lat="42.75948" lon="0.33561">
        <ele>2351</ele>
        <time>2025-08-23T08:57:02Z</time>
      </trkpt>
      <trkpt lat="42.75941" lon="0.3357">
        <ele>2351</ele>
        <time>2025-08-23T08:57:12Z</time>
      </trkpt>
      <trkpt lat="42.75934" lon="0.33579">
        <ele>2351</ele>
        <time>2025-08-23T08:57:22Z</time>
      </trkpt>
      <trkpt lat="42.75926" lon="0.33587">
        <ele>2351</ele>
        <time>2025-08-23T08:57:31Z</time>
      </trkpt>
      <trkpt lat="42.75917" lon="0.33593">
        <ele>2350</ele>
        <time>2025-08-23T08:57:41Z</time>
      </trkpt>
      <trkpt lat="42.7591" lon="0.33601">
        <ele>2350</ele>
        <time>2025-08-23T08:57:51Z</time>
      </trkpt>
      <trkpt lat="42.75902" lon="0.33609">
        <ele>2350</ele>
        <time>2025-08-23T08:58:01Z</time>
      </trkpt>
      <trkpt lat="42.75894" lon="0.33614">
        <ele>2349</ele>
        <time>2025-08-23T08:58:09Z</time>
      </trkpt>
      <trkpt lat="42.75886" lon="0.33619">
        <ele>2349</ele>
        <time>2025-08-23T08:58:20Z</time>
      </trkpt>
      <trkpt lat="42.75877" lon="0.33625">
        <ele>2350</ele>
        <time>2025-08-23T08:58:31Z</time>
      </trkpt>
      <trkpt lat="42.75868" lon="0.33631">
        <ele>2351</ele>
        <time>2025-08-23T08:58:42Z</time>
      </trkpt>
      <trkpt lat="42.75859" lon="0.33636">
        <ele>2350</ele>
        <time>2025-08-23T08:59:31Z</time>
      </trkpt>
      <trkpt lat="42.7585" lon="0.33637">
        <ele>2350</ele>
        <time>2025-08-23T08:59:39Z</time>
      </trkpt>
      <trkpt lat="42.75841" lon="0.33636">
        <ele>2350</ele>
        <time>2025-08-23T08:59:47Z</time>
      </trkpt>
      <trkpt lat="42.75832" lon="0.33636">
        <ele>2350</ele>
        <time>2025-08-23T08:59:55Z</time>
      </trkpt>
      <trkpt lat="42.75823" lon="0.33636">
        <ele>2350</ele>
        <time>2025-08-23T09:00:04Z</time>
      </trkpt>
      <trkpt lat="42.75814" lon="0.33637">
        <ele>2350</ele>
        <time>2025-08-23T09:00:11Z</time>
      </trkpt>
      <trkpt lat="42.75806" lon="0.33641">
        <ele>2350</ele>
        <time>2025-08-23T09:00:20Z</time>
      </trkpt>
      <trkpt lat="42.75797" lon="0.33645">
        <ele>2350</ele>
        <time>2025-08-23T09:00:29Z</time>
      </trkpt>
      <trkpt lat="42.75789" lon="0.33651">
        <ele>2350</ele>
        <time>2025-08-23T09:00:42Z</time>
      </trkpt>
      <trkpt lat="42.75783" lon="0.33659">
        <ele>2350</ele>
        <time>2025-08-23T09:00:55Z</time>
      </trkpt>
      <trkpt lat="42.75785" lon="0.3367">
        <ele>2353</ele>
        <time>2025-08-23T09:01:16Z</time>
      </trkpt>
      <trkpt lat="42.75783" lon="0.33682">
        <ele>2358</ele>
        <time>2025-08-23T09:01:30Z</time>
      </trkpt>
      <trkpt lat="42.75779" lon="0.33693">
        <ele>2360</ele>
        <time>2025-08-23T09:01:52Z</time>
      </trkpt>
      <trkpt lat="42.75774" lon="0.33705">
        <ele>2365</ele>
        <time>2025-08-23T09:02:10Z</time>
      </trkpt>
      <trkpt lat="42.7577" lon="0.33715">
        <ele>2369</ele>
        <time>2025-08-23T09:02:35Z</time>
      </trkpt>
      <trkpt lat="42.75762" lon="0.33721">
        <ele>2370</ele>
        <time>2025-08-23T09:02:59Z</time>
      </trkpt>
      <trkpt lat="42.75755" lon="0.33727">
        <ele>2372</ele>
        <time>2025-08-23T09:03:16Z</time>
      </trkpt>
      <trkpt lat="42.75748" lon="0.33733">
        <ele>2375</ele>
        <time>2025-08-23T09:03:42Z</time>
      </trkpt>
      <trkpt lat="42.75746" lon="0.33744">
        <ele>2379</ele>
        <time>2025-08-23T09:04:02Z</time>
      </trkpt>
      <trkpt lat="42.75743" lon="0.33756">
        <ele>2381</ele>
        <time>2025-08-23T09:04:37Z</time>
      </trkpt>
      <trkpt lat="42.75741" lon="0.33768">
        <ele>2388</ele>
        <time>2025-08-23T09:05:01Z</time>
      </trkpt>
      <trkpt lat="42.75739" lon="0.33781">
        <ele>2394</ele>
        <time>2025-08-23T09:05:25Z</time>
      </trkpt>
      <trkpt lat="42.75734" lon="0.33792">
        <ele>2396</ele>
        <time>2025-08-23T09:05:53Z</time>
      </trkpt>
      <trkpt lat="42.75731" lon="0.33803">
        <ele>2400</ele>
        <time>2025-08-23T09:06:24Z</time>
      </trkpt>
      <trkpt lat="42.75728" lon="0.33815">
        <ele>2405</ele>
        <time>2025-08-23T09:06:45Z</time>
      </trkpt>
      <trkpt lat="42.75722" lon="0.33825">
        <ele>2407</ele>
        <time>2025-08-23T09:07:09Z</time>
      </trkpt>
      <trkpt lat="42.75717" lon="0.33835">
        <ele>2411</ele>
        <time>2025-08-23T09:07:30Z</time>
      </trkpt>
      <trkpt lat="42.75713" lon="0.33845">
        <ele>2417</ele>
        <time>2025-08-23T09:07:46Z</time>
      </trkpt>
      <trkpt lat="42.75707" lon="0.33853">
        <ele>2418</ele>
        <time>2025-08-23T09:08:09Z</time>
      </trkpt>
      <trkpt lat="42.75702" lon="0.33864">
        <ele>2422</ele>
        <time>2025-08-23T09:08:42Z</time>
      </trkpt>
      <trkpt lat="42.75699" lon="0.33875">
        <ele>2425</ele>
        <time>2025-08-23T09:09:03Z</time>
      </trkpt>
      <trkpt lat="42.75694" lon="0.33886">
        <ele>2428</ele>
        <time>2025-08-23T09:09:22Z</time>
      </trkpt>
      <trkpt lat="42.75688" lon="0.33896">
        <ele>2430</ele>
        <time>2025-08-23T09:09:41Z</time>
      </trkpt>
      <trkpt lat="42.75686" lon="0.33908">
        <ele>2432</ele>
        <time>2025-08-23T09:09:58Z</time>
      </trkpt>
      <trkpt lat="42.75682" lon="0.3392">
        <ele>2434</ele>
        <time>2025-08-23T09:10:23Z</time>
      </trkpt>
      <trkpt lat="42.75678" lon="0.3393">
        <ele>2436</ele>
        <time>2025-08-23T09:10:39Z</time>
      </trkpt>
      <trkpt lat="42.75674" lon="0.33941">
        <ele>2437</ele>
        <time>2025-08-23T09:10:50Z</time>
      </trkpt>
      <trkpt lat="42.7567" lon="0.33952">
        <ele>2438</ele>
        <time>2025-08-23T09:11:03Z</time>
      </trkpt>
      <trkpt lat="42.75664" lon="0.33962">
        <ele>2440</ele>
        <time>2025-08-23T09:11:19Z</time>
      </trkpt>
      <trkpt lat="42.75655" lon="0.33965">
        <ele>2443</ele>
        <time>2025-08-23T09:11:35Z</time>
      </trkpt>
      <trkpt lat="42.75646" lon="0.33965">
        <ele>2445</ele>
        <time>2025-08-23T09:11:48Z</time>
      </trkpt>
      <trkpt lat="42.75638" lon="0.33969">
        <ele>2446</ele>
        <time>2025-08-23T09:12:00Z</time>
      </trkpt>
      <trkpt lat="42.75631" lon="0.33978">
        <ele>2448</ele>
        <time>2025-08-23T09:12:15Z</time>
      </trkpt>
      <trkpt lat="42.75623" lon="0.33984">
        <ele>2451</ele>
        <time>2025-08-23T09:12:29Z</time>
      </trkpt>
      <trkpt lat="42.75614" lon="0.33988">
        <ele>2451</ele>
        <time>2025-08-23T09:12:41Z</time>
      </trkpt>
      <trkpt lat="42.75605" lon="0.3399">
        <ele>2452</ele>
        <time>2025-08-23T09:12:56Z</time>
      </trkpt>
      <trkpt lat="42.75596" lon="0.33992">
        <ele>2452</ele>
        <time>2025-08-23T09:13:08Z</time>
      </trkpt>
      <trkpt lat="42.75587" lon="0.33995">
        <ele>2452</ele>
        <time>2025-08-23T09:14:56Z</time>
      </trkpt>
      <trkpt lat="42.75578" lon="0.34002">
        <ele>2452</ele>
        <time>2025-08-23T09:17:01Z</time>
      </trkpt>
      <trkpt lat="42.75568" lon="0.34006">
        <ele>2453</ele>
        <time>2025-08-23T09:17:11Z</time>
      </trkpt>
      <trkpt lat="42.7556" lon="0.34008">
        <ele>2454</ele>
        <time>2025-08-23T09:17:20Z</time>
      </trkpt>
      <trkpt lat="42.7555" lon="0.34013">
        <ele>2454</ele>
        <time>2025-08-23T09:17:30Z</time>
      </trkpt>
      <trkpt lat="42.75541" lon="0.34018">
        <ele>2454</ele>
        <time>2025-08-23T09:17:40Z</time>
      </trkpt>
      <trkpt lat="42.75532" lon="0.3402">
        <ele>2453</ele>
        <time>2025-08-23T09:17:51Z</time>
      </trkpt>
      <trkpt lat="42.75523" lon="0.34018">
        <ele>2453</ele>
        <time>2025-08-23T09:18:00Z</time>
      </trkpt>
      <trkpt lat="42.75515" lon="0.34014">
        <ele>2452</ele>
        <time>2025-08-23T09:18:10Z</time>
      </trkpt>
      <trkpt lat="42.75507" lon="0.34007">
        <ele>2451</ele>
        <time>2025-08-23T09:18:21Z</time>
      </trkpt>
      <trkpt lat="42.75503" lon="0.33999">
        <ele>2449</ele>
        <time>2025-08-23T09:18:31Z</time>
      </trkpt>
      <trkpt lat="42.75499" lon="0.34008">
        <ele>2448</ele>
        <time>2025-08-23T09:19:16Z</time>
      </trkpt>
      <trkpt lat="42.75496" lon="0.34021">
        <ele>2448</ele>
        <time>2025-08-23T09:19:28Z</time>
      </trkpt>
      <trkpt lat="42.75498" lon="0.34033">
        <ele>2450</ele>
        <time>2025-08-23T09:19:37Z</time>
      </trkpt>
      <trkpt lat="42.75501" lon="0.34045">
        <ele>2452</ele>
        <time>2025-08-23T09:19:50Z</time>
      </trkpt>
      <trkpt lat="42.75501" lon="0.34057">
        <ele>2453</ele>
        <time>2025-08-23T09:20:12Z</time>
      </trkpt>
      <trkpt lat="42.75504" lon="0.3407">
        <ele>2456</ele>
        <time>2025-08-23T09:20:28Z</time>
      </trkpt>
      <trkpt lat="42.75506" lon="0.34081">
        <ele>2458</ele>
        <time>2025-08-23T09:20:43Z</time>
      </trkpt>
      <trkpt lat="42.75506" lon="0.34093">
        <ele>2460</ele>
        <time>2025-08-23T09:20:57Z</time>
      </trkpt>
      <trkpt lat="42.75501" lon="0.34102">
        <ele>2464</ele>
        <time>2025-08-23T09:21:17Z</time>
      </trkpt>
      <trkpt lat="42.75493" lon="0.34107">
        <ele>2468</ele>
        <time>2025-08-23T09:21:35Z</time>
      </trkpt>
      <trkpt lat="42.75485" lon="0.34114">
        <ele>2470</ele>
        <time>2025-08-23T09:21:48Z</time>
      </trkpt>
      <trkpt lat="42.75476" lon="0.34118">
        <ele>2471</ele>
        <time>2025-08-23T09:22:07Z</time>
      </trkpt>
      <trkpt lat="42.75468" lon="0.34122">
        <ele>2473</ele>
        <time>2025-08-23T09:22:30Z</time>
      </trkpt>
      <trkpt lat="42.75461" lon="0.34129">
        <ele>2477</ele>
        <time>2025-08-23T09:22:48Z</time>
      </trkpt>
      <trkpt lat="42.75453" lon="0.34133">
        <ele>2479</ele>
        <time>2025-08-23T09:23:11Z</time>
      </trkpt>
      <trkpt lat="42.75448" lon="0.34141">
        <ele>2482</ele>
        <time>2025-08-23T09:23:40Z</time>
      </trkpt>
      <trkpt lat="42.7544" lon="0.34148">
        <ele>2485</ele>
        <time>2025-08-23T09:24:08Z</time>
      </trkpt>
      <trkpt lat="42.75432" lon="0.34154">
        <ele>2489</ele>
        <time>2025-08-23T09:24:28Z</time>
      </trkpt>
      <trkpt lat="42.75425" lon="0.3416">
        <ele>2493</ele>
        <time>2025-08-23T09:25:08Z</time>
      </trkpt>
      <trkpt lat="42.75416" lon="0.34166">
        <ele>2496</ele>
        <time>2025-08-23T09:25:33Z</time>
      </trkpt>
      <trkpt lat="42.7541" lon="0.34174">
        <ele>2500</ele>
        <time>2025-08-23T09:25:50Z</time>
      </trkpt>
      <trkpt lat="42.75402" lon="0.34181">
        <ele>2503</ele>
        <time>2025-08-23T09:26:10Z</time>
      </trkpt>
      <trkpt lat="42.75396" lon="0.34191">
        <ele>2507</ele>
        <time>2025-08-23T09:26:34Z</time>
      </trkpt>
      <trkpt lat="42.75392" lon="0.34201">
        <ele>2509</ele>
        <time>2025-08-23T09:26:58Z</time>
      </trkpt>
      <trkpt lat="42.75387" lon="0.34211">
        <ele>2511</ele>
        <time>2025-08-23T09:27:10Z</time>
      </trkpt>
      <trkpt lat="42.7538" lon="0.34219">
        <ele>2515</ele>
        <time>2025-08-23T09:27:27Z</time>
      </trkpt>
      <trkpt lat="42.75372" lon="0.34224">
        <ele>2518</ele>
        <time>2025-08-23T09:27:54Z</time>
      </trkpt>
      <trkpt lat="42.75367" lon="0.34233">
        <ele>2520</ele>
        <time>2025-08-23T09:28:14Z</time>
      </trkpt>
      <trkpt lat="42.75359" lon="0.3424">
        <ele>2522</ele>
        <time>2025-08-23T09:28:38Z</time>
      </trkpt>
      <trkpt lat="42.75351" lon="0.34245">
        <ele>2524</ele>
        <time>2025-08-23T09:28:48Z</time>
      </trkpt>
      <trkpt lat="42.75342" lon="0.34248">
        <ele>2526</ele>
        <time>2025-08-23T09:29:02Z</time>
      </trkpt>
      <trkpt lat="42.75332" lon="0.34248">
        <ele>2526</ele>
        <time>2025-08-23T09:29:45Z</time>
      </trkpt>
      <trkpt lat="42.75323" lon="0.3425">
        <ele>2526</ele>
        <time>2025-08-23T09:29:54Z</time>
      </trkpt>
      <trkpt lat="42.75315" lon="0.34253">
        <ele>2523</ele>
        <time>2025-08-23T09:30:04Z</time>
      </trkpt>
      <trkpt lat="42.75306" lon="0.34256">
        <ele>2522</ele>
        <time>2025-08-23T09:30:14Z</time>
      </trkpt>
      <trkpt lat="42.75297" lon="0.34257">
        <ele>2519</ele>
        <time>2025-08-23T09:30:25Z</time>
      </trkpt>
      <trkpt lat="42.75288" lon="0.34258">
        <ele>2517</ele>
        <time>2025-08-23T09:30:44Z</time>
      </trkpt>
      <trkpt lat="42.75278" lon="0.34257">
        <ele>2517</ele>
        <time>2025-08-23T09:30:54Z</time>
      </trkpt>
      <trkpt lat="42.75269" lon="0.34261">
        <ele>2518</ele>
        <time>2025-08-23T09:31:09Z</time>
      </trkpt>
      <trkpt lat="42.7526" lon="0.34265">
        <ele>2521</ele>
        <time>2025-08-23T09:31:21Z</time>
      </trkpt>
      <trkpt lat="42.75252" lon="0.34265">
        <ele>2524</ele>
        <time>2025-08-23T09:31:54Z</time>
      </trkpt>
      <trkpt lat="42.75243" lon="0.34268">
        <ele>2527</ele>
        <time>2025-08-23T09:32:17Z</time>
      </trkpt>
      <trkpt lat="42.75233" lon="0.34273">
        <ele>2530</ele>
        <time>2025-08-23T09:32:28Z</time>
      </trkpt>
      <trkpt lat="42.75225" lon="0.34276">
        <ele>2531</ele>
        <time>2025-08-23T09:32:44Z</time>
      </trkpt>
      <trkpt lat="42.75218" lon="0.34284">
        <ele>2534</ele>
        <time>2025-08-23T09:33:00Z</time>
      </trkpt>
      <trkpt lat="42.75212" lon="0.34295">
        <ele>2537</ele>
        <time>2025-08-23T09:33:37Z</time>
      </trkpt>
      <trkpt lat="42.75208" lon="0.34307">
        <ele>2539</ele>
        <time>2025-08-23T09:34:08Z</time>
      </trkpt>
      <trkpt lat="42.75201" lon="0.34315">
        <ele>2541</ele>
        <time>2025-08-23T09:34:35Z</time>
      </trkpt>
      <trkpt lat="42.75196" lon="0.34325">
        <ele>2540</ele>
        <time>2025-08-23T09:34:57Z</time>
      </trkpt>
      <trkpt lat="42.7519" lon="0.34335">
        <ele>2540</ele>
        <time>2025-08-23T09:35:10Z</time>
      </trkpt>
      <trkpt lat="42.75185" lon="0.34345">
        <ele>2541</ele>
        <time>2025-08-23T09:35:30Z</time>
      </trkpt>
      <trkpt lat="42.75179" lon="0.34354">
        <ele>2544</ele>
        <time>2025-08-23T09:35:48Z</time>
      </trkpt>
      <trkpt lat="42.75173" lon="0.34364">
        <ele>2547</ele>
        <time>2025-08-23T09:36:08Z</time>
      </trkpt>
      <trkpt lat="42.75166" lon="0.34374">
        <ele>2551</ele>
        <time>2025-08-23T09:36:19Z</time>
      </trkpt>
      <trkpt lat="42.75159" lon="0.34383">
        <ele>2555</ele>
        <time>2025-08-23T09:36:30Z</time>
      </trkpt>
      <trkpt lat="42.75152" lon="0.34393">
        <ele>2560</ele>
        <time>2025-08-23T09:36:42Z</time>
      </trkpt>
      <trkpt lat="42.75145" lon="0.34402">
        <ele>2562</ele>
        <time>2025-08-23T09:36:54Z</time>
      </trkpt>
      <trkpt lat="42.75137" lon="0.34408">
        <ele>2566</ele>
        <time>2025-08-23T09:37:07Z</time>
      </trkpt>
      <trkpt lat="42.75129" lon="0.34416">
        <ele>2571</ele>
        <time>2025-08-23T09:37:19Z</time>
      </trkpt>
      <trkpt lat="42.75122" lon="0.34423">
        <ele>2575</ele>
        <time>2025-08-23T09:37:46Z</time>
      </trkpt>
      <trkpt lat="42.75114" lon="0.34429">
        <ele>2578</ele>
        <time>2025-08-23T09:38:03Z</time>
      </trkpt>
      <trkpt lat="42.75107" lon="0.3443">
        <ele>2581</ele>
        <time>2025-08-23T09:38:23Z</time>
      </trkpt>
      <trkpt lat="42.75104" lon="0.3444">
        <ele>2583</ele>
        <time>2025-08-23T09:38:48Z</time>
      </trkpt>
      <trkpt lat="42.75098" lon="0.34449">
        <ele>2588</ele>
        <time>2025-08-23T09:39:22Z</time>
      </trkpt>
      <trkpt lat="42.75093" lon="0.34459">
        <ele>2589</ele>
        <time>2025-08-23T09:40:05Z</time>
      </trkpt>
      <trkpt lat="42.75085" lon="0.34464">
        <ele>2593</ele>
        <time>2025-08-23T09:40:36Z</time>
      </trkpt>
      <trkpt lat="42.75076" lon="0.34465">
        <ele>2595</ele>
        <time>2025-08-23T09:43:22Z</time>
      </trkpt>
      <trkpt lat="42.75068" lon="0.3446">
        <ele>2598</ele>
        <time>2025-08-23T09:44:11Z</time>
      </trkpt>
      <trkpt lat="42.75064" lon="0.3445">
        <ele>2603</ele>
        <time>2025-08-23T09:44:58Z</time>
      </trkpt>
      <trkpt lat="42.75058" lon="0.34441">
        <ele>2607</ele>
        <time>2025-08-23T09:45:33Z</time>
      </trkpt>
      <trkpt lat="42.75051" lon="0.34433">
        <ele>2612</ele>
        <time>2025-08-23T09:45:49Z</time>
      </trkpt>
      <trkpt lat="42.75042" lon="0.34433">
        <ele>2616</ele>
        <time>2025-08-23T09:46:17Z</time>
      </trkpt>
      <trkpt lat="42.75034" lon="0.34432">
        <ele>2622</ele>
        <time>2025-08-23T09:47:05Z</time>
      </trkpt>
      <trkpt lat="42.75025" lon="0.34431">
        <ele>2625</ele>
        <time>2025-08-23T09:48:04Z</time>
      </trkpt>
      <trkpt lat="42.75017" lon="0.34435">
        <ele>2628</ele>
        <time>2025-08-23T09:48:45Z</time>
      </trkpt>
      <trkpt lat="42.75008" lon="0.34437">
        <ele>2630</ele>
        <time>2025-08-23T09:49:36Z</time>
      </trkpt>
      <trkpt lat="42.75" lon="0.34436">
        <ele>2633</ele>
        <time>2025-08-23T09:50:40Z</time>
      </trkpt>
      <trkpt lat="42.74994" lon="0.34429">
        <ele>2639</ele>
        <time>2025-08-23T09:51:28Z</time>
      </trkpt>
      <trkpt lat="42.74989" lon="0.34419">
        <ele>2645</ele>
        <time>2025-08-23T09:52:40Z</time>
      </trkpt>
      <trkpt lat="42.74982" lon="0.34411">
        <ele>2653</ele>
        <time>2025-08-23T09:53:40Z</time>
      </trkpt>
      <trkpt lat="42.74974" lon="0.34411">
        <ele>2655</ele>
        <time>2025-08-23T09:54:11Z</time>
      </trkpt>
      <trkpt lat="42.74966" lon="0.34412">
        <ele>2655</ele>
        <time>2025-08-23T09:54:36Z</time>
      </trkpt>
      <trkpt lat="42.74957" lon="0.34408">
        <ele>2660</ele>
        <time>2025-08-23T09:55:10Z</time>
      </trkpt>
      <trkpt lat="42.74951" lon="0.34398">
        <ele>2669</ele>
        <time>2025-08-23T09:55:58Z</time>
      </trkpt>
      <trkpt lat="42.74943" lon="0.34391">
        <ele>2673</ele>
        <time>2025-08-23T09:56:40Z</time>
      </trkpt>
      <trkpt lat="42.74935" lon="0.34393">
        <ele>2674</ele>
        <time>2025-08-23T09:57:16Z</time>
      </trkpt>
      <trkpt lat="42.74925" lon="0.34391">
        <ele>2680</ele>
        <time>2025-08-23T09:57:34Z</time>
      </trkpt>
      <trkpt lat="42.74916" lon="0.3439">
        <ele>2684</ele>
        <time>2025-08-23T09:57:59Z</time>
      </trkpt>
      <trkpt lat="42.74907" lon="0.34388">
        <ele>2687</ele>
        <time>2025-08-23T09:58:25Z</time>
      </trkpt>
      <trkpt lat="42.74901" lon="0.3438">
        <ele>2695</ele>
        <time>2025-08-23T09:58:55Z</time>
      </trkpt>
      <trkpt lat="42.74894" lon="0.34373">
        <ele>2699</ele>
        <time>2025-08-23T09:59:14Z</time>
      </trkpt>
      <trkpt lat="42.74891" lon="0.34363">
        <ele>2701</ele>
        <time>2025-08-23T09:59:39Z</time>
      </trkpt>
      <trkpt lat="42.74885" lon="0.34354">
        <ele>2704</ele>
        <time>2025-08-23T10:00:03Z</time>
      </trkpt>
      <trkpt lat="42.74877" lon="0.34357">
        <ele>2709</ele>
        <time>2025-08-23T10:00:44Z</time>
      </trkpt>
      <trkpt lat="42.74872" lon="0.34366">
        <ele>2712</ele>
        <time>2025-08-23T10:02:29Z</time>
      </trkpt>
      <trkpt lat="42.74868" lon="0.34377">
        <ele>2710</ele>
        <time>2025-08-23T10:03:09Z</time>
      </trkpt>
      <trkpt lat="42.74861" lon="0.34379">
        <ele>2711</ele>
        <time>2025-08-23T10:04:06Z</time>
      </trkpt>
      <trkpt lat="42.74855" lon="0.34371">
        <ele>2715</ele>
        <time>2025-08-23T10:04:55Z</time>
      </trkpt>
      <trkpt lat="42.7485" lon="0.3436">
        <ele>2718</ele>
        <time>2025-08-23T10:05:52Z</time>
      </trkpt>
      <trkpt lat="42.74846" lon="0.3435">
        <ele>2725</ele>
        <time>2025-08-23T10:06:17Z</time>
      </trkpt>
      <trkpt lat="42.74839" lon="0.34344">
        <ele>2724</ele>
        <time>2025-08-23T10:06:36Z</time>
      </trkpt>
      <trkpt lat="42.74835" lon="0.34334">
        <ele>2731</ele>
        <time>2025-08-23T10:07:32Z</time>
      </trkpt>
      <trkpt lat="42.74831" lon="0.34328">
        <ele>2734</ele>
        <time>2025-08-23T10:08:39Z</time>
      </trkpt>
      <trkpt lat="42.74836" lon="0.3433">
        <ele>2732</ele>
        <time>2025-08-23T10:53:38Z</time>
      </trkpt>
      <trkpt lat="42.74841" lon="0.3434">
        <ele>2728</ele>
        <time>2025-08-23T10:54:14Z</time>
      </trkpt>
      <trkpt lat="42.74847" lon="0.34347">
        <ele>2725</ele>
        <time>2025-08-23T10:54:38Z</time>
      </trkpt>
      <trkpt lat="42.74852" lon="0.34358">
        <ele>2719</ele>
        <time>2025-08-23T10:54:59Z</time>
      </trkpt>
      <trkpt lat="42.74857" lon="0.34368">
        <ele>2715</ele>
        <time>2025-08-23T10:55:23Z</time>
      </trkpt>
      <trkpt lat="42.74862" lon="0.34377">
        <ele>2712</ele>
        <time>2025-08-23T10:55:41Z</time>
      </trkpt>
      <trkpt lat="42.7487" lon="0.34378">
        <ele>2710</ele>
        <time>2025-08-23T10:56:44Z</time>
      </trkpt>
      <trkpt lat="42.74879" lon="0.34373">
        <ele>2707</ele>
        <time>2025-08-23T10:57:23Z</time>
      </trkpt>
      <trkpt lat="42.74884" lon="0.34365">
        <ele>2706</ele>
        <time>2025-08-23T10:58:29Z</time>
      </trkpt>
      <trkpt lat="42.74891" lon="0.34358">
        <ele>2701</ele>
        <time>2025-08-23T10:59:14Z</time>
      </trkpt>
      <trkpt lat="42.74895" lon="0.34367">
        <ele>2699</ele>
        <time>2025-08-23T10:59:32Z</time>
      </trkpt>
      <trkpt lat="42.74903" lon="0.34373">
        <ele>2691</ele>
        <time>2025-08-23T10:59:53Z</time>
      </trkpt>
      <trkpt lat="42.7491" lon="0.34383">
        <ele>2687</ele>
        <time>2025-08-23T11:00:17Z</time>
      </trkpt>
      <trkpt lat="42.74919" lon="0.34387">
        <ele>2683</ele>
        <time>2025-08-23T11:00:35Z</time>
      </trkpt>
      <trkpt lat="42.74928" lon="0.34387">
        <ele>2679</ele>
        <time>2025-08-23T11:00:50Z</time>
      </trkpt>
      <trkpt lat="42.74937" lon="0.34391">
        <ele>2673</ele>
        <time>2025-08-23T11:01:05Z</time>
      </trkpt>
      <trkpt lat="42.74947" lon="0.34397">
        <ele>2670</ele>
        <time>2025-08-23T11:01:19Z</time>
      </trkpt>
      <trkpt lat="42.74956" lon="0.34401">
        <ele>2665</ele>
        <time>2025-08-23T11:02:05Z</time>
      </trkpt>
      <trkpt lat="42.74963" lon="0.34407">
        <ele>2659</ele>
        <time>2025-08-23T11:02:29Z</time>
      </trkpt>
      <trkpt lat="42.74971" lon="0.34408">
        <ele>2657</ele>
        <time>2025-08-23T11:02:50Z</time>
      </trkpt>
      <trkpt lat="42.74979" lon="0.34407">
        <ele>2655</ele>
        <time>2025-08-23T11:03:11Z</time>
      </trkpt>
      <trkpt lat="42.74982" lon="0.34415">
        <ele>2650</ele>
        <time>2025-08-23T11:03:41Z</time>
      </trkpt>
      <trkpt lat="42.7499" lon="0.34417">
        <ele>2646</ele>
        <time>2025-08-23T11:04:35Z</time>
      </trkpt>
      <trkpt lat="42.74999" lon="0.34419">
        <ele>2640</ele>
        <time>2025-08-23T11:05:41Z</time>
      </trkpt>
      <trkpt lat="42.75007" lon="0.34426">
        <ele>2632</ele>
        <time>2025-08-23T11:06:02Z</time>
      </trkpt>
      <trkpt lat="42.75013" lon="0.34434">
        <ele>2629</ele>
        <time>2025-08-23T11:06:44Z</time>
      </trkpt>
      <trkpt lat="42.75021" lon="0.34431">
        <ele>2627</ele>
        <time>2025-08-23T11:07:13Z</time>
      </trkpt>
      <trkpt lat="42.7503" lon="0.34435">
        <ele>2623</ele>
        <time>2025-08-23T11:07:56Z</time>
      </trkpt>
      <trkpt lat="42.75038" lon="0.34438">
        <ele>2618</ele>
        <time>2025-08-23T11:08:31Z</time>
      </trkpt>
      <trkpt lat="42.75047" lon="0.34437">
        <ele>2613</ele>
        <time>2025-08-23T11:08:53Z</time>
      </trkpt>
      <trkpt lat="42.75055" lon="0.3444">
        <ele>2609</ele>
        <time>2025-08-23T11:09:23Z</time>
      </trkpt>
      <trkpt lat="42.75064" lon="0.34445">
        <ele>2604</ele>
        <time>2025-08-23T11:10:11Z</time>
      </trkpt>
      <trkpt lat="42.75072" lon="0.34439">
        <ele>2599</ele>
        <time>2025-08-23T11:10:41Z</time>
      </trkpt>
      <trkpt lat="42.75084" lon="0.34436">
        <ele>2594</ele>
        <time>2025-08-23T11:13:53Z</time>
      </trkpt>
      <trkpt lat="42.75091" lon="0.34444">
        <ele>2590</ele>
        <time>2025-08-23T11:14:44Z</time>
      </trkpt>
      <trkpt lat="42.75099" lon="0.34446">
        <ele>2587</ele>
        <time>2025-08-23T11:15:35Z</time>
      </trkpt>
      <trkpt lat="42.75104" lon="0.34437">
        <ele>2582</ele>
        <time>2025-08-23T11:15:59Z</time>
      </trkpt>
      <trkpt lat="42.75109" lon="0.34427">
        <ele>2580</ele>
        <time>2025-08-23T11:16:20Z</time>
      </trkpt>
      <trkpt lat="42.75117" lon="0.34425">
        <ele>2576</ele>
        <time>2025-08-23T11:16:35Z</time>
      </trkpt>
      <trkpt lat="42.75124" lon="0.34417">
        <ele>2573</ele>
        <time>2025-08-23T11:16:59Z</time>
      </trkpt>
      <trkpt lat="42.75132" lon="0.3441">
        <ele>2568</ele>
        <time>2025-08-23T11:17:11Z</time>
      </trkpt>
      <trkpt lat="42.75141" lon="0.34403">
        <ele>2564</ele>
        <time>2025-08-23T11:17:22Z</time>
      </trkpt>
      <trkpt lat="42.75149" lon="0.34395">
        <ele>2560</ele>
        <time>2025-08-23T11:17:32Z</time>
      </trkpt>
      <trkpt lat="42.75155" lon="0.34384">
        <ele>2558</ele>
        <time>2025-08-23T11:17:42Z</time>
      </trkpt>
      <trkpt lat="42.75161" lon="0.34375">
        <ele>2553</ele>
        <time>2025-08-23T11:17:51Z</time>
      </trkpt>
      <trkpt lat="42.75168" lon="0.34366">
        <ele>2550</ele>
        <time>2025-08-23T11:17:58Z</time>
      </trkpt>
      <trkpt lat="42.75174" lon="0.34356">
        <ele>2545</ele>
        <time>2025-08-23T11:18:08Z</time>
      </trkpt>
      <trkpt lat="42.75181" lon="0.34347">
        <ele>2542</ele>
        <time>2025-08-23T11:18:25Z</time>
      </trkpt>
      <trkpt lat="42.75187" lon="0.34337">
        <ele>2541</ele>
        <time>2025-08-23T11:18:38Z</time>
      </trkpt>
      <trkpt lat="42.75193" lon="0.34328">
        <ele>2540</ele>
        <time>2025-08-23T11:18:52Z</time>
      </trkpt>
      <trkpt lat="42.75198" lon="0.34317">
        <ele>2541</ele>
        <time>2025-08-23T11:20:01Z</time>
      </trkpt>
      <trkpt lat="42.75205" lon="0.34308">
        <ele>2539</ele>
        <time>2025-08-23T11:20:19Z</time>
      </trkpt>
      <trkpt lat="42.75211" lon="0.34299">
        <ele>2537</ele>
        <time>2025-08-23T11:20:36Z</time>
      </trkpt>
      <trkpt lat="42.75216" lon="0.34288">
        <ele>2535</ele>
        <time>2025-08-23T11:20:55Z</time>
      </trkpt>
      <trkpt lat="42.75222" lon="0.34278">
        <ele>2532</ele>
        <time>2025-08-23T11:21:35Z</time>
      </trkpt>
      <trkpt lat="42.75231" lon="0.34271">
        <ele>2530</ele>
        <time>2025-08-23T11:21:47Z</time>
      </trkpt>
      <trkpt lat="42.75241" lon="0.34266">
        <ele>2527</ele>
        <time>2025-08-23T11:22:02Z</time>
      </trkpt>
      <trkpt lat="42.75251" lon="0.34265">
        <ele>2524</ele>
        <time>2025-08-23T11:22:14Z</time>
      </trkpt>
      <trkpt lat="42.75259" lon="0.34265">
        <ele>2521</ele>
        <time>2025-08-23T11:22:32Z</time>
      </trkpt>
      <trkpt lat="42.75267" lon="0.34258">
        <ele>2518</ele>
        <time>2025-08-23T11:22:55Z</time>
      </trkpt>
      <trkpt lat="42.75276" lon="0.34257">
        <ele>2517</ele>
        <time>2025-08-23T11:23:06Z</time>
      </trkpt>
      <trkpt lat="42.75284" lon="0.34255">
        <ele>2517</ele>
        <time>2025-08-23T11:23:14Z</time>
      </trkpt>
      <trkpt lat="42.75294" lon="0.34256">
        <ele>2519</ele>
        <time>2025-08-23T11:23:22Z</time>
      </trkpt>
      <trkpt lat="42.75303" lon="0.34257">
        <ele>2521</ele>
        <time>2025-08-23T11:23:33Z</time>
      </trkpt>
      <trkpt lat="42.75312" lon="0.34257">
        <ele>2521</ele>
        <time>2025-08-23T11:23:43Z</time>
      </trkpt>
      <trkpt lat="42.75321" lon="0.34254">
        <ele>2523</ele>
        <time>2025-08-23T11:23:58Z</time>
      </trkpt>
      <trkpt lat="42.75331" lon="0.34251">
        <ele>2525</ele>
        <time>2025-08-23T11:24:15Z</time>
      </trkpt>
      <trkpt lat="42.7534" lon="0.34247">
        <ele>2527</ele>
        <time>2025-08-23T11:24:24Z</time>
      </trkpt>
      <trkpt lat="42.75349" lon="0.34244">
        <ele>2525</ele>
        <time>2025-08-23T11:24:34Z</time>
      </trkpt>
      <trkpt lat="42.75357" lon="0.34239">
        <ele>2522</ele>
        <time>2025-08-23T11:24:42Z</time>
      </trkpt>
      <trkpt lat="42.75365" lon="0.34234">
        <ele>2520</ele>
        <time>2025-08-23T11:24:52Z</time>
      </trkpt>
      <trkpt lat="42.75371" lon="0.34225">
        <ele>2518</ele>
        <time>2025-08-23T11:25:09Z</time>
      </trkpt>
      <trkpt lat="42.75378" lon="0.34218">
        <ele>2515</ele>
        <time>2025-08-23T11:25:24Z</time>
      </trkpt>
      <trkpt lat="42.75386" lon="0.34209">
        <ele>2511</ele>
        <time>2025-08-23T11:25:37Z</time>
      </trkpt>
      <trkpt lat="42.75391" lon="0.34199">
        <ele>2509</ele>
        <time>2025-08-23T11:25:50Z</time>
      </trkpt>
      <trkpt lat="42.75395" lon="0.34188">
        <ele>2506</ele>
        <time>2025-08-23T11:26:02Z</time>
      </trkpt>
      <trkpt lat="42.75402" lon="0.34179">
        <ele>2503</ele>
        <time>2025-08-23T11:26:15Z</time>
      </trkpt>
      <trkpt lat="42.75411" lon="0.34171">
        <ele>2499</ele>
        <time>2025-08-23T11:26:28Z</time>
      </trkpt>
      <trkpt lat="42.75418" lon="0.34164">
        <ele>2495</ele>
        <time>2025-08-23T11:26:41Z</time>
      </trkpt>
      <trkpt lat="42.75426" lon="0.34158">
        <ele>2493</ele>
        <time>2025-08-23T11:26:58Z</time>
      </trkpt>
      <trkpt lat="42.75433" lon="0.34151">
        <ele>2488</ele>
        <time>2025-08-23T11:27:18Z</time>
      </trkpt>
      <trkpt lat="42.75442" lon="0.34146">
        <ele>2484</ele>
        <time>2025-08-23T11:27:32Z</time>
      </trkpt>
      <trkpt lat="42.75449" lon="0.34138">
        <ele>2481</ele>
        <time>2025-08-23T11:27:53Z</time>
      </trkpt>
      <trkpt lat="42.75455" lon="0.34129">
        <ele>2478</ele>
        <time>2025-08-23T11:28:15Z</time>
      </trkpt>
      <trkpt lat="42.75463" lon="0.34123">
        <ele>2475</ele>
        <time>2025-08-23T11:28:32Z</time>
      </trkpt>
      <trkpt lat="42.75471" lon="0.34117">
        <ele>2472</ele>
        <time>2025-08-23T11:28:46Z</time>
      </trkpt>
      <trkpt lat="42.75479" lon="0.34112">
        <ele>2470</ele>
        <time>2025-08-23T11:28:56Z</time>
      </trkpt>
      <trkpt lat="42.75488" lon="0.34111">
        <ele>2469</ele>
        <time>2025-08-23T11:29:07Z</time>
      </trkpt>
      <trkpt lat="42.75494" lon="0.34104">
        <ele>2466</ele>
        <time>2025-08-23T11:29:26Z</time>
      </trkpt>
      <trkpt lat="42.75502" lon="0.34097">
        <ele>2462</ele>
        <time>2025-08-23T11:29:35Z</time>
      </trkpt>
      <trkpt lat="42.75511" lon="0.34093">
        <ele>2460</ele>
        <time>2025-08-23T11:29:47Z</time>
      </trkpt>
      <trkpt lat="42.7552" lon="0.34089">
        <ele>2459</ele>
        <time>2025-08-23T11:30:01Z</time>
      </trkpt>
      <trkpt lat="42.75527" lon="0.34081">
        <ele>2457</ele>
        <time>2025-08-23T11:30:08Z</time>
      </trkpt>
      <trkpt lat="42.75534" lon="0.34074">
        <ele>2456</ele>
        <time>2025-08-23T11:30:16Z</time>
      </trkpt>
      <trkpt lat="42.75544" lon="0.34068">
        <ele>2455</ele>
        <time>2025-08-23T11:30:24Z</time>
      </trkpt>
      <trkpt lat="42.75554" lon="0.34061">
        <ele>2455</ele>
        <time>2025-08-23T11:30:33Z</time>
      </trkpt>
      <trkpt lat="42.75563" lon="0.34055">
        <ele>2454</ele>
        <time>2025-08-23T11:30:41Z</time>
      </trkpt>
      <trkpt lat="42.75573" lon="0.34049">
        <ele>2453</ele>
        <time>2025-08-23T11:30:49Z</time>
      </trkpt>
      <trkpt lat="42.75582" lon="0.34044">
        <ele>2452</ele>
        <time>2025-08-23T11:30:57Z</time>
      </trkpt>
      <trkpt lat="42.7559" lon="0.3404">
        <ele>2452</ele>
        <time>2025-08-23T11:31:03Z</time>
      </trkpt>
      <trkpt lat="42.75599" lon="0.34036">
        <ele>2451</ele>
        <time>2025-08-23T11:31:09Z</time>
      </trkpt>
      <trkpt lat="42.75608" lon="0.34031">
        <ele>2449</ele>
        <time>2025-08-23T11:31:18Z</time>
      </trkpt>
      <trkpt lat="42.75617" lon="0.34023">
        <ele>2449</ele>
        <time>2025-08-23T11:31:27Z</time>
      </trkpt>
      <trkpt lat="42.75621" lon="0.34012">
        <ele>2450</ele>
        <time>2025-08-23T11:31:35Z</time>
      </trkpt>
      <trkpt lat="42.75624" lon="0.33998">
        <ele>2451</ele>
        <time>2025-08-23T11:31:43Z</time>
      </trkpt>
      <trkpt lat="42.75628" lon="0.33987">
        <ele>2450</ele>
        <time>2025-08-23T11:31:52Z</time>
      </trkpt>
      <trkpt lat="42.75636" lon="0.33981">
        <ele>2448</ele>
        <time>2025-08-23T11:31:58Z</time>
      </trkpt>
      <trkpt lat="42.75646" lon="0.33979">
        <ele>2446</ele>
        <time>2025-08-23T11:32:08Z</time>
      </trkpt>
      <trkpt lat="42.75654" lon="0.33973">
        <ele>2445</ele>
        <time>2025-08-23T11:32:17Z</time>
      </trkpt>
      <trkpt lat="42.75662" lon="0.33967">
        <ele>2442</ele>
        <time>2025-08-23T11:32:28Z</time>
      </trkpt>
      <trkpt lat="42.75668" lon="0.33957">
        <ele>2438</ele>
        <time>2025-08-23T11:32:38Z</time>
      </trkpt>
      <trkpt lat="42.75673" lon="0.33946">
        <ele>2437</ele>
        <time>2025-08-23T11:32:49Z</time>
      </trkpt>
      <trkpt lat="42.75676" lon="0.33935">
        <ele>2436</ele>
        <time>2025-08-23T11:32:59Z</time>
      </trkpt>
      <trkpt lat="42.75681" lon="0.33923">
        <ele>2434</ele>
        <time>2025-08-23T11:33:08Z</time>
      </trkpt>
      <trkpt lat="42.75685" lon="0.33912">
        <ele>2433</ele>
        <time>2025-08-23T11:33:18Z</time>
      </trkpt>
      <trkpt lat="42.75688" lon="0.33901">
        <ele>2431</ele>
        <time>2025-08-23T11:33:28Z</time>
      </trkpt>
      <trkpt lat="42.75691" lon="0.3389">
        <ele>2428</ele>
        <time>2025-08-23T11:33:41Z</time>
      </trkpt>
      <trkpt lat="42.75696" lon="0.33879">
        <ele>2426</ele>
        <time>2025-08-23T11:33:53Z</time>
      </trkpt>
      <trkpt lat="42.75701" lon="0.33869">
        <ele>2424</ele>
        <time>2025-08-23T11:34:06Z</time>
      </trkpt>
      <trkpt lat="42.75705" lon="0.33858">
        <ele>2420</ele>
        <time>2025-08-23T11:34:21Z</time>
      </trkpt>
      <trkpt lat="42.75709" lon="0.33846">
        <ele>2417</ele>
        <time>2025-08-23T11:34:41Z</time>
      </trkpt>
      <trkpt lat="42.75715" lon="0.33837">
        <ele>2412</ele>
        <time>2025-08-23T11:34:56Z</time>
      </trkpt>
      <trkpt lat="42.7572" lon="0.33826">
        <ele>2408</ele>
        <time>2025-08-23T11:35:08Z</time>
      </trkpt>
      <trkpt lat="42.75725" lon="0.33815">
        <ele>2405</ele>
        <time>2025-08-23T11:35:21Z</time>
      </trkpt>
      <trkpt lat="42.7573" lon="0.33805">
        <ele>2402</ele>
        <time>2025-08-23T11:35:35Z</time>
      </trkpt>
      <trkpt lat="42.75733" lon="0.33793">
        <ele>2396</ele>
        <time>2025-08-23T11:35:59Z</time>
      </trkpt>
      <trkpt lat="42.75738" lon="0.33782">
        <ele>2395</ele>
        <time>2025-08-23T11:36:12Z</time>
      </trkpt>
      <trkpt lat="42.7574" lon="0.33771">
        <ele>2389</ele>
        <time>2025-08-23T11:36:33Z</time>
      </trkpt>
      <trkpt lat="42.75741" lon="0.33758">
        <ele>2383</ele>
        <time>2025-08-23T11:36:50Z</time>
      </trkpt>
      <trkpt lat="42.75744" lon="0.33745">
        <ele>2379</ele>
        <time>2025-08-23T11:37:08Z</time>
      </trkpt>
      <trkpt lat="42.75748" lon="0.33734">
        <ele>2375</ele>
        <time>2025-08-23T11:37:26Z</time>
      </trkpt>
      <trkpt lat="42.75755" lon="0.33726">
        <ele>2371</ele>
        <time>2025-08-23T11:37:50Z</time>
      </trkpt>
      <trkpt lat="42.75763" lon="0.33718">
        <ele>2370</ele>
        <time>2025-08-23T11:38:02Z</time>
      </trkpt>
      <trkpt lat="42.75769" lon="0.33709">
        <ele>2366</ele>
        <time>2025-08-23T11:38:17Z</time>
      </trkpt>
      <trkpt lat="42.75775" lon="0.337">
        <ele>2363</ele>
        <time>2025-08-23T11:38:30Z</time>
      </trkpt>
      <trkpt lat="42.75781" lon="0.33691">
        <ele>2359</ele>
        <time>2025-08-23T11:38:40Z</time>
      </trkpt>
      <trkpt lat="42.75788" lon="0.33682">
        <ele>2358</ele>
        <time>2025-08-23T11:38:52Z</time>
      </trkpt>
      <trkpt lat="42.75795" lon="0.33673">
        <ele>2354</ele>
        <time>2025-08-23T11:39:03Z</time>
      </trkpt>
      <trkpt lat="42.75804" lon="0.33669">
        <ele>2353</ele>
        <time>2025-08-23T11:39:13Z</time>
      </trkpt>
      <trkpt lat="42.75813" lon="0.33664">
        <ele>2352</ele>
        <time>2025-08-23T11:39:25Z</time>
      </trkpt>
      <trkpt lat="42.75823" lon="0.33659">
        <ele>2351</ele>
        <time>2025-08-23T11:39:34Z</time>
      </trkpt>
      <trkpt lat="42.75831" lon="0.33652">
        <ele>2349</ele>
        <time>2025-08-23T11:39:44Z</time>
      </trkpt>
      <trkpt lat="42.75839" lon="0.33643">
        <ele>2349</ele>
        <time>2025-08-23T11:39:54Z</time>
      </trkpt>
      <trkpt lat="42.75845" lon="0.33627">
        <ele>2350</ele>
        <time>2025-08-23T11:40:24Z</time>
      </trkpt>
      <trkpt lat="42.75846" lon="0.33633">
        <ele>2350</ele>
        <time>2025-08-23T11:40:44Z</time>
      </trkpt>
      <trkpt lat="42.75853" lon="0.33628">
        <ele>2350</ele>
        <time>2025-08-23T11:40:53Z</time>
      </trkpt>
      <trkpt lat="42.75859" lon="0.33622">
        <ele>2350</ele>
        <time>2025-08-23T11:41:21Z</time>
      </trkpt>
      <trkpt lat="42.75867" lon="0.33628">
        <ele>2350</ele>
        <time>2025-08-23T12:02:29Z</time>
      </trkpt>
      <trkpt lat="42.75875" lon="0.3363">
        <ele>2350</ele>
        <time>2025-08-23T12:02:42Z</time>
      </trkpt>
      <trkpt lat="42.75881" lon="0.33623">
        <ele>2350</ele>
        <time>2025-08-23T12:02:53Z</time>
      </trkpt>
      <trkpt lat="42.75889" lon="0.33617">
        <ele>2349</ele>
        <time>2025-08-23T12:03:04Z</time>
      </trkpt>
      <trkpt lat="42.75897" lon="0.33613">
        <ele>2349</ele>
        <time>2025-08-23T12:03:14Z</time>
      </trkpt>
      <trkpt lat="42.75906" lon="0.33608">
        <ele>2350</ele>
        <time>2025-08-23T12:03:24Z</time>
      </trkpt>
      <trkpt lat="42.75914" lon="0.33598">
        <ele>2350</ele>
        <time>2025-08-23T12:03:35Z</time>
      </trkpt>
      <trkpt lat="42.75921" lon="0.33589">
        <ele>2350</ele>
        <time>2025-08-23T12:03:44Z</time>
      </trkpt>
      <trkpt lat="42.7593" lon="0.33583">
        <ele>2351</ele>
        <time>2025-08-23T12:03:52Z</time>
      </trkpt>
      <trkpt lat="42.75939" lon="0.33575">
        <ele>2351</ele>
        <time>2025-08-23T12:04:03Z</time>
      </trkpt>
      <trkpt lat="42.75945" lon="0.33567">
        <ele>2351</ele>
        <time>2025-08-23T12:04:13Z</time>
      </trkpt>
      <trkpt lat="42.75951" lon="0.33557">
        <ele>2350</ele>
        <time>2025-08-23T12:04:23Z</time>
      </trkpt>
      <trkpt lat="42.75959" lon="0.33552">
        <ele>2350</ele>
        <time>2025-08-23T12:04:40Z</time>
      </trkpt>
      <trkpt lat="42.75969" lon="0.33552">
        <ele>2350</ele>
        <time>2025-08-23T12:04:54Z</time>
      </trkpt>
      <trkpt lat="42.75978" lon="0.3355">
        <ele>2350</ele>
        <time>2025-08-23T12:05:08Z</time>
      </trkpt>
      <trkpt lat="42.75987" lon="0.33551">
        <ele>2349</ele>
        <time>2025-08-23T12:05:17Z</time>
      </trkpt>
      <trkpt lat="42.75995" lon="0.33546">
        <ele>2348</ele>
        <time>2025-08-23T12:05:25Z</time>
      </trkpt>
      <trkpt lat="42.76003" lon="0.33541">
        <ele>2346</ele>
        <time>2025-08-23T12:05:33Z</time>
      </trkpt>
      <trkpt lat="42.76012" lon="0.33534">
        <ele>2345</ele>
        <time>2025-08-23T12:05:44Z</time>
      </trkpt>
      <trkpt lat="42.76019" lon="0.33527">
        <ele>2346</ele>
        <time>2025-08-23T12:05:52Z</time>
      </trkpt>
      <trkpt lat="42.76026" lon="0.33518">
        <ele>2344</ele>
        <time>2025-08-23T12:06:10Z</time>
      </trkpt>
      <trkpt lat="42.76032" lon="0.33508">
        <ele>2344</ele>
        <time>2025-08-23T12:06:20Z</time>
      </trkpt>
      <trkpt lat="42.76039" lon="0.335">
        <ele>2344</ele>
        <time>2025-08-23T12:06:31Z</time>
      </trkpt>
      <trkpt lat="42.76048" lon="0.33499">
        <ele>2344</ele>
        <time>2025-08-23T12:06:42Z</time>
      </trkpt>
      <trkpt lat="42.76056" lon="0.33504">
        <ele>2343</ele>
        <time>2025-08-23T12:06:53Z</time>
      </trkpt>
      <trkpt lat="42.76064" lon="0.33511">
        <ele>2341</ele>
        <time>2025-08-23T12:07:07Z</time>
      </trkpt>
      <trkpt lat="42.76073" lon="0.33514">
        <ele>2340</ele>
        <time>2025-08-23T12:07:20Z</time>
      </trkpt>
      <trkpt lat="42.76083" lon="0.33515">
        <ele>2338</ele>
        <time>2025-08-23T12:07:39Z</time>
      </trkpt>
      <trkpt lat="42.76091" lon="0.33512">
        <ele>2335</ele>
        <time>2025-08-23T12:07:53Z</time>
      </trkpt>
      <trkpt lat="42.76101" lon="0.33508">
        <ele>2331</ele>
        <time>2025-08-23T12:08:04Z</time>
      </trkpt>
      <trkpt lat="42.7611" lon="0.33503">
        <ele>2328</ele>
        <time>2025-08-23T12:08:12Z</time>
      </trkpt>
      <trkpt lat="42.76119" lon="0.33497">
        <ele>2326</ele>
        <time>2025-08-23T12:08:23Z</time>
      </trkpt>
      <trkpt lat="42.76128" lon="0.33495">
        <ele>2326</ele>
        <time>2025-08-23T12:08:31Z</time>
      </trkpt>
      <trkpt lat="42.76137" lon="0.33495">
        <ele>2323</ele>
        <time>2025-08-23T12:08:42Z</time>
      </trkpt>
      <trkpt lat="42.76146" lon="0.33495">
        <ele>2321</ele>
        <time>2025-08-23T12:08:55Z</time>
      </trkpt>
      <trkpt lat="42.76155" lon="0.33496">
        <ele>2319</ele>
        <time>2025-08-23T12:09:06Z</time>
      </trkpt>
      <trkpt lat="42.76164" lon="0.3349">
        <ele>2318</ele>
        <time>2025-08-23T12:09:16Z</time>
      </trkpt>
      <trkpt lat="42.76173" lon="0.33487">
        <ele>2316</ele>
        <time>2025-08-23T12:09:27Z</time>
      </trkpt>
      <trkpt lat="42.76183" lon="0.33487">
        <ele>2314</ele>
        <time>2025-08-23T12:09:39Z</time>
      </trkpt>
      <trkpt lat="42.76193" lon="0.33485">
        <ele>2312</ele>
        <time>2025-08-23T12:09:53Z</time>
      </trkpt>
      <trkpt lat="42.76202" lon="0.33483">
        <ele>2309</ele>
        <time>2025-08-23T12:10:05Z</time>
      </trkpt>
      <trkpt lat="42.76211" lon="0.33482">
        <ele>2308</ele>
        <time>2025-08-23T12:10:15Z</time>
      </trkpt>
      <trkpt lat="42.7622" lon="0.33479">
        <ele>2306</ele>
        <time>2025-08-23T12:10:25Z</time>
      </trkpt>
      <trkpt lat="42.76229" lon="0.33477">
        <ele>2305</ele>
        <time>2025-08-23T12:10:36Z</time>
      </trkpt>
      <trkpt lat="42.76237" lon="0.33477">
        <ele>2303</ele>
        <time>2025-08-23T12:10:44Z</time>
      </trkpt>
      <trkpt lat="42.76246" lon="0.33474">
        <ele>2301</ele>
        <time>2025-08-23T12:10:54Z</time>
      </trkpt>
      <trkpt lat="42.76256" lon="0.33471">
        <ele>2299</ele>
        <time>2025-08-23T12:11:05Z</time>
      </trkpt>
      <trkpt lat="42.76266" lon="0.33467">
        <ele>2297</ele>
        <time>2025-08-23T12:11:31Z</time>
      </trkpt>
      <trkpt lat="42.76275" lon="0.33463">
        <ele>2295</ele>
        <time>2025-08-23T12:11:39Z</time>
      </trkpt>
      <trkpt lat="42.76284" lon="0.33458">
        <ele>2294</ele>
        <time>2025-08-23T12:11:49Z</time>
      </trkpt>
      <trkpt lat="42.76292" lon="0.33453">
        <ele>2292</ele>
        <time>2025-08-23T12:11:57Z</time>
      </trkpt>
      <trkpt lat="42.76301" lon="0.33447">
        <ele>2291</ele>
        <time>2025-08-23T12:12:07Z</time>
      </trkpt>
      <trkpt lat="42.7631" lon="0.33443">
        <ele>2289</ele>
        <time>2025-08-23T12:12:17Z</time>
      </trkpt>
      <trkpt lat="42.76319" lon="0.33444">
        <ele>2288</ele>
        <time>2025-08-23T12:12:27Z</time>
      </trkpt>
      <trkpt lat="42.76328" lon="0.33444">
        <ele>2287</ele>
        <time>2025-08-23T12:12:36Z</time>
      </trkpt>
      <trkpt lat="42.76339" lon="0.33446">
        <ele>2285</ele>
        <time>2025-08-23T12:12:46Z</time>
      </trkpt>
      <trkpt lat="42.76349" lon="0.33445">
        <ele>2285</ele>
        <time>2025-08-23T12:12:57Z</time>
      </trkpt>
      <trkpt lat="42.76358" lon="0.33443">
        <ele>2284</ele>
        <time>2025-08-23T12:13:05Z</time>
      </trkpt>
      <trkpt lat="42.76367" lon="0.33443">
        <ele>2284</ele>
        <time>2025-08-23T12:13:15Z</time>
      </trkpt>
      <trkpt lat="42.76377" lon="0.33447">
        <ele>2285</ele>
        <time>2025-08-23T12:13:26Z</time>
      </trkpt>
      <trkpt lat="42.76387" lon="0.33454">
        <ele>2284</ele>
        <time>2025-08-23T12:13:41Z</time>
      </trkpt>
      <trkpt lat="42.76395" lon="0.3346">
        <ele>2285</ele>
        <time>2025-08-23T12:13:51Z</time>
      </trkpt>
      <trkpt lat="42.76404" lon="0.33463">
        <ele>2284</ele>
        <time>2025-08-23T12:14:04Z</time>
      </trkpt>
      <trkpt lat="42.76414" lon="0.33465">
        <ele>2284</ele>
        <time>2025-08-23T12:14:14Z</time>
      </trkpt>
      <trkpt lat="42.76422" lon="0.33469">
        <ele>2284</ele>
        <time>2025-08-23T12:14:25Z</time>
      </trkpt>
      <trkpt lat="42.76432" lon="0.33469">
        <ele>2284</ele>
        <time>2025-08-23T12:14:49Z</time>
      </trkpt>
      <trkpt lat="42.76443" lon="0.33471">
        <ele>2283</ele>
        <time>2025-08-23T12:14:59Z</time>
      </trkpt>
      <trkpt lat="42.76453" lon="0.33472">
        <ele>2284</ele>
        <time>2025-08-23T12:15:07Z</time>
      </trkpt>
      <trkpt lat="42.76463" lon="0.3347">
        <ele>2284</ele>
        <time>2025-08-23T12:15:36Z</time>
      </trkpt>
      <trkpt lat="42.76471" lon="0.33474">
        <ele>2282</ele>
        <time>2025-08-23T12:15:48Z</time>
      </trkpt>
      <trkpt lat="42.76479" lon="0.33477">
        <ele>2282</ele>
        <time>2025-08-23T12:15:57Z</time>
      </trkpt>
      <trkpt lat="42.76488" lon="0.33481">
        <ele>2280</ele>
        <time>2025-08-23T12:16:09Z</time>
      </trkpt>
      <trkpt lat="42.76497" lon="0.33486">
        <ele>2280</ele>
        <time>2025-08-23T12:16:42Z</time>
      </trkpt>
      <trkpt lat="42.76506" lon="0.3349">
        <ele>2277</ele>
        <time>2025-08-23T12:16:51Z</time>
      </trkpt>
      <trkpt lat="42.76515" lon="0.33496">
        <ele>2274</ele>
        <time>2025-08-23T12:17:01Z</time>
      </trkpt>
      <trkpt lat="42.76523" lon="0.335">
        <ele>2273</ele>
        <time>2025-08-23T12:17:11Z</time>
      </trkpt>
      <trkpt lat="42.76532" lon="0.335">
        <ele>2270</ele>
        <time>2025-08-23T12:17:19Z</time>
      </trkpt>
      <trkpt lat="42.76541" lon="0.33504">
        <ele>2269</ele>
        <time>2025-08-23T12:17:28Z</time>
      </trkpt>
      <trkpt lat="42.76549" lon="0.33508">
        <ele>2266</ele>
        <time>2025-08-23T12:17:38Z</time>
      </trkpt>
      <trkpt lat="42.76559" lon="0.33511">
        <ele>2265</ele>
        <time>2025-08-23T12:17:49Z</time>
      </trkpt>
      <trkpt lat="42.76569" lon="0.3351">
        <ele>2263</ele>
        <time>2025-08-23T12:17:57Z</time>
      </trkpt>
      <trkpt lat="42.76578" lon="0.33512">
        <ele>2261</ele>
        <time>2025-08-23T12:18:06Z</time>
      </trkpt>
      <trkpt lat="42.76588" lon="0.33516">
        <ele>2260</ele>
        <time>2025-08-23T12:18:16Z</time>
      </trkpt>
      <trkpt lat="42.76597" lon="0.33522">
        <ele>2258</ele>
        <time>2025-08-23T12:18:29Z</time>
      </trkpt>
      <trkpt lat="42.76604" lon="0.33531">
        <ele>2259</ele>
        <time>2025-08-23T12:18:39Z</time>
      </trkpt>
      <trkpt lat="42.76612" lon="0.33536">
        <ele>2257</ele>
        <time>2025-08-23T12:18:46Z</time>
      </trkpt>
      <trkpt lat="42.7662" lon="0.33538">
        <ele>2255</ele>
        <time>2025-08-23T12:18:55Z</time>
      </trkpt>
      <trkpt lat="42.7663" lon="0.33541">
        <ele>2252</ele>
        <time>2025-08-23T12:19:07Z</time>
      </trkpt>
      <trkpt lat="42.76639" lon="0.33542">
        <ele>2250</ele>
        <time>2025-08-23T12:19:22Z</time>
      </trkpt>
      <trkpt lat="42.76648" lon="0.33537">
        <ele>2245</ele>
        <time>2025-08-23T12:19:34Z</time>
      </trkpt>
      <trkpt lat="42.76657" lon="0.33532">
        <ele>2240</ele>
        <time>2025-08-23T12:19:46Z</time>
      </trkpt>
      <trkpt lat="42.76667" lon="0.3353">
        <ele>2238</ele>
        <time>2025-08-23T12:19:56Z</time>
      </trkpt>
      <trkpt lat="42.76676" lon="0.33534">
        <ele>2236</ele>
        <time>2025-08-23T12:20:12Z</time>
      </trkpt>
      <trkpt lat="42.76683" lon="0.33541">
        <ele>2236</ele>
        <time>2025-08-23T12:20:29Z</time>
      </trkpt>
      <trkpt lat="42.76692" lon="0.33542">
        <ele>2235</ele>
        <time>2025-08-23T12:20:41Z</time>
      </trkpt>
      <trkpt lat="42.76702" lon="0.33541">
        <ele>2232</ele>
        <time>2025-08-23T12:20:50Z</time>
      </trkpt>
      <trkpt lat="42.7671" lon="0.33536">
        <ele>2230</ele>
        <time>2025-08-23T12:21:02Z</time>
      </trkpt>
      <trkpt lat="42.76719" lon="0.33537">
        <ele>2229</ele>
        <time>2025-08-23T12:21:12Z</time>
      </trkpt>
      <trkpt lat="42.76728" lon="0.33535">
        <ele>2228</ele>
        <time>2025-08-23T12:21:22Z</time>
      </trkpt>
      <trkpt lat="42.76736" lon="0.33529">
        <ele>2225</ele>
        <time>2025-08-23T12:21:34Z</time>
      </trkpt>
      <trkpt lat="42.76745" lon="0.33524">
        <ele>2222</ele>
        <time>2025-08-23T12:21:44Z</time>
      </trkpt>
      <trkpt lat="42.76755" lon="0.33521">
        <ele>2220</ele>
        <time>2025-08-23T12:21:55Z</time>
      </trkpt>
      <trkpt lat="42.76763" lon="0.33516">
        <ele>2221</ele>
        <time>2025-08-23T12:22:04Z</time>
      </trkpt>
      <trkpt lat="42.76771" lon="0.3351">
        <ele>2218</ele>
        <time>2025-08-23T12:22:16Z</time>
      </trkpt>
      <trkpt lat="42.7678" lon="0.33509">
        <ele>2217</ele>
        <time>2025-08-23T12:22:29Z</time>
      </trkpt>
      <trkpt lat="42.76789" lon="0.33508">
        <ele>2217</ele>
        <time>2025-08-23T12:22:39Z</time>
      </trkpt>
      <trkpt lat="42.76797" lon="0.33501">
        <ele>2210</ele>
        <time>2025-08-23T12:22:51Z</time>
      </trkpt>
      <trkpt lat="42.76807" lon="0.33494">
        <ele>2209</ele>
        <time>2025-08-23T12:23:41Z</time>
      </trkpt>
      <trkpt lat="42.76817" lon="0.33486">
        <ele>2207</ele>
        <time>2025-08-23T12:23:50Z</time>
      </trkpt>
      <trkpt lat="42.76823" lon="0.33477">
        <ele>2202</ele>
        <time>2025-08-23T12:24:05Z</time>
      </trkpt>
      <trkpt lat="42.76829" lon="0.33467">
        <ele>2198</ele>
        <time>2025-08-23T12:24:17Z</time>
      </trkpt>
      <trkpt lat="42.76838" lon="0.33459">
        <ele>2197</ele>
        <time>2025-08-23T12:24:32Z</time>
      </trkpt>
      <trkpt lat="42.76847" lon="0.33452">
        <ele>2195</ele>
        <time>2025-08-23T12:24:44Z</time>
      </trkpt>
      <trkpt lat="42.76857" lon="0.33448">
        <ele>2194</ele>
        <time>2025-08-23T12:24:53Z</time>
      </trkpt>
      <trkpt lat="42.76862" lon="0.33441">
        <ele>2191</ele>
        <time>2025-08-23T12:25:14Z</time>
      </trkpt>
      <trkpt lat="42.76854" lon="0.33436">
        <ele>2189</ele>
        <time>2025-08-23T12:29:20Z</time>
      </trkpt>
      <trkpt lat="42.76845" lon="0.33432">
        <ele>2186</ele>
        <time>2025-08-23T12:29:41Z</time>
      </trkpt>
      <trkpt lat="42.76836" lon="0.33432">
        <ele>2185</ele>
        <time>2025-08-23T12:29:50Z</time>
      </trkpt>
      <trkpt lat="42.76827" lon="0.33436">
        <ele>2185</ele>
        <time>2025-08-23T12:30:02Z</time>
      </trkpt>
      <trkpt lat="42.76816" lon="0.33438">
        <ele>2185</ele>
        <time>2025-08-23T12:30:14Z</time>
      </trkpt>
      <trkpt lat="42.76807" lon="0.3344">
        <ele>2185</ele>
        <time>2025-08-23T12:30:26Z</time>
      </trkpt>
      <trkpt lat="42.76797" lon="0.33442">
        <ele>2184</ele>
        <time>2025-08-23T12:30:35Z</time>
      </trkpt>
      <trkpt lat="42.76787" lon="0.33443">
        <ele>2185</ele>
        <time>2025-08-23T12:30:46Z</time>
      </trkpt>
      <trkpt lat="42.76779" lon="0.33439">
        <ele>2184</ele>
        <time>2025-08-23T12:30:57Z</time>
      </trkpt>
      <trkpt lat="42.76778" lon="0.33428">
        <ele>2180</ele>
        <time>2025-08-23T12:31:15Z</time>
      </trkpt>
      <trkpt lat="42.76781" lon="0.33418">
        <ele>2175</ele>
        <time>2025-08-23T12:31:41Z</time>
      </trkpt>
      <trkpt lat="42.76783" lon="0.33406">
        <ele>2171</ele>
        <time>2025-08-23T12:31:57Z</time>
      </trkpt>
      <trkpt lat="42.76786" lon="0.33396">
        <ele>2167</ele>
        <time>2025-08-23T12:32:13Z</time>
      </trkpt>
      <trkpt lat="42.76793" lon="0.33388">
        <ele>2162</ele>
        <time>2025-08-23T12:32:26Z</time>
      </trkpt>
      <trkpt lat="42.76802" lon="0.33384">
        <ele>2160</ele>
        <time>2025-08-23T12:32:36Z</time>
      </trkpt>
      <trkpt lat="42.7681" lon="0.3338">
        <ele>2157</ele>
        <time>2025-08-23T12:32:46Z</time>
      </trkpt>
      <trkpt lat="42.76818" lon="0.33373">
        <ele>2155</ele>
        <time>2025-08-23T12:32:57Z</time>
      </trkpt>
      <trkpt lat="42.76824" lon="0.33365">
        <ele>2152</ele>
        <time>2025-08-23T12:33:07Z</time>
      </trkpt>
      <trkpt lat="42.76831" lon="0.33357">
        <ele>2149</ele>
        <time>2025-08-23T12:33:15Z</time>
      </trkpt>
      <trkpt lat="42.76839" lon="0.33348">
        <ele>2150</ele>
        <time>2025-08-23T12:33:25Z</time>
      </trkpt>
      <trkpt lat="42.76847" lon="0.33339">
        <ele>2147</ele>
        <time>2025-08-23T12:33:33Z</time>
      </trkpt>
      <trkpt lat="42.76856" lon="0.33332">
        <ele>2145</ele>
        <time>2025-08-23T12:33:42Z</time>
      </trkpt>
      <trkpt lat="42.76865" lon="0.33328">
        <ele>2144</ele>
        <time>2025-08-23T12:33:50Z</time>
      </trkpt>
      <trkpt lat="42.76873" lon="0.33321">
        <ele>2141</ele>
        <time>2025-08-23T12:33:58Z</time>
      </trkpt>
      <trkpt lat="42.76881" lon="0.33313">
        <ele>2137</ele>
        <time>2025-08-23T12:34:06Z</time>
      </trkpt>
      <trkpt lat="42.7689" lon="0.33309">
        <ele>2135</ele>
        <time>2025-08-23T12:34:14Z</time>
      </trkpt>
      <trkpt lat="42.76901" lon="0.33307">
        <ele>2134</ele>
        <time>2025-08-23T12:34:22Z</time>
      </trkpt>
      <trkpt lat="42.76911" lon="0.33303">
        <ele>2135</ele>
        <time>2025-08-23T12:34:31Z</time>
      </trkpt>
      <trkpt lat="42.76921" lon="0.333">
        <ele>2135</ele>
        <time>2025-08-23T12:34:39Z</time>
      </trkpt>
      <trkpt lat="42.76931" lon="0.33297">
        <ele>2133</ele>
        <time>2025-08-23T12:34:47Z</time>
      </trkpt>
      <trkpt lat="42.7694" lon="0.33295">
        <ele>2132</ele>
        <time>2025-08-23T12:34:53Z</time>
      </trkpt>
      <trkpt lat="42.76949" lon="0.33287">
        <ele>2128</ele>
        <time>2025-08-23T12:35:06Z</time>
      </trkpt>
      <trkpt lat="42.76956" lon="0.3328">
        <ele>2126</ele>
        <time>2025-08-23T12:35:14Z</time>
      </trkpt>
      <trkpt lat="42.76966" lon="0.33276">
        <ele>2126</ele>
        <time>2025-08-23T12:35:22Z</time>
      </trkpt>
      <trkpt lat="42.76974" lon="0.33271">
        <ele>2123</ele>
        <time>2025-08-23T12:35:33Z</time>
      </trkpt>
      <trkpt lat="42.76984" lon="0.33267">
        <ele>2121</ele>
        <time>2025-08-23T12:35:42Z</time>
      </trkpt>
      <trkpt lat="42.76992" lon="0.33263">
        <ele>2118</ele>
        <time>2025-08-23T12:35:50Z</time>
      </trkpt>
      <trkpt lat="42.77001" lon="0.33258">
        <ele>2115</ele>
        <time>2025-08-23T12:35:58Z</time>
      </trkpt>
      <trkpt lat="42.7701" lon="0.33253">
        <ele>2115</ele>
        <time>2025-08-23T12:36:06Z</time>
      </trkpt>
      <trkpt lat="42.77019" lon="0.3325">
        <ele>2113</ele>
        <time>2025-08-23T12:36:14Z</time>
      </trkpt>
      <trkpt lat="42.77029" lon="0.33246">
        <ele>2109</ele>
        <time>2025-08-23T12:36:22Z</time>
      </trkpt>
      <trkpt lat="42.77037" lon="0.33239">
        <ele>2105</ele>
        <time>2025-08-23T12:36:28Z</time>
      </trkpt>
      <trkpt lat="42.77046" lon="0.33233">
        <ele>2106</ele>
        <time>2025-08-23T12:36:36Z</time>
      </trkpt>
      <trkpt lat="42.77054" lon="0.3323">
        <ele>2106</ele>
        <time>2025-08-23T12:36:42Z</time>
      </trkpt>
      <trkpt lat="42.77063" lon="0.33227">
        <ele>2105</ele>
        <time>2025-08-23T12:36:52Z</time>
      </trkpt>
      <trkpt lat="42.77072" lon="0.33222">
        <ele>2105</ele>
        <time>2025-08-23T12:37:04Z</time>
      </trkpt>
      <trkpt lat="42.77081" lon="0.33218">
        <ele>2104</ele>
        <time>2025-08-23T12:37:20Z</time>
      </trkpt>
      <trkpt lat="42.77091" lon="0.33214">
        <ele>2103</ele>
        <time>2025-08-23T12:37:26Z</time>
      </trkpt>
      <trkpt lat="42.771" lon="0.33208">
        <ele>2104</ele>
        <time>2025-08-23T12:37:34Z</time>
      </trkpt>
      <trkpt lat="42.7711" lon="0.33202">
        <ele>2103</ele>
        <time>2025-08-23T12:37:48Z</time>
      </trkpt>
      <trkpt lat="42.7712" lon="0.33197">
        <ele>2101</ele>
        <time>2025-08-23T12:37:56Z</time>
      </trkpt>
      <trkpt lat="42.77128" lon="0.33189">
        <ele>2098</ele>
        <time>2025-08-23T12:38:04Z</time>
      </trkpt>
      <trkpt lat="42.77138" lon="0.33185">
        <ele>2097</ele>
        <time>2025-08-23T12:38:12Z</time>
      </trkpt>
      <trkpt lat="42.77144" lon="0.33179">
        <ele>2096</ele>
        <time>2025-08-23T12:38:20Z</time>
      </trkpt>
      <trkpt lat="42.77139" lon="0.33171">
        <ele>2092</ele>
        <time>2025-08-23T12:38:39Z</time>
      </trkpt>
      <trkpt lat="42.77131" lon="0.33167">
        <ele>2090</ele>
        <time>2025-08-23T12:38:47Z</time>
      </trkpt>
      <trkpt lat="42.77121" lon="0.33166">
        <ele>2089</ele>
        <time>2025-08-23T12:38:58Z</time>
      </trkpt>
      <trkpt lat="42.7711" lon="0.33166">
        <ele>2088</ele>
        <time>2025-08-23T12:39:06Z</time>
      </trkpt>
      <trkpt lat="42.77102" lon="0.33169">
        <ele>2090</ele>
        <time>2025-08-23T12:39:17Z</time>
      </trkpt>
      <trkpt lat="42.77093" lon="0.33167">
        <ele>2087</ele>
        <time>2025-08-23T12:39:27Z</time>
      </trkpt>
      <trkpt lat="42.77083" lon="0.33168">
        <ele>2085</ele>
        <time>2025-08-23T12:39:36Z</time>
      </trkpt>
      <trkpt lat="42.77073" lon="0.3317">
        <ele>2084</ele>
        <time>2025-08-23T12:39:46Z</time>
      </trkpt>
      <trkpt lat="42.77063" lon="0.33173">
        <ele>2084</ele>
        <time>2025-08-23T12:39:54Z</time>
      </trkpt>
      <trkpt lat="42.77054" lon="0.33175">
        <ele>2082</ele>
        <time>2025-08-23T12:40:04Z</time>
      </trkpt>
      <trkpt lat="42.77046" lon="0.3318">
        <ele>2083</ele>
        <time>2025-08-23T12:40:16Z</time>
      </trkpt>
      <trkpt lat="42.77035" lon="0.3318">
        <ele>2081</ele>
        <time>2025-08-23T12:40:24Z</time>
      </trkpt>
      <trkpt lat="42.77025" lon="0.33179">
        <ele>2079</ele>
        <time>2025-08-23T12:40:34Z</time>
      </trkpt>
      <trkpt lat="42.77016" lon="0.33176">
        <ele>2076</ele>
        <time>2025-08-23T12:40:42Z</time>
      </trkpt>
      <trkpt lat="42.77007" lon="0.33174">
        <ele>2073</ele>
        <time>2025-08-23T12:40:48Z</time>
      </trkpt>
      <trkpt lat="42.76996" lon="0.33172">
        <ele>2073</ele>
        <time>2025-08-23T12:40:58Z</time>
      </trkpt>
      <trkpt lat="42.76987" lon="0.33172">
        <ele>2072</ele>
        <time>2025-08-23T12:41:07Z</time>
      </trkpt>
      <trkpt lat="42.76977" lon="0.33172">
        <ele>2071</ele>
        <time>2025-08-23T12:41:15Z</time>
      </trkpt>
      <trkpt lat="42.76967" lon="0.33173">
        <ele>2069</ele>
        <time>2025-08-23T12:41:25Z</time>
      </trkpt>
      <trkpt lat="42.7696" lon="0.33179">
        <ele>2068</ele>
        <time>2025-08-23T12:41:34Z</time>
      </trkpt>
      <trkpt lat="42.76952" lon="0.33185">
        <ele>2069</ele>
        <time>2025-08-23T12:41:42Z</time>
      </trkpt>
      <trkpt lat="42.76941" lon="0.33187">
        <ele>2070</ele>
        <time>2025-08-23T12:41:51Z</time>
      </trkpt>
      <trkpt lat="42.76932" lon="0.33188">
        <ele>2069</ele>
        <time>2025-08-23T12:42:00Z</time>
      </trkpt>
      <trkpt lat="42.76922" lon="0.33186">
        <ele>2069</ele>
        <time>2025-08-23T12:42:07Z</time>
      </trkpt>
      <trkpt lat="42.76914" lon="0.33181">
        <ele>2070</ele>
        <time>2025-08-23T12:42:18Z</time>
      </trkpt>
      <trkpt lat="42.76918" lon="0.33172">
        <ele>2067</ele>
        <time>2025-08-23T12:42:56Z</time>
      </trkpt>
      <trkpt lat="42.76923" lon="0.33163">
        <ele>2063</ele>
        <time>2025-08-23T12:43:10Z</time>
      </trkpt>
      <trkpt lat="42.76929" lon="0.33152">
        <ele>2060</ele>
        <time>2025-08-23T12:43:21Z</time>
      </trkpt>
      <trkpt lat="42.76934" lon="0.33143">
        <ele>2058</ele>
        <time>2025-08-23T12:43:29Z</time>
      </trkpt>
      <trkpt lat="42.76942" lon="0.33134">
        <ele>2061</ele>
        <time>2025-08-23T12:43:40Z</time>
      </trkpt>
      <trkpt lat="42.76949" lon="0.33127">
        <ele>2059</ele>
        <time>2025-08-23T12:43:50Z</time>
      </trkpt>
      <trkpt lat="42.76957" lon="0.33121">
        <ele>2056</ele>
        <time>2025-08-23T12:44:01Z</time>
      </trkpt>
      <trkpt lat="42.76967" lon="0.33117">
        <ele>2052</ele>
        <time>2025-08-23T12:44:17Z</time>
      </trkpt>
      <trkpt lat="42.76976" lon="0.33116">
        <ele>2050</ele>
        <time>2025-08-23T12:44:25Z</time>
      </trkpt>
      <trkpt lat="42.76983" lon="0.33111">
        <ele>2046</ele>
        <time>2025-08-23T12:44:33Z</time>
      </trkpt>
      <trkpt lat="42.76991" lon="0.33103">
        <ele>2044</ele>
        <time>2025-08-23T12:44:46Z</time>
      </trkpt>
      <trkpt lat="42.76999" lon="0.33095">
        <ele>2040</ele>
        <time>2025-08-23T12:44:56Z</time>
      </trkpt>
      <trkpt lat="42.77005" lon="0.33085">
        <ele>2037</ele>
        <time>2025-08-23T12:45:07Z</time>
      </trkpt>
      <trkpt lat="42.77012" lon="0.33076">
        <ele>2033</ele>
        <time>2025-08-23T12:45:18Z</time>
      </trkpt>
      <trkpt lat="42.77019" lon="0.33067">
        <ele>2029</ele>
        <time>2025-08-23T12:45:31Z</time>
      </trkpt>
      <trkpt lat="42.77028" lon="0.33064">
        <ele>2027</ele>
        <time>2025-08-23T12:45:41Z</time>
      </trkpt>
      <trkpt lat="42.77035" lon="0.33056">
        <ele>2024</ele>
        <time>2025-08-23T12:45:56Z</time>
      </trkpt>
      <trkpt lat="42.77042" lon="0.33048">
        <ele>2019</ele>
        <time>2025-08-23T12:46:10Z</time>
      </trkpt>
      <trkpt lat="42.77047" lon="0.33037">
        <ele>2017</ele>
        <time>2025-08-23T12:46:19Z</time>
      </trkpt>
      <trkpt lat="42.7705" lon="0.33025">
        <ele>2017</ele>
        <time>2025-08-23T12:46:31Z</time>
      </trkpt>
      <trkpt lat="42.77054" lon="0.33013">
        <ele>2016</ele>
        <time>2025-08-23T12:46:39Z</time>
      </trkpt>
      <trkpt lat="42.77059" lon="0.33">
        <ele>2012</ele>
        <time>2025-08-23T12:47:10Z</time>
      </trkpt>
      <trkpt lat="42.77065" lon="0.3299">
        <ele>2012</ele>
        <time>2025-08-23T12:47:16Z</time>
      </trkpt>
      <trkpt lat="42.77071" lon="0.32979">
        <ele>2011</ele>
        <time>2025-08-23T12:47:27Z</time>
      </trkpt>
      <trkpt lat="42.77078" lon="0.32969">
        <ele>2009</ele>
        <time>2025-08-23T12:47:39Z</time>
      </trkpt>
      <trkpt lat="42.77083" lon="0.3296">
        <ele>2006</ele>
        <time>2025-08-23T12:47:53Z</time>
      </trkpt>
      <trkpt lat="42.77089" lon="0.32949">
        <ele>2002</ele>
        <time>2025-08-23T12:48:04Z</time>
      </trkpt>
      <trkpt lat="42.77094" lon="0.32938">
        <ele>2000</ele>
        <time>2025-08-23T12:48:14Z</time>
      </trkpt>
      <trkpt lat="42.77098" lon="0.32926">
        <ele>1997</ele>
        <time>2025-08-23T12:48:27Z</time>
      </trkpt>
      <trkpt lat="42.77103" lon="0.32915">
        <ele>1992</ele>
        <time>2025-08-23T12:48:58Z</time>
      </trkpt>
      <trkpt lat="42.7711" lon="0.32905">
        <ele>1986</ele>
        <time>2025-08-23T12:49:08Z</time>
      </trkpt>
      <trkpt lat="42.77115" lon="0.32895">
        <ele>1981</ele>
        <time>2025-08-23T12:49:20Z</time>
      </trkpt>
      <trkpt lat="42.77124" lon="0.32893">
        <ele>1980</ele>
        <time>2025-08-23T12:49:42Z</time>
      </trkpt>
      <trkpt lat="42.77133" lon="0.32889">
        <ele>1977</ele>
        <time>2025-08-23T12:49:50Z</time>
      </trkpt>
      <trkpt lat="42.77141" lon="0.32882">
        <ele>1974</ele>
        <time>2025-08-23T12:50:03Z</time>
      </trkpt>
      <trkpt lat="42.7715" lon="0.3288">
        <ele>1972</ele>
        <time>2025-08-23T12:50:15Z</time>
      </trkpt>
      <trkpt lat="42.7716" lon="0.3288">
        <ele>1970</ele>
        <time>2025-08-23T12:50:23Z</time>
      </trkpt>
      <trkpt lat="42.7717" lon="0.32879">
        <ele>1967</ele>
        <time>2025-08-23T12:50:37Z</time>
      </trkpt>
      <trkpt lat="42.77179" lon="0.32876">
        <ele>1965</ele>
        <time>2025-08-23T12:50:48Z</time>
      </trkpt>
      <trkpt lat="42.77189" lon="0.32872">
        <ele>1964</ele>
        <time>2025-08-23T12:50:59Z</time>
      </trkpt>
      <trkpt lat="42.77199" lon="0.32871">
        <ele>1962</ele>
        <time>2025-08-23T12:51:09Z</time>
      </trkpt>
      <trkpt lat="42.77209" lon="0.32867">
        <ele>1959</ele>
        <time>2025-08-23T12:51:20Z</time>
      </trkpt>
      <trkpt lat="42.77217" lon="0.3286">
        <ele>1957</ele>
        <time>2025-08-23T12:51:30Z</time>
      </trkpt>
      <trkpt lat="42.77223" lon="0.3285">
        <ele>1956</ele>
        <time>2025-08-23T12:51:40Z</time>
      </trkpt>
      <trkpt lat="42.77229" lon="0.32839">
        <ele>1955</ele>
        <time>2025-08-23T12:51:50Z</time>
      </trkpt>
      <trkpt lat="42.77235" lon="0.32829">
        <ele>1953</ele>
        <time>2025-08-23T12:52:01Z</time>
      </trkpt>
      <trkpt lat="42.77242" lon="0.32818">
        <ele>1950</ele>
        <time>2025-08-23T12:52:11Z</time>
      </trkpt>
      <trkpt lat="42.77246" lon="0.32808">
        <ele>1949</ele>
        <time>2025-08-23T12:52:20Z</time>
      </trkpt>
      <trkpt lat="42.77251" lon="0.32796">
        <ele>1946</ele>
        <time>2025-08-23T12:52:28Z</time>
      </trkpt>
      <trkpt lat="42.77256" lon="0.32786">
        <ele>1944</ele>
        <time>2025-08-23T12:52:36Z</time>
      </trkpt>
      <trkpt lat="42.77262" lon="0.32776">
        <ele>1943</ele>
        <time>2025-08-23T12:52:46Z</time>
      </trkpt>
      <trkpt lat="42.7727" lon="0.32768">
        <ele>1941</ele>
        <time>2025-08-23T12:52:56Z</time>
      </trkpt>
      <trkpt lat="42.77279" lon="0.32762">
        <ele>1940</ele>
        <time>2025-08-23T12:53:05Z</time>
      </trkpt>
      <trkpt lat="42.77287" lon="0.32756">
        <ele>1939</ele>
        <time>2025-08-23T12:53:13Z</time>
      </trkpt>
      <trkpt lat="42.77295" lon="0.32751">
        <ele>1938</ele>
        <time>2025-08-23T12:53:24Z</time>
      </trkpt>
      <trkpt lat="42.77303" lon="0.32743">
        <ele>1937</ele>
        <time>2025-08-23T12:53:34Z</time>
      </trkpt>
      <trkpt lat="42.77312" lon="0.32739">
        <ele>1936</ele>
        <time>2025-08-23T12:53:43Z</time>
      </trkpt>
      <trkpt lat="42.7732" lon="0.3274">
        <ele>1934</ele>
        <time>2025-08-23T12:54:04Z</time>
      </trkpt>
      <trkpt lat="42.77326" lon="0.32732">
        <ele>1928</ele>
        <time>2025-08-23T12:55:15Z</time>
      </trkpt>
      <trkpt lat="42.77333" lon="0.32726">
        <ele>1926</ele>
        <time>2025-08-23T12:55:37Z</time>
      </trkpt>
      <trkpt lat="42.77338" lon="0.32716">
        <ele>1922</ele>
        <time>2025-08-23T12:56:08Z</time>
      </trkpt>
      <trkpt lat="42.77345" lon="0.32708">
        <ele>1917</ele>
        <time>2025-08-23T12:56:26Z</time>
      </trkpt>
      <trkpt lat="42.77352" lon="0.32698">
        <ele>1912</ele>
        <time>2025-08-23T12:56:41Z</time>
      </trkpt>
      <trkpt lat="42.77359" lon="0.32689">
        <ele>1911</ele>
        <time>2025-08-23T12:56:54Z</time>
      </trkpt>
      <trkpt lat="42.77366" lon="0.3268">
        <ele>1908</ele>
        <time>2025-08-23T12:57:05Z</time>
      </trkpt>
      <trkpt lat="42.77372" lon="0.32672">
        <ele>1906</ele>
        <time>2025-08-23T12:57:19Z</time>
      </trkpt>
      <trkpt lat="42.77376" lon="0.32662">
        <ele>1903</ele>
        <time>2025-08-23T12:57:30Z</time>
      </trkpt>
      <trkpt lat="42.77372" lon="0.32654">
        <ele>1900</ele>
        <time>2025-08-23T12:57:52Z</time>
      </trkpt>
      <trkpt lat="42.77369" lon="0.32642">
        <ele>1892</ele>
        <time>2025-08-23T12:58:11Z</time>
      </trkpt>
      <trkpt lat="42.7737" lon="0.3263">
        <ele>1887</ele>
        <time>2025-08-23T12:58:23Z</time>
      </trkpt>
      <trkpt lat="42.77374" lon="0.32619">
        <ele>1886</ele>
        <time>2025-08-23T12:58:43Z</time>
      </trkpt>
      <trkpt lat="42.77378" lon="0.32609">
        <ele>1882</ele>
        <time>2025-08-23T12:58:54Z</time>
      </trkpt>
      <trkpt lat="42.77382" lon="0.32598">
        <ele>1879</ele>
        <time>2025-08-23T12:59:08Z</time>
      </trkpt>
      <trkpt lat="42.77385" lon="0.32585">
        <ele>1876</ele>
        <time>2025-08-23T12:59:20Z</time>
      </trkpt>
      <trkpt lat="42.77389" lon="0.32571">
        <ele>1872</ele>
        <time>2025-08-23T12:59:33Z</time>
      </trkpt>
      <trkpt lat="42.77394" lon="0.3256">
        <ele>1869</ele>
        <time>2025-08-23T12:59:43Z</time>
      </trkpt>
      <trkpt lat="42.77398" lon="0.32549">
        <ele>1867</ele>
        <time>2025-08-23T13:00:00Z</time>
      </trkpt>
      <trkpt lat="42.77401" lon="0.32538">
        <ele>1862</ele>
        <time>2025-08-23T13:00:12Z</time>
      </trkpt>
      <trkpt lat="42.77395" lon="0.32531">
        <ele>1857</ele>
        <time>2025-08-23T13:00:32Z</time>
      </trkpt>
      <trkpt lat="42.77387" lon="0.32525">
        <ele>1852</ele>
        <time>2025-08-23T13:00:48Z</time>
      </trkpt>
      <trkpt lat="42.7738" lon="0.32516">
        <ele>1849</ele>
        <time>2025-08-23T13:01:06Z</time>
      </trkpt>
      <trkpt lat="42.77375" lon="0.32506">
        <ele>1846</ele>
        <time>2025-08-23T13:01:24Z</time>
      </trkpt>
      <trkpt lat="42.7737" lon="0.32496">
        <ele>1841</ele>
        <time>2025-08-23T13:01:42Z</time>
      </trkpt>
      <trkpt lat="42.77372" lon="0.32483">
        <ele>1836</ele>
        <time>2025-08-23T13:01:54Z</time>
      </trkpt>
      <trkpt lat="42.7737" lon="0.32471">
        <ele>1832</ele>
        <time>2025-08-23T13:02:10Z</time>
      </trkpt>
      <trkpt lat="42.77367" lon="0.3246">
        <ele>1827</ele>
        <time>2025-08-23T13:02:27Z</time>
      </trkpt>
      <trkpt lat="42.7737" lon="0.32448">
        <ele>1823</ele>
        <time>2025-08-23T13:02:44Z</time>
      </trkpt>
      <trkpt lat="42.77372" lon="0.32436">
        <ele>1820</ele>
        <time>2025-08-23T13:03:00Z</time>
      </trkpt>
      <trkpt lat="42.77374" lon="0.32422">
        <ele>1816</ele>
        <time>2025-08-23T13:03:14Z</time>
      </trkpt>
      <trkpt lat="42.77376" lon="0.3241">
        <ele>1812</ele>
        <time>2025-08-23T13:03:28Z</time>
      </trkpt>
      <trkpt lat="42.77377" lon="0.32399">
        <ele>1810</ele>
        <time>2025-08-23T13:03:39Z</time>
      </trkpt>
      <trkpt lat="42.77375" lon="0.32388">
        <ele>1805</ele>
        <time>2025-08-23T13:03:50Z</time>
      </trkpt>
      <trkpt lat="42.77376" lon="0.32375">
        <ele>1802</ele>
        <time>2025-08-23T13:04:05Z</time>
      </trkpt>
      <trkpt lat="42.7738" lon="0.32364">
        <ele>1801</ele>
        <time>2025-08-23T13:04:16Z</time>
      </trkpt>
      <trkpt lat="42.77384" lon="0.32353">
        <ele>1798</ele>
        <time>2025-08-23T13:04:27Z</time>
      </trkpt>
      <trkpt lat="42.77388" lon="0.32341">
        <ele>1794</ele>
        <time>2025-08-23T13:04:41Z</time>
      </trkpt>
      <trkpt lat="42.77395" lon="0.3233">
        <ele>1791</ele>
        <time>2025-08-23T13:04:56Z</time>
      </trkpt>
      <trkpt lat="42.774" lon="0.3232">
        <ele>1786</ele>
        <time>2025-08-23T13:05:07Z</time>
      </trkpt>
      <trkpt lat="42.77406" lon="0.3231">
        <ele>1784</ele>
        <time>2025-08-23T13:05:20Z</time>
      </trkpt>
      <trkpt lat="42.77412" lon="0.323">
        <ele>1781</ele>
        <time>2025-08-23T13:05:32Z</time>
      </trkpt>
      <trkpt lat="42.77416" lon="0.32288">
        <ele>1776</ele>
        <time>2025-08-23T13:05:47Z</time>
      </trkpt>
      <trkpt lat="42.77419" lon="0.32276">
        <ele>1774</ele>
        <time>2025-08-23T13:06:03Z</time>
      </trkpt>
      <trkpt lat="42.77423" lon="0.32264">
        <ele>1771</ele>
        <time>2025-08-23T13:06:21Z</time>
      </trkpt>
      <trkpt lat="42.77427" lon="0.32253">
        <ele>1767</ele>
        <time>2025-08-23T13:06:35Z</time>
      </trkpt>
      <trkpt lat="42.77428" lon="0.32241">
        <ele>1762</ele>
        <time>2025-08-23T13:06:53Z</time>
      </trkpt>
      <trkpt lat="42.7743" lon="0.32228">
        <ele>1759</ele>
        <time>2025-08-23T13:07:08Z</time>
      </trkpt>
      <trkpt lat="42.7743" lon="0.32215">
        <ele>1750</ele>
        <time>2025-08-23T13:07:23Z</time>
      </trkpt>
      <trkpt lat="42.77432" lon="0.32203">
        <ele>1748</ele>
        <time>2025-08-23T13:07:36Z</time>
      </trkpt>
      <trkpt lat="42.77435" lon="0.32191">
        <ele>1744</ele>
        <time>2025-08-23T13:07:48Z</time>
      </trkpt>
      <trkpt lat="42.7744" lon="0.32181">
        <ele>1741</ele>
        <time>2025-08-23T13:07:58Z</time>
      </trkpt>
      <trkpt lat="42.77448" lon="0.32175">
        <ele>1738</ele>
        <time>2025-08-23T13:08:14Z</time>
      </trkpt>
      <trkpt lat="42.77454" lon="0.32167">
        <ele>1737</ele>
        <time>2025-08-23T13:08:33Z</time>
      </trkpt>
      <trkpt lat="42.77456" lon="0.32153">
        <ele>1729</ele>
        <time>2025-08-23T13:09:26Z</time>
      </trkpt>
      <trkpt lat="42.77457" lon="0.32141">
        <ele>1725</ele>
        <time>2025-08-23T13:09:44Z</time>
      </trkpt>
      <trkpt lat="42.77461" lon="0.32129">
        <ele>1721</ele>
        <time>2025-08-23T13:10:02Z</time>
      </trkpt>
      <trkpt lat="42.77465" lon="0.32118">
        <ele>1718</ele>
        <time>2025-08-23T13:10:20Z</time>
      </trkpt>
      <trkpt lat="42.77466" lon="0.32106">
        <ele>1715</ele>
        <time>2025-08-23T13:10:32Z</time>
      </trkpt>
      <trkpt lat="42.77465" lon="0.32096">
        <ele>1713</ele>
        <time>2025-08-23T13:11:03Z</time>
      </trkpt>
      <trkpt lat="42.77471" lon="0.32089">
        <ele>1711</ele>
        <time>2025-08-23T13:11:58Z</time>
      </trkpt>
      <trkpt lat="42.77476" lon="0.32078">
        <ele>1705</ele>
        <time>2025-08-23T13:12:25Z</time>
      </trkpt>
      <trkpt lat="42.77475" lon="0.32065">
        <ele>1703</ele>
        <time>2025-08-23T13:12:40Z</time>
      </trkpt>
      <trkpt lat="42.77475" lon="0.32052">
        <ele>1701</ele>
        <time>2025-08-23T13:12:50Z</time>
      </trkpt>
      <trkpt lat="42.77475" lon="0.32039">
        <ele>1697</ele>
        <time>2025-08-23T13:12:59Z</time>
      </trkpt>
      <trkpt lat="42.77474" lon="0.32025">
        <ele>1696</ele>
        <time>2025-08-23T13:14:19Z</time>
      </trkpt>
      <trkpt lat="42.77475" lon="0.32011">
        <ele>1692</ele>
        <time>2025-08-23T13:14:40Z</time>
      </trkpt>
      <trkpt lat="42.77477" lon="0.31999">
        <ele>1690</ele>
        <time>2025-08-23T13:15:19Z</time>
      </trkpt>
      <trkpt lat="42.77479" lon="0.31985">
        <ele>1686</ele>
        <time>2025-08-23T13:15:53Z</time>
      </trkpt>
      <trkpt lat="42.7748" lon="0.31973">
        <ele>1681</ele>
        <time>2025-08-23T13:16:03Z</time>
      </trkpt>
      <trkpt lat="42.77484" lon="0.31963">
        <ele>1678</ele>
        <time>2025-08-23T13:16:16Z</time>
      </trkpt>
      <trkpt lat="42.77483" lon="0.31952">
        <ele>1675</ele>
        <time>2025-08-23T13:16:30Z</time>
      </trkpt>
      <trkpt lat="42.77484" lon="0.3194">
        <ele>1671</ele>
        <time>2025-08-23T13:16:44Z</time>
      </trkpt>
      <trkpt lat="42.77487" lon="0.31928">
        <ele>1667</ele>
        <time>2025-08-23T13:16:55Z</time>
      </trkpt>
      <trkpt lat="42.77486" lon="0.31916">
        <ele>1665</ele>
        <time>2025-08-23T13:17:07Z</time>
      </trkpt>
      <trkpt lat="42.77487" lon="0.31904">
        <ele>1661</ele>
        <time>2025-08-23T13:17:18Z</time>
      </trkpt>
      <trkpt lat="42.77488" lon="0.31892">
        <ele>1659</ele>
        <time>2025-08-23T13:17:28Z</time>
      </trkpt>
      <trkpt lat="42.77489" lon="0.3188">
        <ele>1657</ele>
        <time>2025-08-23T13:17:38Z</time>
      </trkpt>
      <trkpt lat="42.7749" lon="0.31867">
        <ele>1654</ele>
        <time>2025-08-23T13:17:53Z</time>
      </trkpt>
      <trkpt lat="42.77492" lon="0.31854">
        <ele>1652</ele>
        <time>2025-08-23T13:18:07Z</time>
      </trkpt>
      <trkpt lat="42.77495" lon="0.31842">
        <ele>1648</ele>
        <time>2025-08-23T13:18:20Z</time>
      </trkpt>
      <trkpt lat="42.77499" lon="0.31832">
        <ele>1644</ele>
        <time>2025-08-23T13:18:34Z</time>
      </trkpt>
      <trkpt lat="42.77504" lon="0.31821">
        <ele>1643</ele>
        <time>2025-08-23T13:18:47Z</time>
      </trkpt>
      <trkpt lat="42.77508" lon="0.31809">
        <ele>1640</ele>
        <time>2025-08-23T13:19:00Z</time>
      </trkpt>
      <trkpt lat="42.77512" lon="0.31797">
        <ele>1639</ele>
        <time>2025-08-23T13:19:12Z</time>
      </trkpt>
      <trkpt lat="42.77514" lon="0.31785">
        <ele>1639</ele>
        <time>2025-08-23T13:19:23Z</time>
      </trkpt>
      <trkpt lat="42.77516" lon="0.31773">
        <ele>1637</ele>
        <time>2025-08-23T13:19:32Z</time>
      </trkpt>
      <trkpt lat="42.77519" lon="0.31761">
        <ele>1635</ele>
        <time>2025-08-23T13:19:40Z</time>
      </trkpt>
      <trkpt lat="42.77523" lon="0.3175">
        <ele>1632</ele>
        <time>2025-08-23T13:19:52Z</time>
      </trkpt>
      <trkpt lat="42.77527" lon="0.31739">
        <ele>1629</ele>
        <time>2025-08-23T13:20:09Z</time>
      </trkpt>
      <trkpt lat="42.77529" lon="0.31727">
        <ele>1626</ele>
        <time>2025-08-23T13:20:23Z</time>
      </trkpt>
      <trkpt lat="42.7753" lon="0.31715">
        <ele>1624</ele>
        <time>2025-08-23T13:20:33Z</time>
      </trkpt>
      <trkpt lat="42.77532" lon="0.31703">
        <ele>1620</ele>
        <time>2025-08-23T13:20:48Z</time>
      </trkpt>
      <trkpt lat="42.77531" lon="0.31689">
        <ele>1617</ele>
        <time>2025-08-23T13:21:08Z</time>
      </trkpt>
      <trkpt lat="42.77533" lon="0.31676">
        <ele>1613</ele>
        <time>2025-08-23T13:21:18Z</time>
      </trkpt>
      <trkpt lat="42.77536" lon="0.31664">
        <ele>1610</ele>
        <time>2025-08-23T13:21:31Z</time>
      </trkpt>
      <trkpt lat="42.77543" lon="0.31661">
        <ele>1607</ele>
        <time>2025-08-23T13:21:49Z</time>
      </trkpt>
      <trkpt lat="42.7755" lon="0.31655">
        <ele>1604</ele>
        <time>2025-08-23T13:22:05Z</time>
      </trkpt>
      <trkpt lat="42.77557" lon="0.31661">
        <ele>1601</ele>
        <time>2025-08-23T13:22:28Z</time>
      </trkpt>
      <trkpt lat="42.77563" lon="0.31671">
        <ele>1599</ele>
        <time>2025-08-23T13:22:38Z</time>
      </trkpt>
      <trkpt lat="42.7757" lon="0.31681">
        <ele>1596</ele>
        <time>2025-08-23T13:22:50Z</time>
      </trkpt>
      <trkpt lat="42.77574" lon="0.31691">
        <ele>1598</ele>
        <time>2025-08-23T13:23:00Z</time>
      </trkpt>
      <trkpt lat="42.7758" lon="0.31697">
        <ele>1597</ele>
        <time>2025-08-23T13:23:16Z</time>
      </trkpt>
      <trkpt lat="42.77585" lon="0.31689">
        <ele>1595</ele>
        <time>2025-08-23T13:23:37Z</time>
      </trkpt>
      <trkpt lat="42.77588" lon="0.31679">
        <ele>1592</ele>
        <time>2025-08-23T13:23:45Z</time>
      </trkpt>
      <trkpt lat="42.77595" lon="0.31673">
        <ele>1590</ele>
        <time>2025-08-23T13:23:54Z</time>
      </trkpt>
      <trkpt lat="42.776" lon="0.31664">
        <ele>1587</ele>
        <time>2025-08-23T13:24:06Z</time>
      </trkpt>
      <trkpt lat="42.77604" lon="0.31653">
        <ele>1585</ele>
        <time>2025-08-23T13:24:18Z</time>
      </trkpt>
      <trkpt lat="42.77607" lon="0.31641">
        <ele>1581</ele>
        <time>2025-08-23T13:24:33Z</time>
      </trkpt>
      <trkpt lat="42.77611" lon="0.31629">
        <ele>1579</ele>
        <time>2025-08-23T13:24:41Z</time>
      </trkpt>
      <trkpt lat="42.77617" lon="0.3162">
        <ele>1576</ele>
        <time>2025-08-23T13:24:49Z</time>
      </trkpt>
      <trkpt lat="42.77625" lon="0.31613">
        <ele>1574</ele>
        <time>2025-08-23T13:25:02Z</time>
      </trkpt>
      <trkpt lat="42.7763" lon="0.31603">
        <ele>1572</ele>
        <time>2025-08-23T13:25:13Z</time>
      </trkpt>
      <trkpt lat="42.77632" lon="0.31591">
        <ele>1569</ele>
        <time>2025-08-23T13:25:26Z</time>
      </trkpt>
      <trkpt lat="42.77633" lon="0.31579">
        <ele>1566</ele>
        <time>2025-08-23T13:25:37Z</time>
      </trkpt>
      <trkpt lat="42.77633" lon="0.31567">
        <ele>1563</ele>
        <time>2025-08-23T13:25:52Z</time>
      </trkpt>
      <trkpt lat="42.77633" lon="0.31553">
        <ele>1561</ele>
        <time>2025-08-23T13:26:07Z</time>
      </trkpt>
      <trkpt lat="42.77632" lon="0.31541">
        <ele>1558</ele>
        <time>2025-08-23T13:26:21Z</time>
      </trkpt>
      <trkpt lat="42.77633" lon="0.31528">
        <ele>1555</ele>
        <time>2025-08-23T13:26:34Z</time>
      </trkpt>
      <trkpt lat="42.77632" lon="0.31515">
        <ele>1553</ele>
        <time>2025-08-23T13:26:44Z</time>
      </trkpt>
      <trkpt lat="42.77634" lon="0.31503">
        <ele>1550</ele>
        <time>2025-08-23T13:26:57Z</time>
      </trkpt>
      <trkpt lat="42.77636" lon="0.31491">
        <ele>1548</ele>
        <time>2025-08-23T13:27:09Z</time>
      </trkpt>
      <trkpt lat="42.77638" lon="0.3148">
        <ele>1546</ele>
        <time>2025-08-23T13:27:19Z</time>
      </trkpt>
      <trkpt lat="42.7764" lon="0.31469">
        <ele>1544</ele>
        <time>2025-08-23T13:27:31Z</time>
      </trkpt>
      <trkpt lat="42.77644" lon="0.31456">
        <ele>1542</ele>
        <time>2025-08-23T13:27:43Z</time>
      </trkpt>
      <trkpt lat="42.77649" lon="0.31445">
        <ele>1539</ele>
        <time>2025-08-23T13:27:56Z</time>
      </trkpt>
      <trkpt lat="42.77654" lon="0.31434">
        <ele>1534</ele>
        <time>2025-08-23T13:28:10Z</time>
      </trkpt>
      <trkpt lat="42.77654" lon="0.31422">
        <ele>1533</ele>
        <time>2025-08-23T13:28:26Z</time>
      </trkpt>
      <trkpt lat="42.77649" lon="0.31412">
        <ele>1535</ele>
        <time>2025-08-23T13:28:41Z</time>
      </trkpt>
      <trkpt lat="42.77647" lon="0.314">
        <ele>1535</ele>
        <time>2025-08-23T13:28:51Z</time>
      </trkpt>
      <trkpt lat="42.77647" lon="0.31387">
        <ele>1535</ele>
        <time>2025-08-23T13:28:59Z</time>
      </trkpt>
      <trkpt lat="42.77647" lon="0.31373">
        <ele>1535</ele>
        <time>2025-08-23T13:29:10Z</time>
      </trkpt>
      <trkpt lat="42.77649" lon="0.3136">
        <ele>1535</ele>
        <time>2025-08-23T13:29:21Z</time>
      </trkpt>
      <trkpt lat="42.77653" lon="0.31347">
        <ele>1534</ele>
        <time>2025-08-23T13:29:31Z</time>
      </trkpt>
      <trkpt lat="42.77658" lon="0.31337">
        <ele>1531</ele>
        <time>2025-08-23T13:29:39Z</time>
      </trkpt>
      <trkpt lat="42.77663" lon="0.31327">
        <ele>1529</ele>
        <time>2025-08-23T13:29:50Z</time>
      </trkpt>
      <trkpt lat="42.77668" lon="0.31314">
        <ele>1527</ele>
        <time>2025-08-23T13:30:00Z</time>
      </trkpt>
      <trkpt lat="42.77672" lon="0.31302">
        <ele>1526</ele>
        <time>2025-08-23T13:30:13Z</time>
      </trkpt>
      <trkpt lat="42.77678" lon="0.31292">
        <ele>1523</ele>
        <time>2025-08-23T13:30:26Z</time>
      </trkpt>
      <trkpt lat="42.77681" lon="0.31281">
        <ele>1520</ele>
        <time>2025-08-23T13:30:37Z</time>
      </trkpt>
      <trkpt lat="42.77685" lon="0.3127">
        <ele>1515</ele>
        <time>2025-08-23T13:30:48Z</time>
      </trkpt>
      <trkpt lat="42.7769" lon="0.3126">
        <ele>1512</ele>
        <time>2025-08-23T13:30:59Z</time>
      </trkpt>
      <trkpt lat="42.77692" lon="0.31249">
        <ele>1510</ele>
        <time>2025-08-23T13:31:11Z</time>
      </trkpt>
      <trkpt lat="42.77697" lon="0.31239">
        <ele>1508</ele>
        <time>2025-08-23T13:31:22Z</time>
      </trkpt>
      <trkpt lat="42.77705" lon="0.31234">
        <ele>1505</ele>
        <time>2025-08-23T13:31:35Z</time>
      </trkpt>
      <trkpt lat="42.77714" lon="0.31233">
        <ele>1503</ele>
        <time>2025-08-23T13:31:47Z</time>
      </trkpt>
      <trkpt lat="42.77722" lon="0.31227">
        <ele>1501</ele>
        <time>2025-08-23T13:32:02Z</time>
      </trkpt>
      <trkpt lat="42.77731" lon="0.31218">
        <ele>1499</ele>
        <time>2025-08-23T13:32:12Z</time>
      </trkpt>
      <trkpt lat="42.77738" lon="0.31208">
        <ele>1496</ele>
        <time>2025-08-23T13:32:21Z</time>
      </trkpt>
      <trkpt lat="42.77742" lon="0.31198">
        <ele>1494</ele>
        <time>2025-08-23T13:32:30Z</time>
      </trkpt>
      <trkpt lat="42.77747" lon="0.31188">
        <ele>1493</ele>
        <time>2025-08-23T13:32:38Z</time>
      </trkpt>
      <trkpt lat="42.77752" lon="0.31176">
        <ele>1491</ele>
        <time>2025-08-23T13:32:49Z</time>
      </trkpt>
      <trkpt lat="42.77755" lon="0.31165">
        <ele>1490</ele>
        <time>2025-08-23T13:32:58Z</time>
      </trkpt>
      <trkpt lat="42.77761" lon="0.31157">
        <ele>1489</ele>
        <time>2025-08-23T13:33:06Z</time>
      </trkpt>
      <trkpt lat="42.77766" lon="0.31146">
        <ele>1488</ele>
        <time>2025-08-23T13:33:17Z</time>
      </trkpt>
      <trkpt lat="42.77772" lon="0.31137">
        <ele>1486</ele>
        <time>2025-08-23T13:33:27Z</time>
      </trkpt>
      <trkpt lat="42.77779" lon="0.3113">
        <ele>1485</ele>
        <time>2025-08-23T13:33:36Z</time>
      </trkpt>
      <trkpt lat="42.77786" lon="0.31123">
        <ele>1483</ele>
        <time>2025-08-23T13:33:45Z</time>
      </trkpt>
      <trkpt lat="42.77794" lon="0.31115">
        <ele>1482</ele>
        <time>2025-08-23T13:33:55Z</time>
      </trkpt>
      <trkpt lat="42.77801" lon="0.31108">
        <ele>1480</ele>
        <time>2025-08-23T13:34:10Z</time>
      </trkpt>
      <trkpt lat="42.77808" lon="0.31101">
        <ele>1479</ele>
        <time>2025-08-23T13:34:20Z</time>
      </trkpt>
      <trkpt lat="42.77817" lon="0.31096">
        <ele>1476</ele>
        <time>2025-08-23T13:34:32Z</time>
      </trkpt>
      <trkpt lat="42.77826" lon="0.31097">
        <ele>1473</ele>
        <time>2025-08-23T13:34:42Z</time>
      </trkpt>
      <trkpt lat="42.77834" lon="0.3109">
        <ele>1472</ele>
        <time>2025-08-23T13:34:51Z</time>
      </trkpt>
      <trkpt lat="42.77843" lon="0.31086">
        <ele>1469</ele>
        <time>2025-08-23T13:35:03Z</time>
      </trkpt>
      <trkpt lat="42.77851" lon="0.31086">
        <ele>1465</ele>
        <time>2025-08-23T13:35:17Z</time>
      </trkpt>
      <trkpt lat="42.77858" lon="0.31094">
        <ele>1464</ele>
        <time>2025-08-23T13:35:26Z</time>
      </trkpt>
      <trkpt lat="42.77864" lon="0.31102">
        <ele>1463</ele>
        <time>2025-08-23T13:35:34Z</time>
      </trkpt>
      <trkpt lat="42.77864" lon="0.31114">
        <ele>1461</ele>
        <time>2025-08-23T13:35:50Z</time>
      </trkpt>
      <trkpt lat="42.77868" lon="0.31125">
        <ele>1457</ele>
        <time>2025-08-23T13:36:05Z</time>
      </trkpt>
      <trkpt lat="42.7787" lon="0.31136">
        <ele>1454</ele>
        <time>2025-08-23T13:36:15Z</time>
      </trkpt>
      <trkpt lat="42.77866" lon="0.31146">
        <ele>1451</ele>
        <time>2025-08-23T13:36:23Z</time>
      </trkpt>
      <trkpt lat="42.77867" lon="0.31159">
        <ele>1450</ele>
        <time>2025-08-23T13:36:37Z</time>
      </trkpt>
      <trkpt lat="42.77872" lon="0.31167">
        <ele>1446</ele>
        <time>2025-08-23T13:37:00Z</time>
      </trkpt>
      <trkpt lat="42.77879" lon="0.31172">
        <ele>1444</ele>
        <time>2025-08-23T13:37:11Z</time>
      </trkpt>
      <trkpt lat="42.7788" lon="0.31162">
        <ele>1444</ele>
        <time>2025-08-23T13:37:34Z</time>
      </trkpt>
      <trkpt lat="42.77886" lon="0.31154">
        <ele>1440</ele>
        <time>2025-08-23T13:37:47Z</time>
      </trkpt>
      <trkpt lat="42.77894" lon="0.31147">
        <ele>1437</ele>
        <time>2025-08-23T13:37:54Z</time>
      </trkpt>
      <trkpt lat="42.77902" lon="0.31137">
        <ele>1434</ele>
        <time>2025-08-23T13:38:30Z</time>
      </trkpt>
      <trkpt lat="42.77908" lon="0.31128">
        <ele>1429</ele>
        <time>2025-08-23T13:38:38Z</time>
      </trkpt>
      <trkpt lat="42.77916" lon="0.31121">
        <ele>1422</ele>
        <time>2025-08-23T13:38:52Z</time>
      </trkpt>
      <trkpt lat="42.77925" lon="0.31118">
        <ele>1418</ele>
        <time>2025-08-23T13:39:06Z</time>
      </trkpt>
      <trkpt lat="42.77933" lon="0.31119">
        <ele>1415</ele>
        <time>2025-08-23T13:39:30Z</time>
      </trkpt>
      <trkpt lat="42.7794" lon="0.31125">
        <ele>1412</ele>
        <time>2025-08-23T13:39:50Z</time>
      </trkpt>
      <trkpt lat="42.77945" lon="0.31117">
        <ele>1408</ele>
        <time>2025-08-23T13:40:16Z</time>
      </trkpt>
      <trkpt lat="42.77947" lon="0.31105">
        <ele>1407</ele>
        <time>2025-08-23T13:40:28Z</time>
      </trkpt>
      <trkpt lat="42.77953" lon="0.31098">
        <ele>1405</ele>
        <time>2025-08-23T13:40:36Z</time>
      </trkpt>
      <trkpt lat="42.77962" lon="0.31094">
        <ele>1402</ele>
        <time>2025-08-23T13:40:46Z</time>
      </trkpt>
      <trkpt lat="42.77971" lon="0.31091">
        <ele>1396</ele>
        <time>2025-08-23T13:40:54Z</time>
      </trkpt>
      <trkpt lat="42.77977" lon="0.31082">
        <ele>1394</ele>
        <time>2025-08-23T13:41:16Z</time>
      </trkpt>
      <trkpt lat="42.77985" lon="0.31077">
        <ele>1390</ele>
        <time>2025-08-23T13:41:30Z</time>
      </trkpt>
      <trkpt lat="42.77994" lon="0.3108">
        <ele>1385</ele>
        <time>2025-08-23T13:41:46Z</time>
      </trkpt>
      <trkpt lat="42.78" lon="0.31089">
        <ele>1379</ele>
        <time>2025-08-23T13:42:06Z</time>
      </trkpt>
      <trkpt lat="42.78003" lon="0.311">
        <ele>1375</ele>
        <time>2025-08-23T13:42:18Z</time>
      </trkpt>
      <trkpt lat="42.78001" lon="0.31112">
        <ele>1372</ele>
        <time>2025-08-23T13:42:29Z</time>
      </trkpt>
      <trkpt lat="42.77998" lon="0.31125">
        <ele>1373</ele>
        <time>2025-08-23T13:42:40Z</time>
      </trkpt>
      <trkpt lat="42.77995" lon="0.31137">
        <ele>1372</ele>
        <time>2025-08-23T13:42:49Z</time>
      </trkpt>
      <trkpt lat="42.77993" lon="0.3115">
        <ele>1370</ele>
        <time>2025-08-23T13:42:55Z</time>
      </trkpt>
      <trkpt lat="42.77992" lon="0.31163">
        <ele>1370</ele>
        <time>2025-08-23T13:43:03Z</time>
      </trkpt>
      <trkpt lat="42.77995" lon="0.31174">
        <ele>1366</ele>
        <time>2025-08-23T13:43:25Z</time>
      </trkpt>
      <trkpt lat="42.78004" lon="0.31179">
        <ele>1365</ele>
        <time>2025-08-23T13:43:33Z</time>
      </trkpt>
      <trkpt lat="42.78013" lon="0.31181">
        <ele>1365</ele>
        <time>2025-08-23T13:43:48Z</time>
      </trkpt>
      <trkpt lat="42.78022" lon="0.31178">
        <ele>1361</ele>
        <time>2025-08-23T13:44:02Z</time>
      </trkpt>
      <trkpt lat="42.78031" lon="0.31177">
        <ele>1360</ele>
        <time>2025-08-23T13:44:20Z</time>
      </trkpt>
      <trkpt lat="42.7804" lon="0.31173">
        <ele>1355</ele>
        <time>2025-08-23T13:44:42Z</time>
      </trkpt>
      <trkpt lat="42.78058" lon="0.31159">
        <ele>1347</ele>
        <time>2025-08-23T13:45:33Z</time>
      </trkpt>
      <trkpt lat="42.78095" lon="0.31104">
        <ele>1318</ele>
        <time>2025-08-23T13:45:53Z</time>
      </trkpt>
      <trkpt lat="42.78063" lon="0.31145">
        <ele>1338</ele>
        <time>2025-08-23T13:46:08Z</time>
      </trkpt>
      <trkpt lat="42.78057" lon="0.31142">
        <ele>1337</ele>
        <time>2025-08-23T13:46:11Z</time>
      </trkpt>
      <trkpt lat="42.78059" lon="0.31128">
        <ele>1331</ele>
        <time>2025-08-23T13:46:23Z</time>
      </trkpt>
      <trkpt lat="42.78062" lon="0.31118">
        <ele>1326</ele>
        <time>2025-08-23T13:46:32Z</time>
      </trkpt>
      <trkpt lat="42.78071" lon="0.31118">
        <ele>1323</ele>
        <time>2025-08-23T13:46:39Z</time>
      </trkpt>
      <trkpt lat="42.7808" lon="0.31116">
        <ele>1324</ele>
        <time>2025-08-23T13:46:50Z</time>
      </trkpt>
      <trkpt lat="42.78089" lon="0.31117">
        <ele>1325</ele>
        <time>2025-08-23T13:47:06Z</time>
      </trkpt>
      <trkpt lat="42.78097" lon="0.31118">
        <ele>1329</ele>
        <time>2025-08-23T13:47:17Z</time>
      </trkpt>
      <trkpt lat="42.78104" lon="0.31125">
        <ele>1334</ele>
        <time>2025-08-23T13:47:35Z</time>
      </trkpt>
      <trkpt lat="42.78111" lon="0.3112">
        <ele>1332</ele>
        <time>2025-08-23T13:47:57Z</time>
      </trkpt>
      <trkpt lat="42.78116" lon="0.31109">
        <ele>1326</ele>
        <time>2025-08-23T13:48:11Z</time>
      </trkpt>
      <trkpt lat="42.78122" lon="0.31097">
        <ele>1318</ele>
        <time>2025-08-23T13:48:26Z</time>
      </trkpt>
      <trkpt lat="42.78129" lon="0.3109">
        <ele>1315</ele>
        <time>2025-08-23T13:48:38Z</time>
      </trkpt>
      <trkpt lat="42.78137" lon="0.31084">
        <ele>1315</ele>
        <time>2025-08-23T13:48:52Z</time>
      </trkpt>
      <trkpt lat="42.78143" lon="0.31074">
        <ele>1311</ele>
        <time>2025-08-23T13:49:04Z</time>
      </trkpt>
      <trkpt lat="42.78148" lon="0.31064">
        <ele>1305</ele>
        <time>2025-08-23T13:49:44Z</time>
      </trkpt>
      <trkpt lat="42.78154" lon="0.31055">
        <ele>1301</ele>
        <time>2025-08-23T13:49:59Z</time>
      </trkpt>
      <trkpt lat="42.78161" lon="0.31047">
        <ele>1304</ele>
        <time>2025-08-23T13:50:26Z</time>
      </trkpt>
      <trkpt lat="42.78169" lon="0.31038">
        <ele>1301</ele>
        <time>2025-08-23T13:50:36Z</time>
      </trkpt>
      <trkpt lat="42.78174" lon="0.31028">
        <ele>1295</ele>
        <time>2025-08-23T13:50:49Z</time>
      </trkpt>
      <trkpt lat="42.78181" lon="0.31021">
        <ele>1291</ele>
        <time>2025-08-23T13:51:12Z</time>
      </trkpt>
      <trkpt lat="42.78189" lon="0.31014">
        <ele>1287</ele>
        <time>2025-08-23T13:51:53Z</time>
      </trkpt>
      <trkpt lat="42.78194" lon="0.31005">
        <ele>1281</ele>
        <time>2025-08-23T13:52:04Z</time>
      </trkpt>
      <trkpt lat="42.78203" lon="0.31005">
        <ele>1280</ele>
        <time>2025-08-23T13:52:17Z</time>
      </trkpt>
      <trkpt lat="42.78212" lon="0.31007">
        <ele>1277</ele>
        <time>2025-08-23T13:52:29Z</time>
      </trkpt>
      <trkpt lat="42.78221" lon="0.31009">
        <ele>1273</ele>
        <time>2025-08-23T13:52:43Z</time>
      </trkpt>
      <trkpt lat="42.7823" lon="0.31008">
        <ele>1273</ele>
        <time>2025-08-23T13:53:00Z</time>
      </trkpt>
      <trkpt lat="42.78238" lon="0.31006">
        <ele>1268</ele>
        <time>2025-08-23T13:53:10Z</time>
      </trkpt>
      <trkpt lat="42.78235" lon="0.30999">
        <ele>1265</ele>
        <time>2025-08-23T13:53:41Z</time>
      </trkpt>
      <trkpt lat="42.78241" lon="0.30991">
        <ele>1259</ele>
        <time>2025-08-23T13:54:03Z</time>
      </trkpt>
      <trkpt lat="42.78251" lon="0.30989">
        <ele>1253</ele>
        <time>2025-08-23T13:54:17Z</time>
      </trkpt>
      <trkpt lat="42.78258" lon="0.30988">
        <ele>1251</ele>
        <time>2025-08-23T13:54:39Z</time>
      </trkpt>
      <trkpt lat="42.78255" lon="0.30983">
        <ele>1249</ele>
        <time>2025-08-23T13:54:51Z</time>
      </trkpt>
      <trkpt lat="42.7826" lon="0.3098">
        <ele>1245</ele>
        <time>2025-08-23T13:55:22Z</time>
      </trkpt>
      <trkpt lat="42.78258" lon="0.3097">
        <ele>1241</ele>
        <time>2025-08-23T13:55:48Z</time>
      </trkpt>
      <trkpt lat="42.7826" lon="0.30958">
        <ele>1235</ele>
        <time>2025-08-23T13:56:35Z</time>
      </trkpt>
      <trkpt lat="42.78268" lon="0.30955">
        <ele>1232</ele>
        <time>2025-08-23T13:56:47Z</time>
      </trkpt>
      <trkpt lat="42.78277" lon="0.30952">
        <ele>1230</ele>
        <time>2025-08-23T13:56:59Z</time>
      </trkpt>
      <trkpt lat="42.78285" lon="0.30946">
        <ele>1225</ele>
        <time>2025-08-23T13:57:14Z</time>
      </trkpt>
      <trkpt lat="42.78294" lon="0.30947">
        <ele>1223</ele>
        <time>2025-08-23T13:57:35Z</time>
      </trkpt>
      <trkpt lat="42.78302" lon="0.30942">
        <ele>1220</ele>
        <time>2025-08-23T13:57:56Z</time>
      </trkpt>
      <trkpt lat="42.78309" lon="0.30934">
        <ele>1212</ele>
        <time>2025-08-23T13:58:19Z</time>
      </trkpt>
      <trkpt lat="42.78318" lon="0.30931">
        <ele>1209</ele>
        <time>2025-08-23T13:58:37Z</time>
      </trkpt>
      <trkpt lat="42.78326" lon="0.30924">
        <ele>1205</ele>
        <time>2025-08-23T13:59:01Z</time>
      </trkpt>
      <trkpt lat="42.78332" lon="0.30911">
        <ele>1200</ele>
        <time>2025-08-23T13:59:26Z</time>
      </trkpt>
      <trkpt lat="42.78341" lon="0.30905">
        <ele>1195</ele>
        <time>2025-08-23T13:59:38Z</time>
      </trkpt>
      <trkpt lat="42.7835" lon="0.30901">
        <ele>1191</ele>
        <time>2025-08-23T14:00:08Z</time>
      </trkpt>
      <trkpt lat="42.78355" lon="0.30893">
        <ele>1184</ele>
        <time>2025-08-23T14:00:31Z</time>
      </trkpt>
      <trkpt lat="42.78363" lon="0.30885">
        <ele>1181</ele>
        <time>2025-08-23T14:00:45Z</time>
      </trkpt>
      <trkpt lat="42.78371" lon="0.30878">
        <ele>1177</ele>
        <time>2025-08-23T14:01:13Z</time>
      </trkpt>
      <trkpt lat="42.7837" lon="0.30867">
        <ele>1172</ele>
        <time>2025-08-23T14:01:30Z</time>
      </trkpt>
      <trkpt lat="42.7837" lon="0.30856">
        <ele>1165</ele>
        <time>2025-08-23T14:02:49Z</time>
      </trkpt>
      <trkpt lat="42.78363" lon="0.30847">
        <ele>1163</ele>
        <time>2025-08-23T14:03:03Z</time>
      </trkpt>
      <trkpt lat="42.78355" lon="0.3084">
        <ele>1161</ele>
        <time>2025-08-23T14:03:11Z</time>
      </trkpt>
      <trkpt lat="42.78346" lon="0.30841">
        <ele>1163</ele>
        <time>2025-08-23T14:03:27Z</time>
      </trkpt>
      <trkpt lat="42.78337" lon="0.30836">
        <ele>1161</ele>
        <time>2025-08-23T14:03:35Z</time>
      </trkpt>
      <trkpt lat="42.78329" lon="0.30832">
        <ele>1158</ele>
        <time>2025-08-23T14:03:41Z</time>
      </trkpt>
      <trkpt lat="42.7832" lon="0.30829">
        <ele>1158</ele>
        <time>2025-08-23T14:03:50Z</time>
      </trkpt>
      <trkpt lat="42.78311" lon="0.30827">
        <ele>1157</ele>
        <time>2025-08-23T14:03:57Z</time>
      </trkpt>
      <trkpt lat="42.78303" lon="0.30832">
        <ele>1158</ele>
        <time>2025-08-23T14:04:06Z</time>
      </trkpt>
      <trkpt lat="42.78293" lon="0.30835">
        <ele>1157</ele>
        <time>2025-08-23T14:04:15Z</time>
      </trkpt>
      <trkpt lat="42.78284" lon="0.3083">
        <ele>1159</ele>
        <time>2025-08-23T14:04:23Z</time>
      </trkpt>
      <trkpt lat="42.78277" lon="0.30821">
        <ele>1159</ele>
        <time>2025-08-23T14:04:30Z</time>
      </trkpt>
      <trkpt lat="42.78269" lon="0.30815">
        <ele>1158</ele>
        <time>2025-08-23T14:04:41Z</time>
      </trkpt>
      <trkpt lat="42.7826" lon="0.3081">
        <ele>1157</ele>
        <time>2025-08-23T14:04:50Z</time>
      </trkpt>
      <trkpt lat="42.7825" lon="0.30807">
        <ele>1155</ele>
        <time>2025-08-23T14:04:59Z</time>
      </trkpt>
      <trkpt lat="42.78242" lon="0.30804">
        <ele>1155</ele>
        <time>2025-08-23T14:05:06Z</time>
      </trkpt>
      <trkpt lat="42.78236" lon="0.30795">
        <ele>1153</ele>
        <time>2025-08-23T14:05:27Z</time>
      </trkpt>
      <trkpt lat="42.78226" lon="0.30796">
        <ele>1152</ele>
        <time>2025-08-23T14:05:33Z</time>
      </trkpt>
      <trkpt lat="42.78216" lon="0.308">
        <ele>1152</ele>
        <time>2025-08-23T14:05:42Z</time>
      </trkpt>
      <trkpt lat="42.78207" lon="0.30802">
        <ele>1151</ele>
        <time>2025-08-23T14:05:50Z</time>
      </trkpt>
      <trkpt lat="42.78199" lon="0.30805">
        <ele>1150</ele>
        <time>2025-08-23T14:05:56Z</time>
      </trkpt>
      <trkpt lat="42.78189" lon="0.30807">
        <ele>1149</ele>
        <time>2025-08-23T14:06:05Z</time>
      </trkpt>
      <trkpt lat="42.78182" lon="0.30801">
        <ele>1149</ele>
        <time>2025-08-23T14:06:15Z</time>
      </trkpt>
      <trkpt lat="42.78175" lon="0.308">
        <ele>1146</ele>
        <time>2025-08-23T14:06:27Z</time>
      </trkpt>
      <trkpt lat="42.78177" lon="0.30792">
        <ele>1144</ele>
        <time>2025-08-23T14:06:47Z</time>
      </trkpt>
      <trkpt lat="42.78184" lon="0.30784">
        <ele>1138</ele>
        <time>2025-08-23T14:07:02Z</time>
      </trkpt>
      <trkpt lat="42.78192" lon="0.30781">
        <ele>1136</ele>
        <time>2025-08-23T14:07:14Z</time>
      </trkpt>
      <trkpt lat="42.78201" lon="0.30775">
        <ele>1132</ele>
        <time>2025-08-23T14:07:45Z</time>
      </trkpt>
      <trkpt lat="42.7821" lon="0.30769">
        <ele>1130</ele>
        <time>2025-08-23T14:07:56Z</time>
      </trkpt>
      <trkpt lat="42.78217" lon="0.30762">
        <ele>1127</ele>
        <time>2025-08-23T14:08:07Z</time>
      </trkpt>
      <trkpt lat="42.78226" lon="0.30757">
        <ele>1126</ele>
        <time>2025-08-23T14:08:25Z</time>
      </trkpt>
      <trkpt lat="42.78234" lon="0.30752">
        <ele>1125</ele>
        <time>2025-08-23T14:08:34Z</time>
      </trkpt>
      <trkpt lat="42.78244" lon="0.30746">
        <ele>1126</ele>
        <time>2025-08-23T14:08:43Z</time>
      </trkpt>
      <trkpt lat="42.78253" lon="0.30741">
        <ele>1127</ele>
        <time>2025-08-23T14:08:51Z</time>
      </trkpt>
      <trkpt lat="42.78262" lon="0.30738">
        <ele>1124</ele>
        <time>2025-08-23T14:08:59Z</time>
      </trkpt>
      <trkpt lat="42.78271" lon="0.30736">
        <ele>1119</ele>
        <time>2025-08-23T14:09:09Z</time>
      </trkpt>
      <trkpt lat="42.7828" lon="0.30737">
        <ele>1118</ele>
        <time>2025-08-23T14:09:16Z</time>
      </trkpt>
      <trkpt lat="42.7829" lon="0.30736">
        <ele>1116</ele>
        <time>2025-08-23T14:09:24Z</time>
      </trkpt>
      <trkpt lat="42.78301" lon="0.30734">
        <ele>1114</ele>
        <time>2025-08-23T14:09:33Z</time>
      </trkpt>
      <trkpt lat="42.7831" lon="0.30733">
        <ele>1111</ele>
        <time>2025-08-23T14:09:39Z</time>
      </trkpt>
      <trkpt lat="42.7832" lon="0.30732">
        <ele>1111</ele>
        <time>2025-08-23T14:09:45Z</time>
      </trkpt>
      <trkpt lat="42.7833" lon="0.3073">
        <ele>1113</ele>
        <time>2025-08-23T14:09:52Z</time>
      </trkpt>
      <trkpt lat="42.78339" lon="0.30725">
        <ele>1114</ele>
        <time>2025-08-23T14:10:06Z</time>
      </trkpt>
      <trkpt lat="42.78348" lon="0.30725">
        <ele>1114</ele>
        <time>2025-08-23T14:10:13Z</time>
      </trkpt>
      <trkpt lat="42.78358" lon="0.30726">
        <ele>1113</ele>
        <time>2025-08-23T14:10:20Z</time>
      </trkpt>
      <trkpt lat="42.78369" lon="0.30727">
        <ele>1113</ele>
        <time>2025-08-23T14:10:28Z</time>
      </trkpt>
      <trkpt lat="42.78378" lon="0.3073">
        <ele>1113</ele>
        <time>2025-08-23T14:10:36Z</time>
      </trkpt>
      <trkpt lat="42.78389" lon="0.30732">
        <ele>1111</ele>
        <time>2025-08-23T14:10:44Z</time>
      </trkpt>
      <trkpt lat="42.784" lon="0.3073">
        <ele>1110</ele>
        <time>2025-08-23T14:10:52Z</time>
      </trkpt>
    </trkseg>
  </trk>
</gpx>